Provisional Data: Marsh Creek near Blanchard, PA


Please select a monitoring station.
Please select start date.
Please select start date.

Toggle Unit: C/F Toggle Unit: C/F
Sample Time Temperature (C) Temperature (F) Specific Conductivity (mS/cm) pH   Turbidity (NTU+) DO (mg/L)
5/17/2022 12:00:00 AM 14.24 57.632 0.097 7.34 23.14 9.48
5/17/2022 12:15:00 AM 14.16 57.488 0.096 7.34 55.38 9.5
5/17/2022 12:30:00 AM 14.08 57.344 0.096 7.32 21.67 9.52
5/17/2022 12:45:00 AM 14.01 57.218 0.095 7.34 21.36 9.54
5/17/2022 1:00:00 AM 13.93 57.074 0.095 7.27 19.93 9.56
5/17/2022 1:15:00 AM 13.85 56.93 0.095 7.33 22.76 9.58
5/17/2022 1:30:00 AM 13.78 56.804 0.095 7.34 22.07 9.6
5/17/2022 1:45:00 AM 13.7 56.66 0.094 7.34 21.6 9.61
5/17/2022 2:00:00 AM 13.62 56.516 0.094 7.3 21.05 9.63
5/17/2022 2:15:00 AM 13.54 56.372 0.094 7.33 20.85 9.65
5/17/2022 2:30:00 AM 13.46 56.228 0.094 7.27 19.81 9.67
5/17/2022 2:45:00 AM 13.39 56.102 0.094 7.34 20 9.68
5/17/2022 3:00:00 AM 13.3 55.94 0.094 7.34 19.4 9.71
5/17/2022 3:15:00 AM 13.23 55.814 0.094 7.33 20.66 9.73
5/17/2022 3:30:00 AM 13.15 55.67 0.094 7.34 24.46 9.74
5/17/2022 3:45:00 AM 13.08 55.544 0.094 7.28 20.38 9.76
5/17/2022 4:00:00 AM 13 55.4 0.094 7.34 17.31 9.78
5/17/2022 4:15:00 AM 12.93 55.274 0.094 7.29 16.95 9.8
5/17/2022 4:30:00 AM 12.86 55.148 0.094 7.27 19.74 9.82
5/17/2022 4:45:00 AM 12.79 55.022 0.094 7.31 17.41 9.84
5/17/2022 5:00:00 AM 12.72 54.896 0.094 7.34 16.89 9.86
5/17/2022 5:15:00 AM 12.64 54.752 0.094 7.34 15.86 9.88
5/17/2022 5:30:00 AM 12.57 54.626 0.091 7.28 17.36 9.9
5/17/2022 5:45:00 AM 12.49 54.482 0.093 7.28 14.67 9.92
5/17/2022 6:00:00 AM 12.41 54.338 0.093 7.34 14.77 9.94
5/17/2022 6:15:00 AM 12.35 54.23 0.088 7.27 15.99 9.96
5/17/2022 6:30:00 AM 12.28 54.104 0.093 7.34 14.27 9.99
5/17/2022 6:45:00 AM 12.22 53.996 0.093 7.34 12.91 10.03
5/17/2022 7:00:00 AM 12.16 53.888 0.089 7.3 13.89 10.06
5/17/2022 7:15:00 AM 12.11 53.798 0.093 7.32 12.2 10.1
5/17/2022 7:30:00 AM 12.07 53.726 0.091 7.32 13.45 10.15
5/17/2022 7:45:00 AM 12.05 53.69 0.09 7.32 13.67 10.21
5/17/2022 8:00:00 AM 12.04 53.672 0.09 7.34 12.69 10.26
5/17/2022 8:15:00 AM 12.04 53.672 0.093 7.39 10.4 10.31
5/17/2022 8:30:00 AM 12.06 53.708 0.09 7.36 11.79 10.39
5/17/2022 8:45:00 AM 12.1 53.78 0.093 7.42 10.07 10.46
5/17/2022 9:00:00 AM 12.17 53.906 0.09 7.39 12.21 10.54
5/17/2022 9:15:00 AM 12.27 54.086 0.092 7.44 9.13 10.63
5/17/2022 9:30:00 AM 12.34 54.212 0.092 7.45 8.86 10.7
5/17/2022 9:45:00 AM 12.45 54.41 0.089 7.46 10.06 10.76
5/17/2022 10:00:00 AM 12.52 54.536 0.092 7.51 8.24 10.81
5/17/2022 10:15:00 AM 12.61 54.698 0.092 7.56 8.35 10.87
5/17/2022 10:30:00 AM 12.79 55.022 0.092 7.58 8.88 10.92
5/17/2022 10:45:00 AM 12.89 55.202 0.091 7.54 8.14 10.95
5/17/2022 11:00:00 AM 12.98 55.364 0.091 7.58 8.09 10.97
5/17/2022 11:15:00 AM 13.08 55.544 0.091 7.59 8.25 10.98
5/17/2022 11:30:00 AM 13.22 55.796 0.091 7.62 7.6 11
5/17/2022 11:45:00 AM 13.41 56.138 0.091 7.67 7.73 11.02
5/17/2022 12:00:00 PM 13.63 56.534 0.091 7.71 7.46 11.04
5/17/2022 12:15:00 PM 13.89 57.002 0.09 7.68 7.14 11.07
5/17/2022 12:30:00 PM 14.18 57.524 0.091 7.78 7.37 11.07
5/17/2022 12:45:00 PM 14.52 58.136 0.091 7.81 6.92 11.07
5/17/2022 1:00:00 PM 14.69 58.442 0.09 7.81 7.12 11.04
5/17/2022 1:15:00 PM 14.92 58.856 0.09 7.84 6.93 11.01
5/17/2022 1:30:00 PM 15.1 59.18 0.09 7.82 7.05 10.97
5/17/2022 1:45:00 PM 15.24 59.432 0.088 7.82 8.89 10.93
5/17/2022 2:00:00 PM 15.42 59.756 0.09 7.88 7.09 10.91
5/17/2022 2:15:00 PM 15.52 59.936 0.09 7.89 6.96 10.87
5/17/2022 2:30:00 PM 15.67 60.206 0.09 7.9 7.04 10.83
5/17/2022 2:45:00 PM 15.8 60.44 0.09 7.93 6.86 10.8
5/17/2022 3:00:00 PM 15.98 60.764 0.089 7.88 6.94 10.78
5/17/2022 3:15:00 PM 16.16 61.088 0.089 7.96 6.86 10.75
5/17/2022 3:30:00 PM 16.29 61.322 0.089 7.93 6.93 10.72
5/17/2022 3:45:00 PM 16.44 61.592 0.089 8 7.81 10.69
5/17/2022 4:00:00 PM 16.56 61.808 0.089 7.97 7.32 10.63
5/17/2022 4:15:00 PM 16.65 61.97 0.089 7.98 7.35 10.58
5/17/2022 4:30:00 PM 16.72 62.096 0.089 7.94 6.78 10.52
5/17/2022 4:45:00 PM 16.78 62.204 0.089 7.96 7.24 10.45
5/17/2022 5:00:00 PM 16.81 62.258 0.089 7.85 6.53 10.39
5/17/2022 5:15:00 PM 16.82 62.276 0.089 7.86 6.59 10.32
5/17/2022 5:30:00 PM 16.81 62.258 0.089 7.8 6.46 10.26
5/17/2022 5:45:00 PM 16.76 62.168 0.088 7.83 6.23 10.2
5/17/2022 6:00:00 PM 16.72 62.096 0.089 7.74 6.84 10.12
5/17/2022 6:15:00 PM 16.64 61.952 0.089 7.69 6.13 10.05
5/17/2022 6:30:00 PM 16.58 61.844 0.089 7.7 6.41 9.99
5/17/2022 6:45:00 PM 16.49 61.682 0.089 7.67 6.36 9.92
5/17/2022 7:00:00 PM 16.41 61.538 0.089 7.62 6.75 9.85
5/17/2022 7:15:00 PM 16.32 61.376 0.089 7.6 6.78 9.79
5/17/2022 7:30:00 PM 16.23 61.214 0.089 7.51 6.68 9.73
5/17/2022 7:45:00 PM 16.14 61.052 0.089 7.49 6.65 9.67
5/17/2022 8:00:00 PM 16.05 60.89 0.089 7.47 6.82 9.61
5/17/2022 8:15:00 PM 15.96 60.728 0.089 7.49 6.9 9.56
5/17/2022 8:30:00 PM 15.86 60.548 0.089 7.47 6.86 9.5
5/17/2022 8:45:00 PM 15.78 60.404 0.09 7.44 8.62 9.45
5/17/2022 9:00:00 PM 15.68 60.224 0.09 7.42 7.36 9.41
5/17/2022 9:15:00 PM 15.58 60.044 0.09 7.41 7.46 9.38
5/17/2022 9:30:00 PM 15.47 59.846 0.09 7.4 7.59 9.36
5/17/2022 9:45:00 PM 15.37 59.666 0.09 7.38 7.14 9.35
5/17/2022 10:00:00 PM 15.27 59.486 0.09 7.31 7.69 9.35
5/17/2022 10:15:00 PM 15.17 59.306 0.09 7.36 7.1 9.35
5/17/2022 10:30:00 PM 15.07 59.126 0.09 7.36 6.98 9.35
5/17/2022 10:45:00 PM 14.97 58.946 0.09 7.35 7.11 9.37
5/17/2022 11:00:00 PM 14.85 58.73 0.09 7.35 7.63 9.38
5/17/2022 11:15:00 PM 14.75 58.55 0.09 7.28 7.14 9.4
5/17/2022 11:30:00 PM 14.64 58.352 0.09 7.34 7.43 9.42
5/17/2022 11:45:00 PM 14.53 58.154 0.09 7.33 7.4 9.45
5/18/2022 12:00:00 AM 14.41 57.938 0.09 7.34 7.43 9.47
5/18/2022 12:15:00 AM 14.3 57.74 0.09 7.3 7.66 9.5
5/18/2022 12:30:00 AM 14.17 57.506 0.09 7.34 7.97 9.52
5/18/2022 12:45:00 AM 14.06 57.308 0.09 7.28 7.39 9.55
5/18/2022 1:00:00 AM 13.93 57.074 0.091 7.34 7.62 9.58
5/18/2022 1:15:00 AM 13.82 56.876 0.09 7.33 7.21 9.6
5/18/2022 1:30:00 AM 13.7 56.66 0.09 7.31 7.29 9.63
5/18/2022 1:45:00 AM 13.58 56.444 0.09 7.33 7.39 9.65
5/18/2022 2:00:00 AM 13.47 56.246 0.09 7.28 7.48 9.68
5/18/2022 2:15:00 AM 13.36 56.048 0.09 7.27 7.37 9.71
5/18/2022 2:30:00 AM 13.25 55.85 0.09 7.32 6.92 9.73
5/18/2022 2:45:00 AM 13.14 55.652 0.09 7.27 6.98 9.77
5/18/2022 3:00:00 AM 13.04 55.472 0.09 7.3 6.95 9.79
5/18/2022 3:15:00 AM 12.93 55.274 0.09 7.32 7.3 9.82
5/18/2022 3:30:00 AM 12.83 55.094 0.09 7.33 7.45 9.85
5/18/2022 3:45:00 AM 12.72 54.896 0.09 7.32 7.24 9.88
5/18/2022 4:00:00 AM 12.61 54.698 0.09 7.33 7.27 9.9
5/18/2022 4:15:00 AM 12.51 54.518 0.09 7.33 7.08 9.93
5/18/2022 4:30:00 AM 12.41 54.338 0.09 7.33 7.39 9.95
5/18/2022 4:45:00 AM 12.3 54.14 0.09 7.32 7.31 9.98
5/18/2022 5:00:00 AM 12.2 53.96 0.09 7.33 7.18 10.01
5/18/2022 5:15:00 AM 12.1 53.78 0.09 7.31 6.89 10.04
5/18/2022 5:30:00 AM 12 53.6 0.09 7.33 6.92 10.07
5/18/2022 5:45:00 AM 11.91 53.438 0.09 7.29 6.96 10.09
5/18/2022 6:00:00 AM 11.81 53.258 0.09 7.33 6.95 10.12
5/18/2022 6:15:00 AM 11.72 53.096 0.09 7.26 6.61 10.15
5/18/2022 6:30:00 AM 11.63 52.934 0.09 7.33 6.81 10.19
5/18/2022 6:45:00 AM 11.55 52.79 0.088 7.3 8.81 10.24
5/18/2022 7:00:00 AM 11.48 52.664 0.09 7.35 6.69 10.3
5/18/2022 7:15:00 AM 11.44 52.592 0.087 7.31 8.41 10.37
5/18/2022 7:30:00 AM 11.39 52.502 0.084 7.32 8.82 10.44
5/18/2022 7:45:00 AM 11.35 52.43 0.09 7.33 6.45 10.52
5/18/2022 8:00:00 AM 11.33 52.394 0.09 7.4 6.06 10.6
5/18/2022 8:15:00 AM 11.31 52.358 0.089 7.42 6.11 10.69
5/18/2022 8:30:00 AM 11.31 52.358 0.084 7.38 7.37 10.78
5/18/2022 8:45:00 AM 11.34 52.412 0.083 7.41 7.92 10.86
5/18/2022 9:00:00 AM 11.36 52.448 0.083 7.43 7.67 10.95
5/18/2022 9:15:00 AM 11.43 52.574 0.083 7.46 11.37 11.05
5/18/2022 9:30:00 AM 11.51 52.718 0.083 7.48 12.07 11.14
5/18/2022 9:45:00 AM 11.62 52.916 0.083 7.53 10.13 11.21
5/18/2022 10:00:00 AM 11.73 53.114 0.083 7.54 8.06 11.28
5/18/2022 10:15:00 AM 11.86 53.348 0.083 7.58 8.34 11.35
5/18/2022 10:30:00 AM 12 53.6 0.082 7.61 8.03 11.4
5/18/2022 10:45:00 AM 12.16 53.888 0.088 7.67 5.58 11.45
5/18/2022 11:00:00 AM 12.34 54.212 0.087 7.74 5.84 11.48
5/18/2022 11:15:00 AM 12.53 54.554 0.087 7.78 6.89 11.51
5/18/2022 11:30:00 AM 12.74 54.932 0.087 7.82 5.79 11.52
5/18/2022 11:45:00 AM 12.97 55.346 0.087 7.82 5.37 11.54
5/18/2022 12:00:00 PM 13.12 55.616 0.087 7.89 5.39 11.53
5/18/2022 12:15:00 PM 13.19 55.742 0.087 7.9 5.36 11.49
5/18/2022 12:30:00 PM 13.25 55.85 0.087 7.9 5.69 11.44
5/18/2022 12:45:00 PM 13.32 55.976 0.087 7.93 5.33 11.41
5/18/2022 1:00:00 PM 13.53 56.354 0.086 7.98 5.15 11.44
5/18/2022 1:15:00 PM 13.67 56.606 0.086 8 5.25 11.45
5/18/2022 1:30:00 PM 13.87 56.966 0.086 8.08 6.05 11.46
5/18/2022 1:45:00 PM 14.12 57.416 0.086 8.15 5.42 11.46
5/18/2022 2:00:00 PM 14.27 57.686 0.086 8.21 5.03 11.44
5/18/2022 2:15:00 PM 14.42 57.956 0.086 8.25 5.44 11.39
5/18/2022 2:30:00 PM 14.57 58.226 0.085 8.27 5.18 11.37
5/18/2022 2:45:00 PM 14.69 58.442 0.085 8.35 5.43 11.34
5/18/2022 3:00:00 PM 14.78 58.604 0.085 8.4 5.37 11.32
5/18/2022 3:15:00 PM 14.85 58.73 0.085 8.46 5.41 11.28
5/18/2022 3:30:00 PM 14.84 58.712 0.085 8.45 5.21 11.21
5/18/2022 3:45:00 PM 14.84 58.712 0.085 8.38 5.36 11.15
5/18/2022 4:00:00 PM 14.83 58.694 0.085 8.33 5.51 11.02
5/18/2022 4:15:00 PM 14.82 58.676 0.085 8.24 5.53 10.9
5/18/2022 4:30:00 PM 14.79 58.622 0.085 8.12 6.28 10.76
5/18/2022 4:45:00 PM 14.74 58.532 0.085 7.98 5.46 10.62
5/18/2022 5:00:00 PM 14.65 58.37 0.085 7.86 5.31 10.48
5/18/2022 5:15:00 PM 14.57 58.226 0.085 7.76 5.5 10.36
5/18/2022 5:30:00 PM 14.51 58.118 0.085 7.68 5.39 10.25
5/18/2022 5:45:00 PM 14.47 58.046 0.086 7.64 5.64 10.21
5/18/2022 6:00:00 PM 14.42 57.956 0.086 7.54 5.17 10.15
5/18/2022 6:15:00 PM 14.36 57.848 0.086 7.56 5.42 10.09
5/18/2022 6:30:00 PM 14.31 57.758 0.086 7.54 5.45 10.05
5/18/2022 6:45:00 PM 14.26 57.668 0.086 7.48 5.53 10.01
5/18/2022 7:00:00 PM 14.22 57.596 0.086 7.49 5.7 9.98
5/18/2022 7:15:00 PM 14.18 57.524 0.086 7.47 5.42 9.94
5/18/2022 7:30:00 PM 14.15 57.47 0.087 7.45 5.71 9.91
5/18/2022 7:45:00 PM 14.12 57.416 0.087 7.44 5.92 9.86
5/18/2022 8:00:00 PM 14.08 57.344 0.087 7.43 5.76 9.83
5/18/2022 8:15:00 PM 14.04 57.272 0.087 7.41 5.62 9.8
5/18/2022 8:30:00 PM 14 57.2 0.087 7.34 5.87 9.77
5/18/2022 8:45:00 PM 13.95 57.11 0.087 7.39 5.78 9.75
5/18/2022 9:00:00 PM 13.91 57.038 0.087 7.32 5.7 9.72
5/18/2022 9:15:00 PM 13.87 56.966 0.087 7.37 5.74 9.71
5/18/2022 9:30:00 PM 13.83 56.894 0.087 7.36 6.09 9.69
5/18/2022 9:45:00 PM 13.79 56.822 0.087 7.34 5.99 9.69
5/18/2022 10:00:00 PM 13.75 56.75 0.087 7.35 6.18 9.67
5/18/2022 10:15:00 PM 13.72 56.696 0.087 7.28 6.21 9.68
5/18/2022 10:30:00 PM 13.68 56.624 0.087 7.33 6.1 9.67
5/18/2022 10:45:00 PM 13.64 56.552 0.087 7.3 7.02 9.69
5/18/2022 11:00:00 PM 13.6 56.48 0.087 7.34 6.2 9.68
5/18/2022 11:15:00 PM 13.57 56.426 0.087 7.34 6.72 9.68
5/18/2022 11:30:00 PM 13.52 56.336 0.087 7.34 6.55 9.68
5/18/2022 11:45:00 PM 13.49 56.282 0.087 7.29 6.31 9.7
5/19/2022 12:00:00 AM 13.44 56.192 0.087 7.33 6.76 9.7
5/19/2022 12:15:00 AM 13.4 56.12 0.087 7.29 6.97 9.71
5/19/2022 12:30:00 AM 13.36 56.048 0.087 7.34 6.4 9.72
5/19/2022 12:45:00 AM 13.32 55.976 0.087 7.34 6.73 9.72
5/19/2022 1:00:00 AM 13.28 55.904 0.087 7.33 6.46 9.74
5/19/2022 1:15:00 AM 13.24 55.832 0.087 7.31 6.65 9.74
5/19/2022 1:30:00 AM 13.2 55.76 0.087 7.34 6.55 9.75
5/19/2022 1:45:00 AM 13.16 55.688 0.088 7.33 6.28 9.76
5/19/2022 2:00:00 AM 13.12 55.616 0.088 7.34 6.85 9.77
5/19/2022 2:15:00 AM 13.08 55.544 0.088 7.33 6.89 9.78
5/19/2022 2:30:00 AM 13.03 55.454 0.088 7.34 7.77 9.79
5/19/2022 2:45:00 AM 13 55.4 0.088 7.33 6.59 9.79
5/19/2022 3:00:00 AM 12.96 55.328 0.088 7.34 6.91 9.81
5/19/2022 3:15:00 AM 12.93 55.274 0.088 7.34 6.62 9.8
5/19/2022 3:30:00 AM 12.89 55.202 0.088 7.34 6.8 9.81
5/19/2022 3:45:00 AM 12.86 55.148 0.088 7.32 6.63 9.83
5/19/2022 4:00:00 AM 12.82 55.076 0.089 7.31 6.8 9.84
5/19/2022 4:15:00 AM 12.79 55.022 0.089 7.34 6.63 9.85
5/19/2022 4:30:00 AM 12.76 54.968 0.089 7.35 6.98 9.85
5/19/2022 4:45:00 AM 12.73 54.914 0.09 7.25 6.85 9.86
5/19/2022 5:00:00 AM 12.7 54.86 0.09 7.35 7.25 9.87
5/19/2022 5:15:00 AM 12.67 54.806 0.09 7.28 6.74 9.87
5/19/2022 5:30:00 AM 12.65 54.77 0.09 7.34 6.89 9.87
5/19/2022 5:45:00 AM 12.62 54.716 0.089 7.34 6.91 9.89
5/19/2022 6:00:00 AM 12.6 54.68 0.087 7.31 10.34 9.88
5/19/2022 6:15:00 AM 12.57 54.626 0.089 7.35 6.78 9.9
5/19/2022 6:30:00 AM 12.55 54.59 0.089 7.3 6.45 9.91
5/19/2022 6:45:00 AM 12.53 54.554 0.089 7.29 6.08 9.93
5/19/2022 7:00:00 AM 12.52 54.536 0.089 7.35 6.17 9.95
5/19/2022 7:15:00 AM 12.49 54.482 0.089 7.34 6.68 9.97
5/19/2022 7:30:00 AM 12.49 54.482 0.089 7.35 6.37 10
5/19/2022 7:45:00 AM 12.49 54.482 0.089 7.37 6.05 10.07
5/19/2022 8:00:00 AM 12.48 54.464 0.089 7.38 5.71 10.1
5/19/2022 8:15:00 AM 12.47 54.446 0.089 7.39 9.51 10.14
5/19/2022 8:30:00 AM 12.47 54.446 0.089 7.39 6.04 10.18
5/19/2022 8:45:00 AM 12.47 54.446 0.089 7.4 5.63 10.21
5/19/2022 9:00:00 AM 12.47 54.446 0.089 7.41 5.61 10.25
5/19/2022 9:15:00 AM 12.5 54.5 0.088 7.43 5.75 10.35
5/19/2022 9:30:00 AM 12.51 54.518 0.088 7.45 5.83 10.41
5/19/2022 9:45:00 AM 12.54 54.572 0.088 7.47 5.6 10.48
5/19/2022 10:00:00 AM 12.56 54.608 0.088 7.5 5.37 10.56
5/19/2022 10:15:00 AM 12.58 54.644 0.088 7.51 5.75 10.61
5/19/2022 10:30:00 AM 12.63 54.734 0.088 7.54 5.52 10.7
5/19/2022 10:45:00 AM 12.68 54.824 0.088 7.57 5.36 10.76
5/19/2022 11:00:00 AM 12.73 54.914 0.088 7.58 5.62 10.83
5/19/2022 11:15:00 AM 12.76 54.968 0.088 7.56 5.61 10.85
5/19/2022 11:30:00 AM 12.81 55.058 0.088 7.58 5.81 10.9
5/19/2022 11:45:00 AM 12.82 55.076 0.088 7.61 5.3 10.9
5/19/2022 12:00:00 PM 12.84 55.112 0.088 7.63 5.19 10.88
5/19/2022 12:15:00 PM 12.88 55.184 0.088 7.67 5.4 10.9
5/19/2022 12:30:00 PM 12.93 55.274 0.088 7.62 5.56 10.94
5/19/2022 12:45:00 PM 13.03 55.454 0.087 7.72 5.17 11.01
5/19/2022 1:00:00 PM 13.17 55.706 0.087 7.79 5.27 11.1
5/19/2022 1:15:00 PM 13.26 55.868 0.087 7.82 5.09 11.14
5/19/2022 1:30:00 PM 13.41 56.138 0.087 7.88 5.33 11.21
5/19/2022 1:45:00 PM 13.64 56.552 0.087 7.95 5.06 11.28
5/19/2022 2:00:00 PM 13.85 56.93 0.087 8.06 5.27 11.34
5/19/2022 2:15:00 PM 13.94 57.092 0.087 8.05 5.29 11.27
5/19/2022 2:30:00 PM 14.16 57.488 0.087 8.16 4.97 11.29
5/19/2022 2:45:00 PM 14.37 57.866 0.087 8.22 5 11.29
5/19/2022 3:00:00 PM 14.53 58.154 0.087 8.25 4.89 11.25
5/19/2022 3:15:00 PM 14.58 58.244 0.087 8.27 5.15 11.2
5/19/2022 3:30:00 PM 14.77 58.586 0.086 8.28 5.42 11.19
5/19/2022 3:45:00 PM 14.92 58.856 0.086 8.33 5.04 11.18
5/19/2022 4:00:00 PM 15.1 59.18 0.086 8.43 5.61 11.16
5/19/2022 4:15:00 PM 15.22 59.396 0.086 8.38 5.06 11.09
5/19/2022 4:30:00 PM 15.35 59.63 0.086 8.42 5.2 11
5/19/2022 4:45:00 PM 15.37 59.666 0.086 8.41 5.23 10.9
5/19/2022 5:00:00 PM 15.44 59.792 0.086 8.37 5.12 10.82
5/19/2022 5:15:00 PM 15.52 59.936 0.086 8.34 5.19 10.75
5/19/2022 5:30:00 PM 15.59 60.062 0.085 8.29 6.81 10.67
5/19/2022 5:45:00 PM 15.62 60.116 0.086 8.21 5.22 10.61
5/19/2022 6:00:00 PM 15.62 60.116 0.086 8.12 5.41 10.55
5/19/2022 6:15:00 PM 15.65 60.17 0.086 8.09 5.2 10.48
5/19/2022 6:30:00 PM 15.66 60.188 0.086 8.03 5.01 10.4
5/19/2022 6:45:00 PM 15.66 60.188 0.086 7.93 5.5 10.32
5/19/2022 7:00:00 PM 15.64 60.152 0.086 7.87 5.11 10.24
5/19/2022 7:15:00 PM 15.62 60.116 0.086 7.8 5.07 10.16
5/19/2022 7:30:00 PM 15.59 60.062 0.086 7.75 6.15 10.08
5/19/2022 7:45:00 PM 15.56 60.008 0.086 7.69 5.03 10
5/19/2022 8:00:00 PM 15.53 59.954 0.086 7.57 5.08 9.91
5/19/2022 8:15:00 PM 15.49 59.882 0.086 7.59 5.02 9.82
5/19/2022 8:30:00 PM 15.45 59.81 0.086 7.47 5.2 9.73
5/19/2022 8:45:00 PM 15.4 59.72 0.087 7.5 5.25 9.64
5/19/2022 9:00:00 PM 15.36 59.648 0.087 7.47 5.69 9.57
5/19/2022 9:15:00 PM 15.31 59.558 0.087 7.44 5.68 9.52
5/19/2022 9:30:00 PM 15.27 59.486 0.087 7.42 5.68 9.47
5/19/2022 9:45:00 PM 15.22 59.396 0.087 7.4 5.62 9.43
5/19/2022 10:00:00 PM 15.18 59.324 0.087 7.38 6.35 9.4
5/19/2022 10:15:00 PM 15.14 59.252 0.088 7.33 5.56 9.37
5/19/2022 10:30:00 PM 15.1 59.18 0.088 7.35 5.59 9.36
5/19/2022 10:45:00 PM 15.06 59.108 0.088 7.29 5.67 9.35
5/19/2022 11:00:00 PM 15.02 59.036 0.088 7.34 5.77 9.35
5/19/2022 11:15:00 PM 14.98 58.964 0.088 7.34 5.41 9.35
5/19/2022 11:30:00 PM 14.92 58.856 0.088 7.26 5.56 9.35
5/19/2022 11:45:00 PM 14.87 58.766 0.088 7.26 5.42 9.36
5/20/2022 12:00:00 AM 14.81 58.658 0.088 7.32 5.64 9.36
5/20/2022 12:15:00 AM 14.74 58.532 0.089 7.32 5.56 9.37
5/20/2022 12:30:00 AM 14.68 58.424 0.088 7.32 5.68 9.38
5/20/2022 12:45:00 AM 14.61 58.298 0.089 7.32 5.57 9.4
5/20/2022 1:00:00 AM 14.55 58.19 0.089 7.31 5.74 9.41
5/20/2022 1:15:00 AM 14.49 58.082 0.089 7.3 5.7 9.42
5/20/2022 1:30:00 AM 14.42 57.956 0.089 7.31 5.63 9.43
5/20/2022 1:45:00 AM 14.36 57.848 0.089 7.31 5.75 9.44
5/20/2022 2:00:00 AM 14.3 57.74 0.089 7.3 5.73 9.46
5/20/2022 2:15:00 AM 14.23 57.614 0.089 7.31 5.59 9.47
5/20/2022 2:30:00 AM 14.17 57.506 0.089 7.3 5.53 9.48
5/20/2022 2:45:00 AM 14.11 57.398 0.089 7.3 5.69 9.5
5/20/2022 3:00:00 AM 14.04 57.272 0.089 7.3 5.69 9.51
5/20/2022 3:15:00 AM 13.98 57.164 0.089 7.24 5.87 9.52
5/20/2022 3:30:00 AM 13.92 57.056 0.089 7.24 5.65 9.54
5/20/2022 3:45:00 AM 13.85 56.93 0.089 7.3 5.68 9.55
5/20/2022 4:00:00 AM 13.79 56.822 0.089 7.3 5.61 9.57
5/20/2022 4:15:00 AM 13.72 56.696 0.089 7.3 5.51 9.58
5/20/2022 4:30:00 AM 13.66 56.588 0.089 7.3 6.69 9.6
5/20/2022 4:45:00 AM 13.59 56.462 0.089 7.29 5.81 9.62
5/20/2022 5:00:00 AM 13.53 56.354 0.089 7.23 5.59 9.63
5/20/2022 5:15:00 AM 13.47 56.246 0.089 7.28 5.56 9.65
5/20/2022 5:30:00 AM 13.42 56.156 0.089 7.25 5.93 9.66
5/20/2022 5:45:00 AM 13.37 56.066 0.089 7.25 5.58 9.68
5/20/2022 6:00:00 AM 13.32 55.976 0.089 7.29 5.42 9.69
5/20/2022 6:15:00 AM 13.29 55.922 0.089 7.29 5.73 9.72
5/20/2022 6:30:00 AM 13.25 55.85 0.089 7.3 5.43 9.73
5/20/2022 6:45:00 AM 13.21 55.778 0.089 7.29 5.75 9.76
5/20/2022 7:00:00 AM 13.18 55.724 0.089 7.28 5.37 9.81
5/20/2022 7:15:00 AM 13.15 55.67 0.089 7.32 5.4 9.82
5/20/2022 7:30:00 AM 13.13 55.634 0.088 7.32 5.61 9.86
5/20/2022 7:45:00 AM 13.11 55.598 0.088 7.32 5.65 9.89
5/20/2022 8:00:00 AM 13.1 55.58 0.088 7.34 5.38 9.94
5/20/2022 8:15:00 AM 13.1 55.58 0.088 7.36 5.23 10.04
5/20/2022 8:30:00 AM 13.1 55.58 0.088 7.39 5.31 10.15
5/20/2022 8:45:00 AM 13.1 55.58 0.088 7.39 5.16 10.23
5/20/2022 9:00:00 AM 13.11 55.598 0.088 7.37 5.23 10.3
5/20/2022 9:15:00 AM 13.12 55.616 0.088 7.46 5.73 10.39
5/20/2022 9:30:00 AM 13.13 55.634 0.088 7.41 5.5 10.47
5/20/2022 9:45:00 AM 13.16 55.688 0.088 7.52 5.68 10.58
5/20/2022 10:00:00 AM 13.18 55.724 0.088 7.53 5.23 10.62
5/20/2022 10:15:00 AM 13.22 55.796 0.088 7.52 5.16 10.73
5/20/2022 10:30:00 AM 13.28 55.904 0.088 7.55 5.09 10.83
5/20/2022 10:45:00 AM 13.4 56.12 0.087 7.66 5.09 10.97
5/20/2022 11:00:00 AM 13.53 56.354 0.087 7.67 4.87 11.09
5/20/2022 11:15:00 AM 13.66 56.588 0.087 7.79 4.85 11.18
5/20/2022 11:30:00 AM 13.81 56.858 0.087 7.83 4.62 11.27
5/20/2022 11:45:00 AM 13.92 57.056 0.086 7.96 4.66 11.33
5/20/2022 12:00:00 PM 14.05 57.29 0.086 8.01 5.01 11.37
5/20/2022 12:15:00 PM 14.17 57.506 0.086 8.12 4.68 11.41
5/20/2022 12:30:00 PM 14.23 57.614 0.086 8.01 4.87 11.26
5/20/2022 12:45:00 PM 14.32 57.776 0.086 8.04 5.08 11.22
5/20/2022 1:00:00 PM 14.49 58.082 0.085 8.2 4.66 11.27
5/20/2022 1:15:00 PM 14.58 58.244 0.086 8.26 4.95 11.22
5/20/2022 1:30:00 PM 14.56 58.208 0.086 8.2 5.03 11.13
5/20/2022 1:45:00 PM 14.59 58.262 0.086 8.18 4.9 11.06
5/20/2022 2:00:00 PM 14.64 58.352 0.085 8.18 5.07 11.07
5/20/2022 2:15:00 PM 14.68 58.424 0.085 8.26 5.12 11.08
5/20/2022 2:30:00 PM 14.71 58.478 0.085 8.25 4.96 11.01
5/20/2022 2:45:00 PM 14.79 58.622 0.085 8.27 5.01 10.96
5/20/2022 3:00:00 PM 14.81 58.658 0.086 8.16 5.64 10.85
5/20/2022 3:15:00 PM 14.83 58.694 0.085 8.06 5.16 10.73
5/20/2022 3:30:00 PM 14.86 58.748 0.086 7.97 5.54 10.61
5/20/2022 3:45:00 PM 14.87 58.766 0.086 7.86 5.66 10.52
5/20/2022 4:00:00 PM 14.91 58.838 0.086 7.86 5.07 10.47
5/20/2022 4:15:00 PM 14.99 58.982 0.087 7.86 5.37 10.5
5/20/2022 4:30:00 PM 15.06 59.108 0.087 7.86 6.9 10.5
5/20/2022 4:45:00 PM 15.09 59.162 0.088 7.83 7.39 10.47
5/20/2022 5:00:00 PM 15.12 59.216 0.089 7.84 7.36 10.46
5/20/2022 5:15:00 PM 15.17 59.306 0.089 7.85 7.25 10.5
5/20/2022 5:30:00 PM 15.22 59.396 0.09 7.85 7.84 10.49
5/20/2022 5:45:00 PM 15.26 59.468 0.09 7.84 7.22 10.44
5/20/2022 6:00:00 PM 15.29 59.522 0.09 7.78 7.04 10.41
5/20/2022 6:15:00 PM 15.3 59.54 0.09 7.79 7.52 10.35
5/20/2022 6:30:00 PM 15.27 59.486 0.091 7.76 7.05 10.31
5/20/2022 6:45:00 PM 15.24 59.432 0.091 7.68 6.8 10.26
5/20/2022 7:00:00 PM 15.23 59.414 0.092 7.71 7.47 10.21
5/20/2022 7:15:00 PM 15.19 59.342 0.091 7.67 6.74 10.15
5/20/2022 7:30:00 PM 15.17 59.306 0.092 7.62 6.61 10.09
5/20/2022 7:45:00 PM 15.14 59.252 0.091 7.6 7.11 10.02
5/20/2022 8:00:00 PM 15.12 59.216 0.092 7.59 6.87 9.95
5/20/2022 8:15:00 PM 15.09 59.162 0.092 7.49 7 9.87
5/20/2022 8:30:00 PM 15.06 59.108 0.092 7.52 7.05 9.8
5/20/2022 8:45:00 PM 15.04 59.072 0.092 7.49 7.01 9.73
5/20/2022 9:00:00 PM 15 59 0.092 7.4 7.27 9.66
5/20/2022 9:15:00 PM 14.97 58.946 0.092 7.44 7.84 9.6
5/20/2022 9:30:00 PM 14.93 58.874 0.092 7.4 6.93 9.55
5/20/2022 9:45:00 PM 14.9 58.82 0.092 7.39 6.72 9.52
5/20/2022 10:00:00 PM 14.87 58.766 0.092 7.37 6.68 9.49
5/20/2022 10:15:00 PM 14.83 58.694 0.092 7.31 6.69 9.47
5/20/2022 10:30:00 PM 14.8 58.64 0.091 7.33 6.8 9.46
5/20/2022 10:45:00 PM 14.77 58.586 0.091 7.35 6.93 9.45
5/20/2022 11:00:00 PM 14.75 58.55 0.091 7.33 6.98 9.45
5/20/2022 11:15:00 PM 14.73 58.514 0.091 7.33 6.27 9.45
5/20/2022 11:30:00 PM 14.71 58.478 0.091 7.32 7.08 9.45
5/20/2022 11:45:00 PM 14.68 58.424 0.091 7.32 6.51 9.44
5/21/2022 12:00:00 AM 14.67 58.406 0.092 7.31 6.96 9.44
5/21/2022 12:15:00 AM 14.65 58.37 0.092 7.32 6.32 9.44
5/21/2022 12:30:00 AM 14.63 58.334 0.092 7.23 6.9 9.44
5/21/2022 12:45:00 AM 14.61 58.298 0.092 7.31 6.52 9.44
5/21/2022 1:00:00 AM 14.59 58.262 0.093 7.3 6.36 9.44
5/21/2022 1:15:00 AM 14.57 58.226 0.093 7.31 6.53 9.44
5/21/2022 1:30:00 AM 14.55 58.19 0.093 7.3 6.2 9.44
5/21/2022 1:45:00 AM 14.53 58.154 0.094 7.3 6.33 9.45
5/21/2022 2:00:00 AM 14.51 58.118 0.094 7.31 6.41 9.45
5/21/2022 2:15:00 AM 14.49 58.082 0.095 7.29 6.21 9.45
5/21/2022 2:30:00 AM 14.47 58.046 0.095 7.3 5.98 9.46
5/21/2022 2:45:00 AM 14.45 58.01 0.096 7.31 6.51 9.46
5/21/2022 3:00:00 AM 14.43 57.974 0.096 7.31 5.89 9.47
5/21/2022 3:15:00 AM 14.42 57.956 0.096 7.3 6.34 9.47
5/21/2022 3:30:00 AM 14.4 57.92 0.097 7.3 6.31 9.47
5/21/2022 3:45:00 AM 14.39 57.902 0.097 7.26 6.43 9.47
5/21/2022 4:00:00 AM 14.37 57.866 0.097 7.31 6.13 9.47
5/21/2022 4:15:00 AM 14.37 57.866 0.098 7.3 6.11 9.47
5/21/2022 4:30:00 AM 14.36 57.848 0.098 7.31 6.19 9.48
5/21/2022 4:45:00 AM 14.34 57.812 0.098 7.31 6 9.48
5/21/2022 5:00:00 AM 14.33 57.794 0.098 7.24 5.85 9.49
5/21/2022 5:15:00 AM 14.31 57.758 0.098 7.3 6.17 9.48
5/21/2022 5:30:00 AM 14.3 57.74 0.098 7.3 6.29 9.49
5/21/2022 5:45:00 AM 14.29 57.722 0.098 7.22 6.35 9.5
5/21/2022 6:00:00 AM 14.28 57.704 0.097 7.3 6.38 9.49
5/21/2022 6:15:00 AM 14.27 57.686 0.097 7.3 6.45 9.51
5/21/2022 6:30:00 AM 14.26 57.668 0.097 7.31 6.22 9.52
5/21/2022 6:45:00 AM 14.25 57.65 0.097 7.32 6.27 9.55
5/21/2022 7:00:00 AM 14.25 57.65 0.097 7.33 6.43 9.58
5/21/2022 7:15:00 AM 14.25 57.65 0.097 7.29 6.07 9.63
5/21/2022 7:30:00 AM 14.25 57.65 0.097 7.36 6.37 9.67
5/21/2022 7:45:00 AM 14.26 57.668 0.097 7.38 6.83 9.74
5/21/2022 8:00:00 AM 14.27 57.686 0.097 7.39 6.45 9.8
5/21/2022 8:15:00 AM 14.28 57.704 0.097 7.42 6.27 9.89
5/21/2022 8:30:00 AM 14.31 57.758 0.097 7.44 6.02 9.99
5/21/2022 8:45:00 AM 14.34 57.812 0.097 7.46 6.11 10.09
5/21/2022 9:00:00 AM 14.4 57.92 0.097 7.5 6.12 10.22
5/21/2022 9:15:00 AM 14.47 58.046 0.097 7.53 6.15 10.36
5/21/2022 9:30:00 AM 14.57 58.226 0.097 7.59 6.58 10.47
5/21/2022 9:45:00 AM 14.66 58.388 0.096 7.64 5.83 10.58
5/21/2022 10:00:00 AM 14.81 58.658 0.096 7.68 5.87 10.67
5/21/2022 10:15:00 AM 14.96 58.928 0.097 7.73 5.37 10.77
5/21/2022 10:30:00 AM 15.13 59.234 0.096 7.78 5.64 10.84
5/21/2022 10:45:00 AM 15.33 59.594 0.096 7.84 5.59 10.9
5/21/2022 11:00:00 AM 15.53 59.954 0.096 7.9 5.7 10.94
5/21/2022 11:15:00 AM 15.77 60.386 0.096 7.96 5.65 10.99
5/21/2022 11:30:00 AM 16.03 60.854 0.095 7.98 5.67 11.04
5/21/2022 11:45:00 AM 16.31 61.358 0.095 8.16 5.54 11.09
5/21/2022 12:00:00 PM 16.56 61.808 0.095 8.25 5.67 11.08
5/21/2022 12:15:00 PM 16.71 62.078 0.095 8.29 5.66 11.04
5/21/2022 12:30:00 PM 16.86 62.348 0.094 8.37 5.36 10.99
5/21/2022 12:45:00 PM 17.13 62.834 0.095 8.46 5.62 10.98
5/21/2022 1:00:00 PM 17.44 63.392 0.094 8.53 5.62 11.01
5/21/2022 1:15:00 PM 17.69 63.842 0.094 8.67 5.68 11.01
5/21/2022 1:30:00 PM 17.84 64.112 0.094 8.71 5.48 10.96
5/21/2022 1:45:00 PM 18.06 64.508 0.094 8.78 5.55 10.94
5/21/2022 2:00:00 PM 18.17 64.706 0.094 8.81 5.7 10.85
5/21/2022 2:15:00 PM 18.35 65.03 0.093 8.85 5.68 10.83
5/21/2022 2:30:00 PM 18.54 65.372 0.093 8.82 5.81 10.8
5/21/2022 2:45:00 PM 18.71 65.67799 0.093 8.89 5.32 10.77
5/21/2022 3:00:00 PM 18.88 65.984 0.093 8.92 5.63 10.74
5/21/2022 3:15:00 PM 19.07 66.326 0.093 8.96 5.26 10.67
5/21/2022 3:30:00 PM 19.19 66.542 0.092 8.99 5.73 10.64
5/21/2022 3:45:00 PM 19.31 66.758 0.092 9 5.93 10.57
5/21/2022 4:00:00 PM 19.44 66.992 0.091 8.96 5.5 10.5
5/21/2022 4:15:00 PM 19.56 67.208 0.091 9 5.94 10.37
5/21/2022 4:30:00 PM 19.65 67.37 0.091 9.01 5.46 10.29
5/21/2022 4:45:00 PM 19.74 67.532 0.091 8.96 5.65 10.19
5/21/2022 5:00:00 PM 19.82 67.676 0.091 8.95 5.5 10.09
5/21/2022 5:15:00 PM 19.86 67.748 0.091 8.93 5.58 9.99
5/21/2022 5:30:00 PM 19.88 67.784 0.091 8.86 5.63 9.89
5/21/2022 5:45:00 PM 19.89 67.802 0.091 8.78 6.1 9.78
5/21/2022 6:00:00 PM 19.88 67.784 0.091 8.72 5.82 9.68
5/21/2022 6:15:00 PM 19.86 67.748 0.091 8.62 6.4 9.58
5/21/2022 6:30:00 PM 19.85 67.73 0.091 8.51 6.03 9.47
5/21/2022 6:45:00 PM 19.82 67.676 0.091 8.4 5.91 9.37
5/21/2022 7:00:00 PM 19.79 67.622 0.091 8.23 5.8 9.25
5/21/2022 7:15:00 PM 19.74 67.532 0.091 8.09 5.59 9.16
5/21/2022 7:30:00 PM 19.69 67.442 0.091 7.94 5.69 9.05
5/21/2022 7:45:00 PM 19.61 67.298 0.092 7.81 5.69 8.95
5/21/2022 8:00:00 PM 19.55 67.19 0.092 7.64 5.69 8.85
5/21/2022 8:15:00 PM 19.49 67.082 0.092 7.63 6.14 8.76
5/21/2022 8:30:00 PM 19.42 66.956 0.093 7.54 5.84 8.68
5/21/2022 8:45:00 PM 19.35 66.83 0.093 7.51 5.81 8.6
5/21/2022 9:00:00 PM 19.29 66.722 0.093 7.48 6.73 8.53
5/21/2022 9:15:00 PM 19.23 66.614 0.093 7.42 5.9 8.47
5/21/2022 9:30:00 PM 19.17 66.506 0.094 7.43 6.11 8.44
5/21/2022 9:45:00 PM 19.11 66.398 0.094 7.4 6.09 8.41
5/21/2022 10:00:00 PM 19.05 66.29 0.094 7.34 5.95 8.37
5/21/2022 10:15:00 PM 18.99 66.182 0.095 7.33 5.97 8.38
5/21/2022 10:30:00 PM 18.94 66.092 0.095 7.36 5.67 8.36
5/21/2022 10:45:00 PM 18.88 65.984 0.095 7.34 6.85 8.35
5/21/2022 11:00:00 PM 18.83 65.894 0.095 7.26 6.13 8.36
5/21/2022 11:15:00 PM 18.77 65.786 0.096 7.33 6.01 8.38
5/21/2022 11:30:00 PM 18.72 65.696 0.096 7.33 6.97 8.37
5/21/2022 11:45:00 PM 18.67 65.606 0.096 7.33 5.78 8.39
5/22/2022 12:00:00 AM 18.62 65.516 0.096 7.29 5.73 8.39
5/22/2022 12:15:00 AM 18.56 65.408 0.096 7.33 5.65 8.39
5/22/2022 12:30:00 AM 18.51 65.318 0.096 7.33 5.67 8.4
5/22/2022 12:45:00 AM 18.45 65.21 0.096 7.33 5.87 8.42
5/22/2022 1:00:00 AM 18.37 65.066 0.096 7.32 6.34 8.44
5/22/2022 1:15:00 AM 18.3 64.94 0.096 7.32 5.71 8.45
5/22/2022 1:30:00 AM 18.21 64.778 0.096 7.32 5.99 8.48
5/22/2022 1:45:00 AM 18.13 64.634 0.096 7.27 6.03 8.49
5/22/2022 2:00:00 AM 18.05 64.49 0.096 7.32 5.93 8.51
5/22/2022 2:15:00 AM 17.96 64.328 0.096 7.33 5.87 8.52
5/22/2022 2:30:00 AM 17.87 64.166 0.096 7.32 5.88 8.55
5/22/2022 2:45:00 AM 17.79 64.022 0.096 7.32 6.06 8.57
5/22/2022 3:00:00 AM 17.69 63.842 0.096 7.32 5.66 8.59
5/22/2022 3:15:00 AM 17.6 63.68 0.096 7.32 6.08 8.62
5/22/2022 3:30:00 AM 17.51 63.518 0.096 7.32 5.71 8.62
5/22/2022 3:45:00 AM 17.42 63.356 0.096 7.27 6.61 8.65
5/22/2022 4:00:00 AM 17.33 63.194 0.096 7.32 5.78 8.66
5/22/2022 4:15:00 AM 17.25 63.05 0.096 7.32 5.71 8.7
5/22/2022 4:30:00 AM 17.17 62.906 0.096 7.32 5.75 8.7
5/22/2022 4:45:00 AM 17.09 62.762 0.096 7.32 5.9 8.73
5/22/2022 5:00:00 AM 17.01 62.618 0.096 7.31 6.36 8.75
5/22/2022 5:15:00 AM 16.93 62.474 0.096 7.27 6.05 8.77
5/22/2022 5:30:00 AM 16.85 62.33 0.096 7.32 6.06 8.78
5/22/2022 5:45:00 AM 16.77 62.186 0.096 7.32 5.99 8.81
5/22/2022 6:00:00 AM 16.71 62.078 0.096 7.32 8.11 8.83
5/22/2022 6:15:00 AM 16.64 61.952 0.096 7.3 5.81 8.85
5/22/2022 6:30:00 AM 16.56 61.808 0.096 7.27 5.95 8.87
5/22/2022 6:45:00 AM 16.5 61.7 0.096 7.33 7.27 8.93
5/22/2022 7:00:00 AM 16.45 61.61 0.096 7.33 5.46 9.01
5/22/2022 7:15:00 AM 16.4 61.52 0.095 7.35 9.84 9.03
5/22/2022 7:30:00 AM 16.36 61.448 0.095 7.37 5.41 9.13
5/22/2022 7:45:00 AM 16.33 61.394 0.096 7.37 5.37 9.19
5/22/2022 8:00:00 AM 16.31 61.358 0.095 7.39 5.44 9.27
5/22/2022 8:15:00 AM 16.29 61.322 0.095 7.41 5.26 9.35
5/22/2022 8:30:00 AM 16.29 61.322 0.095 7.43 5.12 9.44
5/22/2022 8:45:00 AM 16.31 61.358 0.095 7.42 5.63 9.54
5/22/2022 9:00:00 AM 16.34 61.412 0.095 7.44 5.25 9.66
5/22/2022 9:15:00 AM 16.37 61.466 0.095 7.52 5.29 9.79
5/22/2022 9:30:00 AM 16.41 61.538 0.094 7.55 5.14 9.89
5/22/2022 9:45:00 AM 16.52 61.736 0.094 7.57 6.22 10.02
5/22/2022 10:00:00 AM 16.57 61.826 0.094 7.58 5.35 10.12
5/22/2022 10:15:00 AM 16.62 61.916 0.094 7.63 5.34 10.17
5/22/2022 10:30:00 AM 16.82 62.276 0.094 7.68 6.82 10.28
5/22/2022 10:45:00 AM 17.01 62.618 0.094 7.76 4.85 10.4
5/22/2022 11:00:00 AM 17.11 62.798 0.093 7.78 5.05 10.44
5/22/2022 11:15:00 AM 17.27 63.086 0.093 7.9 4.98 10.52
5/22/2022 11:30:00 AM 17.49 63.482 0.093 7.96 5 10.59
5/22/2022 11:45:00 AM 17.7 63.86 0.093 8.06 5.28 10.62
5/22/2022 12:00:00 PM 17.87 64.166 0.093 8.16 5.13 10.64
5/22/2022 12:15:00 PM 18.07 64.526 0.093 8.24 5.08 10.67
5/22/2022 12:30:00 PM 18.38 65.084 0.092 8.39 5.06 10.69
5/22/2022 12:45:00 PM 18.52 65.336 0.092 8.45 5.11 10.63
5/22/2022 1:00:00 PM 18.56 65.408 0.092 8.3 5.39 10.36
5/22/2022 1:15:00 PM 18.74 65.732 0.092 8.29 5.17 10.27
5/22/2022 1:30:00 PM 18.88 65.984 0.092 8.42 7.83 10.27
5/22/2022 1:45:00 PM 18.95 66.11 0.092 8.35 5.47 10.18
5/22/2022 2:00:00 PM 18.96 66.128 0.092 8.31 4.94 10.12
5/22/2022 2:15:00 PM 18.98 66.164 0.092 8.22 5.93 10.02
5/22/2022 2:30:00 PM 19.11 66.398 0.092 8.32 8.3 10.06
5/22/2022 2:45:00 PM 19.25 66.65 0.092 8.36 5.62 10.1
5/22/2022 3:00:00 PM 19.38 66.884 0.091 8.46 5.28 10.14
5/22/2022 3:15:00 PM 19.42 66.956 0.091 8.47 5 10.09
5/22/2022 3:30:00 PM 19.52 67.136 0.091 8.5 5.04 10.04
5/22/2022 3:45:00 PM 19.73 67.514 0.091 8.56 5.36 10.07
5/22/2022 4:00:00 PM 19.91 67.838 0.091 8.67 5.18 10.05
5/22/2022 4:15:00 PM 20.06 68.108 0.09 8.72 5.14 10
5/22/2022 4:30:00 PM 20.18 68.324 0.091 8.7 5.82 9.95
5/22/2022 4:45:00 PM 20.2 68.36 0.091 8.7 5.2 9.87
5/22/2022 5:00:00 PM 20.18 68.324 0.091 8.66 5.15 9.79
5/22/2022 5:15:00 PM 20.11 68.198 0.091 8.55 5.31 9.63
5/22/2022 5:30:00 PM 20.09 68.162 0.091 8.45 5.62 9.52
5/22/2022 5:45:00 PM 20.07 68.126 0.091 8.34 5.27 9.39
5/22/2022 6:00:00 PM 20.02 68.036 0.091 8.22 5.04 9.26
5/22/2022 6:15:00 PM 19.93 67.874 0.091 8.05 5.21 9.14
5/22/2022 6:30:00 PM 19.81 67.658 0.091 7.89 5.07 9.02
5/22/2022 6:45:00 PM 19.69 67.442 0.092 7.79 5.23 8.93
5/22/2022 7:00:00 PM 19.59 67.262 0.092 7.7 5.4 8.83
5/22/2022 7:15:00 PM 19.48 67.064 0.092 7.63 5.13 8.75
5/22/2022 7:30:00 PM 19.4 66.92 0.093 7.59 4.92 8.7
5/22/2022 7:45:00 PM 19.33 66.794 0.093 7.54 5.12 8.65
5/22/2022 8:00:00 PM 19.26 66.668 0.093 7.43 5.17 8.58
5/22/2022 8:15:00 PM 19.18 66.524 0.093 7.49 5.38 8.56
5/22/2022 8:30:00 PM 19.09 66.362 0.094 7.45 5.66 8.51
5/22/2022 8:45:00 PM 19 66.2 0.094 7.44 5.3 8.51
5/22/2022 9:00:00 PM 18.91 66.038 0.094 7.43 6.63 8.49
5/22/2022 9:15:00 PM 18.82 65.876 0.095 7.42 5.38 8.49
5/22/2022 9:30:00 PM 18.72 65.696 0.095 7.41 5.48 8.49
5/22/2022 9:45:00 PM 18.62 65.516 0.095 7.38 10 8.46
5/22/2022 10:00:00 PM 18.53 65.354 0.095 7.39 5.79 8.48
5/22/2022 10:15:00 PM 18.42 65.156 0.095 7.38 5.94 8.49
5/22/2022 10:30:00 PM 18.33 64.994 0.095 7.37 5.94 8.49
5/22/2022 10:45:00 PM 18.24 64.832 0.096 7.38 5.49 8.5
5/22/2022 11:00:00 PM 18.14 64.652 0.096 7.37 5.38 8.51
5/22/2022 11:15:00 PM 18.06 64.508 0.096 7.36 5.32 8.51
5/22/2022 11:30:00 PM 17.97 64.346 0.096 7.36 5.36 8.55
5/22/2022 11:45:00 PM 17.86 64.148 0.096 7.32 5.67 8.57
5/23/2022 12:00:00 AM 17.76 63.968 0.096 7.36 5.82 8.58
5/23/2022 12:15:00 AM 17.64 63.752 0.096 7.34 5.69 8.62
5/23/2022 12:30:00 AM 17.53 63.554 0.096 7.36 5.22 8.63
5/23/2022 12:45:00 AM 17.41 63.338 0.096 7.35 5.17 8.69
5/23/2022 1:00:00 AM 17.32 63.176 0.096 7.37 5.47 8.71
5/23/2022 1:15:00 AM 17.21 62.978 0.096 7.36 6.27 8.73
5/23/2022 1:30:00 AM 17.1 62.78 0.096 7.29 6.92 8.76
5/23/2022 1:45:00 AM 16.99 62.582 0.096 7.36 5.64 8.78
5/23/2022 2:00:00 AM 16.89 62.402 0.096 7.35 5.57 8.8
5/23/2022 2:15:00 AM 16.77 62.186 0.096 7.27 5.71 8.83
5/23/2022 2:30:00 AM 16.67 62.006 0.096 7.35 6.52 8.87
5/23/2022 2:45:00 AM 16.55 61.79 0.096 7.35 5.87 8.89
5/23/2022 3:00:00 AM 16.44 61.592 0.096 7.32 6.28 8.91
5/23/2022 3:15:00 AM 16.34 61.412 0.096 7.35 6.11 8.93
5/23/2022 3:30:00 AM 16.23 61.214 0.096 7.35 6.16 8.97
5/23/2022 3:45:00 AM 16.13 61.034 0.096 7.35 5.78 8.99
5/23/2022 4:00:00 AM 16.01 60.818 0.096 7.35 5.86 9.03
5/23/2022 4:15:00 AM 15.91 60.638 0.096 7.35 6.18 9.05
5/23/2022 4:30:00 AM 15.8 60.44 0.096 7.31 5.86 9.07
5/23/2022 4:45:00 AM 15.7 60.26 0.096 7.35 5.74 9.1
5/23/2022 5:00:00 AM 15.59 60.062 0.096 7.34 5.88 9.12
5/23/2022 5:15:00 AM 15.49 59.882 0.096 7.35 5.79 9.15
5/23/2022 5:30:00 AM 15.39 59.702 0.096 7.35 5.72 9.18
5/23/2022 5:45:00 AM 15.28 59.504 0.096 7.34 6.13 9.2
5/23/2022 6:00:00 AM 15.18 59.324 0.096 7.35 5.87 9.22
5/23/2022 6:15:00 AM 15.1 59.18 0.095 7.3 5.4 9.26
5/23/2022 6:30:00 AM 15 59 0.096 7.33 5.56 9.3
5/23/2022 6:45:00 AM 14.92 58.856 0.096 7.36 5.53 9.35
5/23/2022 7:00:00 AM 14.84 58.712 0.095 7.28 5.37 9.4
5/23/2022 7:15:00 AM 14.78 58.604 0.096 7.37 5.37 9.44
5/23/2022 7:30:00 AM 14.73 58.514 0.095 7.34 5.36 9.52
5/23/2022 7:45:00 AM 14.68 58.424 0.095 7.37 5.28 9.59
5/23/2022 8:00:00 AM 14.65 58.37 0.095 7.42 5.27 9.66
5/23/2022 8:15:00 AM 14.61 58.298 0.095 7.42 5.18 9.74
5/23/2022 8:30:00 AM 14.61 58.298 0.095 7.45 5.2 9.84
5/23/2022 8:45:00 AM 14.61 58.298 0.095 7.46 5.9 9.91
5/23/2022 9:00:00 AM 14.63 58.334 0.095 7.49 6.23 10
5/23/2022 9:15:00 AM 14.59 58.262 0.095 7.5 6.44 10.05
5/23/2022 9:30:00 AM 17.08 62.744 0.095 7.45 3.16 9.91
5/23/2022 9:45:00 AM 17.15 62.87 0.094 7.4 3.12 10.02
5/23/2022 10:00:00 AM 17.21 62.978 0.093 7.48 3.04 10.13
5/23/2022 10:15:00 AM 17.24 63.032 0.093 7.51 2.93 10.19
5/23/2022 10:30:00 AM 17.37 63.266 0.093 7.52 2.91 10.3
5/23/2022 10:45:00 AM 17.49 63.482 0.093 7.57 3.31 10.38
5/23/2022 11:00:00 AM 17.58 63.644 0.093 7.63 3 10.49
5/23/2022 11:15:00 AM 17.73 63.914 0.092 7.68 2.77 10.59
5/23/2022 11:30:00 AM 17.81 64.058 0.092 7.72 2.89 10.63
5/23/2022 11:45:00 AM 17.94 64.292 0.092 7.76 2.98 10.65
5/23/2022 12:00:00 PM 18.02 64.436 0.092 7.8 3.01 10.67
5/23/2022 12:15:00 PM 18.12 64.616 0.092 7.87 2.7 10.7
5/23/2022 12:30:00 PM 18.3 64.94 0.092 7.95 2.94 10.76
5/23/2022 12:45:00 PM 18.42 65.156 0.091 8.02 2.69 10.79
5/23/2022 1:00:00 PM 18.49 65.282 0.091 8.09 2.78 10.75
5/23/2022 1:15:00 PM 18.57 65.426 0.091 8.19 2.89 10.78
5/23/2022 1:30:00 PM 18.62 65.516 0.091 8.25 3.16 10.75
5/23/2022 1:45:00 PM 18.65 65.57 0.091 8.27 2.95 10.71
5/23/2022 2:00:00 PM 18.69 65.642 0.091 8.29 2.8 10.69
5/23/2022 2:15:00 PM 18.76 65.768 0.091 8.37 2.64 10.69
5/23/2022 2:30:00 PM 18.83 65.894 0.091 8.42 3 10.67
5/23/2022 2:45:00 PM 18.89 66.002 0.091 8.47 2.86 10.64
5/23/2022 3:00:00 PM 18.93 66.074 0.09 8.48 2.8 10.6
5/23/2022 3:15:00 PM 18.96 66.128 0.091 8.49 2.96 10.54
5/23/2022 3:30:00 PM 18.97 66.146 0.09 8.5 3.02 10.52
5/23/2022 3:45:00 PM 18.97 66.146 0.09 8.52 2.92 10.48
5/23/2022 4:00:00 PM 18.97 66.146 0.09 8.51 2.92 10.43
5/23/2022 4:15:00 PM 18.98 66.164 0.09 8.48 2.81 10.37
5/23/2022 4:30:00 PM 18.98 66.164 0.09 8.46 2.98 10.31
5/23/2022 4:45:00 PM 18.98 66.164 0.09 8.45 2.89 10.25
5/23/2022 5:00:00 PM 18.97 66.146 0.09 8.39 3.11 10.18
5/23/2022 5:15:00 PM 18.96 66.128 0.09 8.3 3.29 10.09
5/23/2022 5:30:00 PM 18.95 66.11 0.09 8.25 2.89 10.02
5/23/2022 5:45:00 PM 18.94 66.092 0.09 8.18 3.45 9.95
5/23/2022 6:00:00 PM 18.92 66.056 0.09 8.05 2.88 9.85
5/23/2022 6:15:00 PM 18.89 66.002 0.09 7.96 3.09 9.77
5/23/2022 6:30:00 PM 18.86 65.948 0.09 7.82 3.17 9.67
5/23/2022 6:45:00 PM 18.82 65.876 0.09 7.74 2.92 9.58
5/23/2022 7:00:00 PM 18.78 65.804 0.091 7.64 3.07 9.49
5/23/2022 7:15:00 PM 18.73 65.714 0.091 7.55 2.83 9.39
5/23/2022 7:30:00 PM 18.68 65.624 0.091 7.48 2.97 9.32
5/23/2022 7:45:00 PM 18.63 65.534 0.092 7.42 2.96 9.24
5/23/2022 8:00:00 PM 18.57 65.426 0.092 7.38 3.05 9.18
5/23/2022 8:15:00 PM 18.51 65.318 0.092 7.34 3.31 9.13
5/23/2022 8:30:00 PM 18.44 65.192 0.092 7.27 3.21 9.07
5/23/2022 8:45:00 PM 18.38 65.084 0.093 7.26 3.4 9.03
5/23/2022 9:00:00 PM 18.32 64.976 0.093 7.24 2.97 9.01
5/23/2022 9:15:00 PM 18.26 64.868 0.093 7.21 3.39 8.98
5/23/2022 9:30:00 PM 18.19 64.742 0.093 7.18 2.98 8.94
5/23/2022 9:45:00 PM 18.14 64.652 0.093 7.16 2.84 8.92
5/23/2022 10:00:00 PM 18.08 64.544 0.094 7.13 3.35 8.91
5/23/2022 10:15:00 PM 18.03 64.454 0.094 7.1 2.98 8.9
5/23/2022 10:30:00 PM 17.97 64.346 0.094 7.1 3.38 8.9
5/23/2022 10:45:00 PM 17.92 64.256 0.094 7.09 3.11 8.9
5/23/2022 11:00:00 PM 17.87 64.166 0.094 7.07 2.94 8.92
5/23/2022 11:15:00 PM 17.81 64.058 0.095 7.07 3.61 8.94
5/23/2022 11:30:00 PM 17.76 63.968 0.095 7.06 3.24 8.93
5/23/2022 11:45:00 PM 17.71 63.878 0.095 7.05 3.02 8.94
5/24/2022 12:00:00 AM 17.65 63.77 0.095 7.05 2.94 8.96
5/24/2022 12:15:00 AM 17.6 63.68 0.095 7.04 3.36 8.97
5/24/2022 12:30:00 AM 17.56 63.608 0.094 7.05 3.17 8.98
5/24/2022 12:45:00 AM 17.5 63.5 0.095 7.04 3.26 8.98
5/24/2022 1:00:00 AM 17.46 63.428 0.095 7.03 3.24 8.99
5/24/2022 1:15:00 AM 17.4 63.32 0.095 7.03 3.32 9.01
5/24/2022 1:30:00 AM 17.36 63.248 0.095 7.01 3.78 9.02
5/24/2022 1:45:00 AM 17.3 63.14 0.095 7.02 3.03 9.04
5/24/2022 2:00:00 AM 17.25 63.05 0.095 7.02 3.05 9.05
5/24/2022 2:15:00 AM 17.2 62.96 0.095 7 3.86 9.05
5/24/2022 2:30:00 AM 17.14 62.852 0.095 7.01 3.77 9.08
5/24/2022 2:45:00 AM 17.1 62.78 0.095 7.01 3.13 9.07
5/24/2022 3:00:00 AM 17.04 62.672 0.095 7.01 3.37 9.1
5/24/2022 3:15:00 AM 16.98 62.564 0.095 6.99 3.08 9.09
5/24/2022 3:30:00 AM 16.92 62.456 0.095 7.01 3.21 9.1
5/24/2022 3:45:00 AM 16.86 62.348 0.095 7 3.5 9.13
5/24/2022 4:00:00 AM 16.8 62.24 0.094 7 3.64 9.13
5/24/2022 4:15:00 AM 16.73 62.114 0.094 6.99 3.12 9.16
5/24/2022 4:30:00 AM 16.67 62.006 0.094 7 3.45 9.18
5/24/2022 4:45:00 AM 16.6 61.88 0.094 7 3.07 9.19
5/24/2022 5:00:00 AM 16.54 61.772 0.094 6.98 3.51 9.21
5/24/2022 5:15:00 AM 16.47 61.646 0.094 7 3.44 9.22
5/24/2022 5:30:00 AM 16.42 61.556 0.094 7 3.02 9.22
5/24/2022 5:45:00 AM 16.36 61.448 0.094 6.99 3.2 9.23
5/24/2022 6:00:00 AM 16.3 61.34 0.094 7 3.25 9.25
5/24/2022 6:15:00 AM 16.26 61.268 0.094 6.97 3.02 9.28
5/24/2022 6:30:00 AM 16.22 61.196 0.094 7 3.27 9.31
5/24/2022 6:45:00 AM 16.19 61.142 0.094 7 3.34 9.36
5/24/2022 7:00:00 AM 16.16 61.088 0.094 7.03 3.07 9.41
5/24/2022 7:15:00 AM 16.13 61.034 0.094 7.03 2.67 9.46
5/24/2022 7:30:00 AM 16.11 60.998 0.094 7.03 3.37 9.51
5/24/2022 7:45:00 AM 16.09 60.962 0.094 7.06 2.94 9.56
5/24/2022 8:00:00 AM 16.08 60.944 0.094 7.05 3.4 9.64
5/24/2022 8:15:00 AM 16.07 60.926 0.094 7.1 2.86 9.68
5/24/2022 8:30:00 AM 16.06 60.908 0.094 7.08 3.35 9.73
5/24/2022 8:45:00 AM 16.05 60.89 0.094 7.13 2.63 9.79
5/24/2022 9:00:00 AM 16.05 60.89 0.093 7.13 3.04 9.87
5/24/2022 9:15:00 AM 16.06 60.908 0.093 7.17 2.75 9.95
5/24/2022 9:30:00 AM 16.07 60.926 0.093 7.19 2.59 10.02
5/24/2022 9:45:00 AM 16.09 60.962 0.093 7.22 2.8 10.11
5/24/2022 10:00:00 AM 16.1 60.98 0.093 7.25 2.63 10.15
5/24/2022 10:15:00 AM 16.13 61.034 0.093 7.25 3.55 10.24
5/24/2022 10:30:00 AM 16.15 61.07 0.093 7.3 2.59 10.31
5/24/2022 10:45:00 AM 16.19 61.142 0.093 7.32 2.67 10.35
5/24/2022 11:00:00 AM 16.22 61.196 0.092 7.35 2.69 10.4
5/24/2022 11:15:00 AM 16.25 61.25 0.092 7.38 3.36 10.44
5/24/2022 11:30:00 AM 16.31 61.358 0.093 7.39 2.76 10.5
5/24/2022 11:45:00 AM 16.38 61.484 0.092 7.42 3.36 10.57
5/24/2022 12:00:00 PM 16.43 61.574 0.092 7.47 2.51 10.61
5/24/2022 12:15:00 PM 16.45 61.61 0.092 7.5 2.75 10.59
5/24/2022 12:30:00 PM 16.48 61.664 0.092 7.45 3.59 10.55
5/24/2022 12:45:00 PM 16.52 61.736 0.092 7.48 2.65 10.54
5/24/2022 1:00:00 PM 16.56 61.808 0.092 7.46 3.25 10.54
5/24/2022 1:15:00 PM 16.61 61.898 0.091 7.53 2.83 10.54
5/24/2022 1:30:00 PM 16.65 61.97 0.091 7.52 2.5 10.52
5/24/2022 1:45:00 PM 16.69 62.042 0.092 7.52 2.95 10.51
5/24/2022 2:00:00 PM 16.73 62.114 0.091 7.53 2.48 10.49
5/24/2022 2:15:00 PM 16.76 62.168 0.091 7.52 2.83 10.43
5/24/2022 2:30:00 PM 16.77 62.186 0.091 7.49 2.55 10.35
5/24/2022 2:45:00 PM 16.79 62.222 0.091 7.47 2.86 10.29
5/24/2022 3:00:00 PM 16.81 62.258 0.091 7.45 3.2 10.26
5/24/2022 3:15:00 PM 16.83 62.294 0.091 7.45 2.6 10.24
5/24/2022 3:30:00 PM 16.85 62.33 0.091 7.44 2.57 10.24
5/24/2022 3:45:00 PM 16.86 62.348 0.091 7.45 2.8 10.2
5/24/2022 4:00:00 PM 16.87 62.366 0.091 7.42 2.8 10.12
5/24/2022 4:15:00 PM 16.88 62.384 0.091 7.38 3.41 10.07
5/24/2022 4:30:00 PM 16.89 62.402 0.091 7.39 2.64 10.04
5/24/2022 4:45:00 PM 16.89 62.402 0.091 7.37 3.02 9.99
5/24/2022 5:00:00 PM 16.9 62.42 0.091 7.33 3.52 9.95
5/24/2022 5:15:00 PM 16.89 62.402 0.092 7.33 2.41 9.89
5/24/2022 5:30:00 PM 16.89 62.402 0.091 7.31 2.59 9.85
5/24/2022 5:45:00 PM 16.89 62.402 0.091 7.29 2.59 9.81
5/24/2022 6:00:00 PM 16.89 62.402 0.092 7.28 2.68 9.77
5/24/2022 6:15:00 PM 16.89 62.402 0.092 7.27 2.65 9.74
5/24/2022 6:30:00 PM 16.88 62.384 0.092 7.22 2.81 9.72
5/24/2022 6:45:00 PM 16.88 62.384 0.092 7.24 2.8 9.68
5/24/2022 7:00:00 PM 16.87 62.366 0.092 7.2 3.6 9.64
5/24/2022 7:15:00 PM 16.85 62.33 0.093 7.2 2.79 9.6
5/24/2022 7:30:00 PM 16.84 62.312 0.093 7.17 3.48 9.56
5/24/2022 7:45:00 PM 16.82 62.276 0.093 7.15 3.19 9.51
5/24/2022 8:00:00 PM 16.8 62.24 0.093 7.17 2.98 9.48
5/24/2022 8:15:00 PM 16.79 62.222 0.093 7.15 2.67 9.44
5/24/2022 8:30:00 PM 16.77 62.186 0.093 7.11 3.05 9.41
5/24/2022 8:45:00 PM 16.75 62.15 0.093 7.11 3.55 9.37
5/24/2022 9:00:00 PM 16.73 62.114 0.093 7.09 3.95 9.35
5/24/2022 9:15:00 PM 16.71 62.078 0.093 7.07 3.07 9.33
5/24/2022 9:30:00 PM 16.69 62.042 0.093 7.09 2.95 9.33
5/24/2022 9:45:00 PM 16.68 62.024 0.094 7.08 2.97 9.3
5/24/2022 10:00:00 PM 16.65 61.97 0.094 7.07 2.95 9.3
5/24/2022 10:15:00 PM 16.64 61.952 0.094 7.07 3.05 9.29
5/24/2022 10:30:00 PM 16.62 61.916 0.094 7.05 3.9 9.3
5/24/2022 10:45:00 PM 16.6 61.88 0.094 7.06 2.92 9.3
5/24/2022 11:00:00 PM 16.58 61.844 0.094 7.05 3.06 9.28
5/24/2022 11:15:00 PM 16.56 61.808 0.094 7.04 3.97 9.29
5/24/2022 11:30:00 PM 16.55 61.79 0.094 7.04 3.03 9.3
5/24/2022 11:45:00 PM 16.53 61.754 0.094 7.05 3.06 9.29
5/25/2022 12:00:00 AM 16.51 61.718 0.094 7.05 3.44 9.3
5/25/2022 12:15:00 AM 16.49 61.682 0.095 7.04 3.01 9.3
5/25/2022 12:30:00 AM 16.47 61.646 0.095 7.04 2.85 9.31
5/25/2022 12:45:00 AM 16.46 61.628 0.095 7.02 3.56 9.3
5/25/2022 1:00:00 AM 16.44 61.592 0.094 7.02 3.97 9.31
5/25/2022 1:15:00 AM 16.42 61.556 0.095 7.01 2.84 9.32
5/25/2022 1:30:00 AM 16.39 61.502 0.095 7.03 2.99 9.31
5/25/2022 1:45:00 AM 16.37 61.466 0.095 7.03 2.94 9.3
5/25/2022 2:00:00 AM 16.34 61.412 0.095 7.01 2.93 9.33
5/25/2022 2:15:00 AM 16.3 61.34 0.095 7.02 3.1 9.31
5/25/2022 2:30:00 AM 16.27 61.286 0.095 7.03 2.9 9.33
5/25/2022 2:45:00 AM 16.24 61.232 0.095 7.02 3.59 9.34
5/25/2022 3:00:00 AM 16.2 61.16 0.095 6.99 3.46 9.36
5/25/2022 3:15:00 AM 16.16 61.088 0.095 7.01 2.85 9.37
5/25/2022 3:30:00 AM 16.12 61.016 0.094 6.98 3.63 9.38
5/25/2022 3:45:00 AM 16.09 60.962 0.095 7 3.07 9.37
5/25/2022 4:00:00 AM 16.06 60.908 0.095 6.97 4.03 9.4
5/25/2022 4:15:00 AM 16.03 60.854 0.095 6.95 2.67 9.41
5/25/2022 4:30:00 AM 16 60.8 0.095 6.98 3.01 9.4
5/25/2022 4:45:00 AM 15.97 60.746 0.095 6.99 2.75 9.41
5/25/2022 5:00:00 AM 15.94 60.692 0.095 6.96 3.56 9.41
5/25/2022 5:15:00 AM 15.92 60.656 0.094 7 2.58 9.42
5/25/2022 5:30:00 AM 15.9 60.62 0.095 6.99 2.7 9.44
5/25/2022 5:45:00 AM 15.88 60.584 0.094 6.99 2.65 9.45
5/25/2022 6:00:00 AM 15.86 60.548 0.094 6.97 3.69 9.45
5/25/2022 6:15:00 AM 15.84 60.512 0.094 7 2.58 9.45
5/25/2022 6:30:00 AM 15.82 60.476 0.094 7 2.87 9.49
5/25/2022 6:45:00 AM 15.81 60.458 0.094 7.01 2.72 9.53
5/25/2022 7:00:00 AM 15.81 60.458 0.094 7.02 2.64 9.57
5/25/2022 7:15:00 AM 15.81 60.458 0.095 7.01 3.52 9.64
5/25/2022 7:30:00 AM 15.81 60.458 0.094 7.05 2.73 9.7
5/25/2022 7:45:00 AM 15.82 60.476 0.094 7.06 2.61 9.74
5/25/2022 8:00:00 AM 15.83 60.494 0.094 7.05 3.42 9.78
5/25/2022 8:15:00 AM 15.85 60.53 0.094 7.1 2.61 9.89
5/25/2022 8:30:00 AM 15.88 60.584 0.094 7.09 3.38 9.97
5/25/2022 8:45:00 AM 15.92 60.656 0.094 7.15 2.51 10.07
5/25/2022 9:00:00 AM 15.97 60.746 0.094 7.17 2.67 10.17
5/25/2022 9:15:00 AM 16.04 60.872 0.094 7.21 2.76 10.27
5/25/2022 9:30:00 AM 16.09 60.962 0.093 7.2 3.56 10.35
5/25/2022 9:45:00 AM 16.16 61.088 0.093 7.24 3.32 10.42
5/25/2022 10:00:00 AM 16.25 61.25 0.093 7.27 3.4 10.51
5/25/2022 10:15:00 AM 16.3 61.34 0.093 7.33 2.75 10.55
5/25/2022 10:30:00 AM 16.36 61.448 0.093 7.36 2.76 10.57
5/25/2022 10:45:00 AM 16.46 61.628 0.093 7.39 2.97 10.63
5/25/2022 11:00:00 AM 16.56 61.808 0.093 7.43 2.42 10.73
5/25/2022 11:15:00 AM 16.65 61.97 0.093 7.46 2.33 10.75
5/25/2022 11:30:00 AM 16.81 62.258 0.092 7.53 2.84 10.8
5/25/2022 11:45:00 AM 17 62.6 0.093 7.58 2.65 10.84
5/25/2022 12:00:00 PM 17.09 62.762 0.092 7.62 2.4 10.86
5/25/2022 12:15:00 PM 17.23 63.014 0.092 7.68 2.62 10.88
5/25/2022 12:30:00 PM 17.34 63.212 0.093 7.67 3.33 10.85
5/25/2022 12:45:00 PM 17.44 63.392 0.092 7.75 2.71 10.86
5/25/2022 1:00:00 PM 17.56 63.608 0.092 7.79 2.78 10.85
5/25/2022 1:15:00 PM 17.67 63.806 0.092 7.86 2.61 10.85
5/25/2022 1:30:00 PM 17.8 64.04 0.092 7.91 2.53 10.86
5/25/2022 1:45:00 PM 17.95 64.31 0.092 7.94 2.37 10.84
5/25/2022 2:00:00 PM 18.09 64.562 0.092 7.94 2.47 10.8
5/25/2022 2:15:00 PM 18.25 64.85 0.091 8.06 2.52 10.78
5/25/2022 2:30:00 PM 18.43 65.174 0.091 8.09 2.67 10.76
5/25/2022 2:45:00 PM 18.57 65.426 0.091 8.09 2.49 10.72
5/25/2022 3:00:00 PM 18.71 65.67799 0.091 8.18 2.66 10.67
5/25/2022 3:15:00 PM 18.83 65.894 0.091 8.16 2.54 10.63
5/25/2022 3:30:00 PM 18.94 66.092 0.091 8.19 3.35 10.58
5/25/2022 3:45:00 PM 19.06 66.308 0.091 8.17 2.6 10.51
5/25/2022 4:00:00 PM 19.22 66.596 0.091 8.2 2.33 10.44
5/25/2022 4:15:00 PM 19.34 66.812 0.091 8.16 2.43 10.34
5/25/2022 4:30:00 PM 19.44 66.992 0.091 8.13 2.77 10.26
5/25/2022 4:45:00 PM 19.53 67.154 0.091 8.09 2.69 10.18
5/25/2022 5:00:00 PM 19.58 67.244 0.091 8.01 2.96 10.08
5/25/2022 5:15:00 PM 19.57 67.226 0.091 7.96 2.77 9.99
5/25/2022 5:30:00 PM 19.56 67.208 0.091 7.87 2.64 9.87
5/25/2022 5:45:00 PM 19.55 67.19 0.091 7.8 2.79 9.8
5/25/2022 6:00:00 PM 19.53 67.154 0.091 7.72 2.61 9.71
5/25/2022 6:15:00 PM 19.52 67.136 0.091 7.63 2.67 9.65
5/25/2022 6:30:00 PM 19.52 67.136 0.092 7.61 2.7 9.61
5/25/2022 6:45:00 PM 19.51 67.118 0.091 7.57 2.58 9.54
5/25/2022 7:00:00 PM 19.48 67.064 0.092 7.5 2.69 9.43
5/25/2022 7:15:00 PM 19.44 66.992 0.092 7.45 2.64 9.37
5/25/2022 7:30:00 PM 19.4 66.92 0.092 7.4 2.62 9.29
5/25/2022 7:45:00 PM 19.33 66.794 0.092 7.34 2.89 9.22
5/25/2022 8:00:00 PM 19.28 66.704 0.093 7.31 2.82 9.14
5/25/2022 8:15:00 PM 19.22 66.596 0.093 7.27 3.11 9.06
5/25/2022 8:30:00 PM 19.16 66.488 0.093 7.23 2.97 8.99
5/25/2022 8:45:00 PM 19.11 66.398 0.093 7.21 2.8 8.94
5/25/2022 9:00:00 PM 19.07 66.326 0.093 7.18 2.91 8.89
5/25/2022 9:15:00 PM 19.02 66.236 0.094 7.15 3.1 8.83
5/25/2022 9:30:00 PM 18.98 66.164 0.094 7.1 3.15 8.8
5/25/2022 9:45:00 PM 18.94 66.092 0.094 7.12 3.09 8.77
5/25/2022 10:00:00 PM 18.9 66.02 0.094 7.11 3.04 8.74
5/25/2022 10:15:00 PM 18.85 65.93 0.095 7.05 2.73 8.73
5/25/2022 10:30:00 PM 18.81 65.858 0.095 7.09 2.85 8.72
5/25/2022 10:45:00 PM 18.76 65.768 0.095 7.07 3.11 8.69
5/25/2022 11:00:00 PM 18.71 65.67799 0.095 7.06 3.05 8.69
5/25/2022 11:15:00 PM 18.67 65.606 0.095 7.06 2.97 8.69
5/25/2022 11:30:00 PM 18.63 65.534 0.096 7.05 3.08 8.68
5/25/2022 11:45:00 PM 18.59 65.462 0.096 7.05 3.33 8.72
5/26/2022 12:00:00 AM 18.54 65.372 0.096 7.04 2.94 8.71
5/26/2022 12:15:00 AM 18.5 65.3 0.096 7.04 2.88 8.75
5/26/2022 12:30:00 AM 18.46 65.228 0.096 7.04 3.04 8.73
5/26/2022 12:45:00 AM 18.4 65.12 0.096 7.03 3.28 8.74
5/26/2022 1:00:00 AM 18.36 65.048 0.096 7.04 3.11 8.75
5/26/2022 1:15:00 AM 18.32 64.976 0.096 7.03 3.09 8.78
5/26/2022 1:30:00 AM 18.27 64.886 0.097 7.03 2.72 8.77
5/26/2022 1:45:00 AM 18.23 64.814 0.097 7.03 3.06 8.78
5/26/2022 2:00:00 AM 18.17 64.706 0.097 7.03 3.42 8.79
5/26/2022 2:15:00 AM 18.12 64.616 0.097 7.02 3.11 8.81
5/26/2022 2:30:00 AM 18.08 64.544 0.097 7.04 3.47 8.81
5/26/2022 2:45:00 AM 18.03 64.454 0.098 7.03 2.98 8.83
5/26/2022 3:00:00 AM 17.99 64.382 0.098 7.03 3.5 8.83
5/26/2022 3:15:00 AM 17.95 64.31 0.097 7.03 3.23 8.85
5/26/2022 3:30:00 AM 17.91 64.238 0.098 7.02 3.36 8.85
5/26/2022 3:45:00 AM 17.87 64.166 0.098 7.02 2.83 8.85
5/26/2022 4:00:00 AM 17.83 64.094 0.097 7.03 2.79 8.89
5/26/2022 4:15:00 AM 17.78 64.004 0.097 7.03 3.02 8.9
5/26/2022 4:30:00 AM 17.73 63.914 0.097 7.01 3.48 8.88
5/26/2022 4:45:00 AM 17.69 63.842 0.097 7.02 3.01 8.91
5/26/2022 5:00:00 AM 17.64 63.752 0.097 7.01 2.88 8.9
5/26/2022 5:15:00 AM 17.6 63.68 0.097 7.02 3.34 8.92
5/26/2022 5:30:00 AM 17.56 63.608 0.096 7.02 3.66 8.94
5/26/2022 5:45:00 AM 17.52 63.536 0.097 7.01 3.15 8.94
5/26/2022 6:00:00 AM 17.48 63.464 0.097 7.01 3.2 8.96
5/26/2022 6:15:00 AM 17.45 63.41 0.096 7 3.08 8.96
5/26/2022 6:30:00 AM 17.4 63.32 0.096 6.98 3.63 9
5/26/2022 6:45:00 AM 17.36 63.248 0.096 7.01 2.99 9.03
5/26/2022 7:00:00 AM 17.33 63.194 0.096 7.01 2.69 9.08
5/26/2022 7:15:00 AM 17.3 63.14 0.096 7.02 2.8 9.13
5/26/2022 7:30:00 AM 17.28 63.104 0.096 7.02 3.01 9.19
5/26/2022 7:45:00 AM 17.25 63.05 0.096 7.03 2.96 9.24
5/26/2022 8:00:00 AM 17.23 63.014 0.096 7.04 2.46 9.31
5/26/2022 8:15:00 AM 17.22 62.996 0.096 7.05 2.92 9.39
5/26/2022 8:30:00 AM 17.19 62.942 0.096 7.08 3.01 9.47
5/26/2022 8:45:00 AM 17.2 62.96 0.095 7.07 3.42 9.54
5/26/2022 9:00:00 AM 17.22 62.996 0.095 7.11 2.85 9.61
5/26/2022 9:15:00 AM 17.26 63.068 0.095 7.12 2.54 9.69
5/26/2022 9:30:00 AM 17.3 63.14 0.095 7.15 2.71 9.76
5/26/2022 9:45:00 AM 17.36 63.248 0.095 7.17 2.64 9.83
5/26/2022 10:00:00 AM 17.43 63.374 0.095 7.18 2.63 9.88
5/26/2022 10:15:00 AM 17.55 63.59 0.094 7.19 2.73 9.98
5/26/2022 10:30:00 AM 17.67 63.806 0.095 7.25 2.83 10.04
5/26/2022 10:45:00 AM 17.84 64.112 0.094 7.28 2.64 10.12
5/26/2022 11:00:00 AM 17.95 64.31 0.094 7.33 2.46 10.18
5/26/2022 11:15:00 AM 18.12 64.616 0.094 7.35 2.6 10.22
5/26/2022 11:30:00 AM 18.27 64.886 0.094 7.39 2.62 10.27
5/26/2022 11:45:00 AM 18.45 65.21 0.094 7.42 2.6 10.29
5/26/2022 12:00:00 PM 18.69 65.642 0.094 7.48 2.4 10.32
5/26/2022 12:15:00 PM 18.93 66.074 0.094 7.49 2.46 10.34
5/26/2022 12:30:00 PM 19.05 66.29 0.094 7.54 2.69 10.31
5/26/2022 12:45:00 PM 19.23 66.614 0.094 7.55 2.45 10.27
5/26/2022 1:00:00 PM 19.48 67.064 0.093 7.58 2.96 10.29
5/26/2022 1:15:00 PM 19.7 67.46 0.093 7.62 2.37 10.26
5/26/2022 1:30:00 PM 19.93 67.874 0.093 7.64 2.5 10.22
5/26/2022 1:45:00 PM 20.1 68.18 0.093 7.67 2.73 10.18
5/26/2022 2:00:00 PM 20.31 68.558 0.093 7.7 2.46 10.16
5/26/2022 2:15:00 PM 20.48 68.864 0.093 7.72 2.53 10.09
5/26/2022 2:30:00 PM 20.62 69.116 0.093 7.72 2.32 10.07
5/26/2022 2:45:00 PM 20.83 69.494 0.093 7.74 2.72 10.04
5/26/2022 3:00:00 PM 20.99 69.782 0.093 7.77 3.06 9.99
5/26/2022 3:15:00 PM 21.19 70.142 0.093 7.81 2.88 9.98
5/26/2022 3:30:00 PM 21.32 70.376 0.093 7.81 2.51 9.92
5/26/2022 3:45:00 PM 21.41 70.538 0.093 7.81 2.4 9.87
5/26/2022 4:00:00 PM 21.44 70.592 0.093 7.81 2.7 9.79
5/26/2022 4:15:00 PM 21.39 70.502 0.093 7.77 2.87 9.7
5/26/2022 4:30:00 PM 21.32 70.376 0.093 7.71 2.75 9.6
5/26/2022 4:45:00 PM 21.24 70.232 0.093 7.65 2.8 9.5
5/26/2022 5:00:00 PM 21.17 70.106 0.093 7.6 2.87 9.4
5/26/2022 5:15:00 PM 21.09 69.962 0.094 7.52 2.63 9.32
5/26/2022 5:30:00 PM 20.99 69.782 0.093 7.49 2.85 9.26
5/26/2022 5:45:00 PM 20.9 69.62 0.093 7.45 2.54 9.17
5/26/2022 6:00:00 PM 20.83 69.494 0.094 7.37 2.72 9.05
5/26/2022 6:15:00 PM 20.82 69.476 0.093 7.35 2.64 8.99
5/26/2022 6:30:00 PM 20.79 69.422 0.094 7.3 2.94 8.88
5/26/2022 6:45:00 PM 20.79 69.422 0.094 7.27 2.96 8.84
5/26/2022 7:00:00 PM 20.79 69.422 0.094 7.25 2.88 8.8
5/26/2022 7:15:00 PM 20.77 69.386 0.094 7.23 2.75 8.72
5/26/2022 7:30:00 PM 20.73 69.314 0.094 7.19 2.68 8.65
5/26/2022 7:45:00 PM 20.68 69.224 0.094 7.17 2.9 8.59
5/26/2022 8:00:00 PM 20.64 69.152 0.094 7.15 3 8.56
5/26/2022 8:15:00 PM 20.58 69.044 0.095 7.14 2.76 8.53
5/26/2022 8:30:00 PM 20.53 68.954 0.095 7.11 2.8 8.46
5/26/2022 8:45:00 PM 20.47 68.846 0.095 7.1 2.91 8.41
5/26/2022 9:00:00 PM 20.41 68.738 0.095 7.08 3.12 8.38
5/26/2022 9:15:00 PM 20.34 68.612 0.096 7.07 2.97 8.37
5/26/2022 9:30:00 PM 20.28 68.504 0.096 7.02 2.79 8.36
5/26/2022 9:45:00 PM 20.21 68.378 0.096 7.05 3.09 8.35
5/26/2022 10:00:00 PM 20.13 68.234 0.096 7.03 3.14 8.33
5/26/2022 10:15:00 PM 20.07 68.126 0.096 7.02 2.49 8.35
5/26/2022 10:30:00 PM 19.99 67.982 0.096 7.03 2.52 8.35
5/26/2022 10:45:00 PM 19.93 67.874 0.096 7.03 2.74 8.37
5/26/2022 11:00:00 PM 19.87 67.766 0.096 7.02 3.22 8.37
5/26/2022 11:15:00 PM 19.82 67.676 0.097 7.01 2.74 8.36
5/26/2022 11:30:00 PM 19.78 67.604 0.097 6.97 3.4 8.38
5/26/2022 11:45:00 PM 19.75 67.55 0.097 7.02 2.96 8.4
5/27/2022 12:00:00 AM 19.73 67.514 0.097 6.98 3.05 8.37
5/27/2022 12:15:00 AM 19.71 67.478 0.097 7 3.22 8.39
5/27/2022 12:30:00 AM 19.69 67.442 0.097 7 2.99 8.41
5/27/2022 12:45:00 AM 19.68 67.424 0.097 7.01 3.05 8.42
5/27/2022 1:00:00 AM 19.67 67.406 0.097 7 3.32 8.4
5/27/2022 1:15:00 AM 19.66 67.388 0.097 7 2.9 8.42
5/27/2022 1:30:00 AM 19.64 67.352 0.098 7.01 2.71 8.41
5/27/2022 1:45:00 AM 19.63 67.334 0.098 7 3.15 8.42
5/27/2022 2:00:00 AM 19.61 67.298 0.098 7.01 3.01 8.43
5/27/2022 2:15:00 AM 19.6 67.28 0.098 7 2.8 8.43
5/27/2022 2:30:00 AM 19.57 67.226 0.098 7.01 3.09 8.45
5/27/2022 2:45:00 AM 19.54 67.172 0.098 7 2.96 8.45
5/27/2022 3:00:00 AM 19.51 67.118 0.098 6.99 2.92 8.47
5/27/2022 3:15:00 AM 19.48 67.064 0.098 6.99 2.9 8.46
5/27/2022 3:30:00 AM 19.46 67.028 0.098 6.95 3.1 8.45
5/27/2022 3:45:00 AM 19.42 66.956 0.098 6.98 3.15 8.44
5/27/2022 4:00:00 AM 19.39 66.902 0.098 6.99 3.27 8.46
5/27/2022 4:15:00 AM 19.36 66.848 0.098 6.98 3.37 8.46
5/27/2022 4:30:00 AM 19.33 66.794 0.098 6.98 2.95 8.48
5/27/2022 4:45:00 AM 19.29 66.722 0.098 6.98 2.92 8.47
5/27/2022 5:00:00 AM 19.26 66.668 0.098 6.97 3.26 8.47
5/27/2022 5:15:00 AM 19.23 66.614 0.098 6.97 3.48 8.48
5/27/2022 5:30:00 AM 19.19 66.542 0.098 6.98 3.39 8.5
5/27/2022 5:45:00 AM 19.16 66.488 0.098 6.98 3.17 8.5
5/27/2022 6:00:00 AM 19.13 66.434 0.098 6.97 2.81 8.49
5/27/2022 6:15:00 AM 19.11 66.398 0.098 6.97 2.93 8.53
5/27/2022 6:30:00 AM 19.08 66.344 0.098 6.97 2.84 8.53
5/27/2022 6:45:00 AM 19.06 66.308 0.098 6.97 3.05 8.56
5/27/2022 7:00:00 AM 19.05 66.29 0.098 6.97 2.61 8.59
5/27/2022 7:15:00 AM 19.03 66.254 0.098 6.98 2.86 8.62
5/27/2022 7:30:00 AM 19.01 66.218 0.098 6.99 3.01 8.65
5/27/2022 7:45:00 AM 19 66.2 0.098 6.99 2.95 8.66
5/27/2022 8:00:00 AM 18.99 66.182 0.098 7 2.81 8.69
5/27/2022 8:15:00 AM 18.99 66.182 0.098 7.01 2.77 8.77
5/27/2022 8:30:00 AM 18.99 66.182 0.098 7.02 2.58 8.83
5/27/2022 8:45:00 AM 18.99 66.182 0.097 7.02 2.55 8.84
5/27/2022 9:00:00 AM 18.98 66.164 0.098 7.03 2.71 8.84
5/27/2022 9:15:00 AM 18.99 66.182 0.097 7.05 3.1 8.92
5/27/2022 9:30:00 AM 18.99 66.182 0.097 7.05 2.91 8.95
5/27/2022 9:45:00 AM 19 66.2 0.097 7.06 2.72 9.01
5/27/2022 10:00:00 AM 19.06 66.308 0.097 7.1 2.72 9.14
5/27/2022 10:15:00 AM 19.12 66.416 0.097 7.12 2.73 9.24
5/27/2022 10:30:00 AM 19.17 66.506 0.097 7.15 2.96 9.33
5/27/2022 10:45:00 AM 19.23 66.614 0.097 7.17 2.67 9.38
5/27/2022 11:00:00 AM 19.3 66.74 0.097 7.2 2.95 9.46
5/27/2022 11:15:00 AM 19.38 66.884 0.096 7.23 2.46 9.54
5/27/2022 11:30:00 AM 19.39 66.902 0.096 7.24 2.46 9.49
5/27/2022 11:45:00 AM 19.43 66.974 0.097 7.25 2.96 9.5
5/27/2022 12:00:00 PM 19.45 67.01 0.096 7.26 2.48 9.5
5/27/2022 12:15:00 PM 19.45 67.01 0.096 7.25 3.11 9.39
5/27/2022 12:30:00 PM 19.49 67.082 0.094 7.21 6.67 9.27
5/27/2022 12:45:00 PM 19.49 67.082 0.095 7.22 4.13 9.27
5/27/2022 1:00:00 PM 19.47 67.046 0.097 7.21 4.09 9.23
5/27/2022 1:15:00 PM 19.45 67.01 0.098 7.23 5.22 9.2
5/27/2022 1:30:00 PM 19.44 66.992 0.098 7.22 7.23 9.14
5/27/2022 1:45:00 PM 19.49 67.082 0.099 7.22 15.48 9.16
5/27/2022 2:00:00 PM 19.5 67.1 0.098 7.2 12.3 9.22
5/27/2022 2:15:00 PM 19.53 67.154 0.098 7.26 12.93 9.27
5/27/2022 2:30:00 PM 19.55 67.19 0.098 7.25 15.31 9.29
5/27/2022 2:45:00 PM 19.56 67.208 0.1 7.27 17.21 9.28
5/27/2022 3:00:00 PM 19.58 67.244 0.101 7.27 20.76 9.3
5/27/2022 3:15:00 PM 19.63 67.334 0.101 7.31 17.89 9.4
5/27/2022 3:30:00 PM 19.72 67.496 0.101 7.34 16.79 9.47
5/27/2022 3:45:00 PM 19.78 67.604 0.101 7.36 12.87 9.49
5/27/2022 4:00:00 PM 19.85 67.73 0.102 7.38 11.19 9.5
5/27/2022 4:15:00 PM 19.92 67.856 0.104 7.4 11.12 9.51
5/27/2022 4:30:00 PM 19.98 67.964 0.105 7.36 9.33 9.52
5/27/2022 4:45:00 PM 20.07 68.126 0.104 7.43 9.95 9.53
5/27/2022 5:00:00 PM 20.12 68.216 0.103 7.42 8.24 9.49
5/27/2022 5:15:00 PM 20.18 68.324 0.101 7.43 8.46 9.47
5/27/2022 5:30:00 PM 20.24 68.432 0.1 7.41 7.21 9.44
5/27/2022 5:45:00 PM 20.26 68.468 0.099 7.36 6.2 9.39
5/27/2022 6:00:00 PM 20.28 68.504 0.099 7.4 6.12 9.34
5/27/2022 6:15:00 PM 20.33 68.594 0.098 7.4 5.84 9.29
5/27/2022 6:30:00 PM 20.35 68.63 0.099 7.38 6.85 9.2
5/27/2022 6:45:00 PM 20.36 68.648 0.099 7.36 6.73 9.1
5/27/2022 7:00:00 PM 20.36 68.648 0.1 7.32 7.02 9.01
5/27/2022 7:15:00 PM 20.32 68.576 0.1 7.3 8.09 8.94
5/27/2022 7:30:00 PM 20.29 68.522 0.1 7.26 6.21 8.87
5/27/2022 7:45:00 PM 20.25 68.45 0.1 7.24 6.9 8.8
5/27/2022 8:00:00 PM 20.22 68.396 0.1 7.21 5.78 8.74
5/27/2022 8:15:00 PM 20.18 68.324 0.099 7.18 5.06 8.68
5/27/2022 8:30:00 PM 20.14 68.252 0.099 7.16 5.83 8.63
5/27/2022 8:45:00 PM 20.09 68.162 0.1 7.14 6.14 8.59
5/27/2022 9:00:00 PM 20.03 68.054 0.1 7.12 5.88 8.52
5/27/2022 9:15:00 PM 19.96 67.92799 0.1 7.11 6.14 8.49
5/27/2022 9:30:00 PM 19.9 67.82 0.1 7.09 5.63 8.47
5/27/2022 9:45:00 PM 19.37 66.866 0.101 7.08 4.94 8.59
5/27/2022 10:00:00 PM 19.28 66.704 0.101 7.06 4.98 8.58
5/27/2022 10:15:00 PM 19.39 66.902 0.1 7.06 5.51 8.54
5/27/2022 10:30:00 PM 19.4 66.92 0.1 7.05 5.36 8.52
5/27/2022 10:45:00 PM 19.39 66.902 0.1 7.04 4.72 8.5
5/27/2022 11:00:00 PM 19.35 66.83 0.1 7.02 5.12 8.48
5/27/2022 11:15:00 PM 19.32 66.776 0.1 7.02 4.93 8.5
5/27/2022 11:30:00 PM 19.29 66.722 0.1 7.02 5.22 8.49
5/27/2022 11:45:00 PM 19.26 66.668 0.1 7.01 4.73 8.48
5/28/2022 12:00:00 AM 19.22 66.596 0.1 6.99 4.67 8.5
5/28/2022 12:15:00 AM 19.19 66.542 0.1 7.01 4.36 8.49
5/28/2022 12:30:00 AM 19.16 66.488 0.1 7 4.17 8.48
5/28/2022 12:45:00 AM 19.12 66.416 0.1 7 4.05 8.5
5/28/2022 1:00:00 AM 19.08 66.344 0.1 7 4.9 8.51
5/28/2022 1:15:00 AM 19.05 66.29 0.1 7 3.91 8.52
5/28/2022 1:30:00 AM 19.02 66.236 0.1 7 4.27 8.53
5/28/2022 1:45:00 AM 18.98 66.164 0.1 7 4.58 8.54
5/28/2022 2:00:00 AM 18.94 66.092 0.1 7 4.28 8.57
5/28/2022 2:15:00 AM 18.89 66.002 0.1 7.01 4.85 8.6
5/28/2022 2:30:00 AM 18.85 65.93 0.1 7.02 4.52 8.6
5/28/2022 2:45:00 AM 18.8 65.84 0.099 7.01 5.19 8.62
5/28/2022 3:00:00 AM 18.76 65.768 0.099 7.01 5.02 8.65
5/28/2022 3:15:00 AM 18.71 65.67799 0.099 7 4.58 8.64
5/28/2022 3:30:00 AM 18.66 65.588 0.099 7 4.97 8.66
5/28/2022 3:45:00 AM 18.62 65.516 0.099 7 5.84 8.66
5/28/2022 4:00:00 AM 18.58 65.444 0.099 7 4.99 8.68
5/28/2022 4:15:00 AM 18.54 65.372 0.1 6.99 5.18 8.68
5/28/2022 4:30:00 AM 18.5 65.3 0.1 6.99 4.98 8.69
5/28/2022 4:45:00 AM 18.45 65.21 0.1 7 5.34 8.71
5/28/2022 5:00:00 AM 18.4 65.12 0.099 7.01 5.14 8.75
5/28/2022 5:15:00 AM 18.35 65.03 0.099 6.99 6.72 8.76
5/28/2022 5:30:00 AM 18.3 64.94 0.099 7 5.61 8.78
5/28/2022 5:45:00 AM 18.25 64.85 0.098 6.99 4.99 8.79
5/28/2022 6:00:00 AM 18.2 64.76 0.098 6.99 5.93 8.8
5/28/2022 6:15:00 AM 18.16 64.688 0.098 6.95 5.32 8.82
5/28/2022 6:30:00 AM 18.13 64.634 0.098 6.99 4.55 8.85
5/28/2022 6:45:00 AM 18.09 64.562 0.098 6.98 4.85 8.85
5/28/2022 7:00:00 AM 18.06 64.508 0.097 6.98 5.08 8.88
5/28/2022 7:15:00 AM 18.03 64.454 0.097 6.99 4.95 8.92
5/28/2022 7:30:00 AM 18 64.4 0.097 6.99 4.61 8.94
5/28/2022 7:45:00 AM 17.98 64.364 0.096 6.99 4.3 8.95
5/28/2022 8:00:00 AM 17.96 64.328 0.096 6.98 4.56 8.96
5/28/2022 8:15:00 AM 17.94 64.292 0.095 6.99 4.13 9.01
5/28/2022 8:30:00 AM 17.94 64.292 0.095 6.96 4.64 9.08
5/28/2022 8:45:00 AM 17.94 64.292 0.094 7 5.08 9.12
5/28/2022 9:00:00 AM 17.94 64.292 0.094 7.04 4.16 9.18
5/28/2022 9:15:00 AM 17.95 64.31 0.094 7.04 4.67 9.25
5/28/2022 9:30:00 AM 17.97 64.346 0.094 7.07 4.31 9.28
5/28/2022 9:45:00 AM 17.98 64.364 0.095 7.1 4.45 9.34
5/28/2022 10:00:00 AM 17.99 64.382 0.096 7.08 5.35 9.34
5/28/2022 10:15:00 AM 18.01 64.418 0.097 7.12 4.73 9.38
5/28/2022 10:30:00 AM 18.06 64.508 0.098 7.15 4.43 9.46
5/28/2022 10:45:00 AM 18.09 64.562 0.1 7.15 4.97 9.5
5/28/2022 11:00:00 AM 18.14 64.652 0.101 7.2 4.34 9.56
5/28/2022 11:15:00 AM 18.25 64.85 0.102 7.24 4.15 9.67
5/28/2022 11:30:00 AM 18.31 64.958 0.103 7.28 4.43 9.75
5/28/2022 11:45:00 AM 18.36 65.048 0.104 7.29 4.75 9.75
5/28/2022 12:00:00 PM 18.42 65.156 0.105 7.32 4.25 9.78
5/28/2022 12:15:00 PM 18.55 65.39 0.106 7.35 3.82 9.84
5/28/2022 12:30:00 PM 18.71 65.67799 0.107 7.39 4.41 9.89
5/28/2022 12:45:00 PM 18.78 65.804 0.107 7.4 4.08 9.89
5/28/2022 1:00:00 PM 18.85 65.93 0.107 7.41 3.9 9.9
5/28/2022 1:15:00 PM 19.02 66.236 0.107 7.45 4.48 9.91
5/28/2022 1:30:00 PM 19.3 66.74 0.107 7.48 3.99 9.93
5/28/2022 1:45:00 PM 19.48 67.064 0.107 7.49 4.3 9.92
5/28/2022 2:00:00 PM 19.61 67.298 0.107 7.5 3.91 9.87
5/28/2022 2:15:00 PM 19.83 67.694 0.107 7.51 3.71 9.86
5/28/2022 2:30:00 PM 20.09 68.162 0.107 7.53 4.01 9.84
5/28/2022 2:45:00 PM 20.28 68.504 0.106 7.54 4.53 9.77
5/28/2022 3:00:00 PM 20.42 68.756 0.106 7.55 4.05 9.73
5/28/2022 3:15:00 PM 20.58 69.044 0.105 7.56 4.34 9.71
5/28/2022 3:30:00 PM 20.66 69.188 0.105 7.56 3.71 9.65
5/28/2022 3:45:00 PM 20.88 69.584 0.105 7.56 4.38 9.61
5/28/2022 4:00:00 PM 21.02 69.836 0.104 7.57 3.68 9.57
5/28/2022 4:15:00 PM 21.08 69.944 0.104 7.56 4.37 9.52
5/28/2022 4:30:00 PM 21.11 69.998 0.104 7.55 3.53 9.47
5/28/2022 4:45:00 PM 21.11 69.998 0.103 7.53 3.54 9.42
5/28/2022 5:00:00 PM 21.15 70.07 0.103 7.51 3.55 9.4
5/28/2022 5:15:00 PM 21.17 70.106 0.103 7.5 3.71 9.36
5/28/2022 5:30:00 PM 21.12 70.016 0.102 7.47 3.86 9.27
5/28/2022 5:45:00 PM 21.1 69.98 0.102 7.44 3.72 9.21
5/28/2022 6:00:00 PM 21.12 70.016 0.102 7.41 4.02 9.17
5/28/2022 6:15:00 PM 21.1 69.98 0.102 7.35 3.89 9.1
5/28/2022 6:30:00 PM 21.11 69.998 0.102 7.36 4.12 9.03
5/28/2022 6:45:00 PM 21.09 69.962 0.102 7.35 3.91 8.97
5/28/2022 7:00:00 PM 21.05 69.89 0.102 7.32 4.32 8.88
5/28/2022 7:15:00 PM 21.01 69.818 0.102 7.29 4.38 8.8
5/28/2022 7:30:00 PM 20.98 69.764 0.102 7.26 4.08 8.72
5/28/2022 7:45:00 PM 20.95 69.71 0.102 7.23 3.9 8.65
5/28/2022 8:00:00 PM 20.88 69.584 0.103 7.16 4.49 8.59
5/28/2022 8:15:00 PM 20.84 69.512 0.103 7.19 4.55 8.54
5/28/2022 8:30:00 PM 20.77 69.386 0.103 7.14 4.3 8.48
5/28/2022 8:45:00 PM 20.68 69.224 0.103 7.15 4.28 8.45
5/28/2022 9:00:00 PM 20.58 69.044 0.103 7.12 4.62 8.41
5/28/2022 9:15:00 PM 20.49 68.882 0.103 7.12 4.32 8.39
5/28/2022 9:30:00 PM 20.39 68.702 0.104 7.1 4.99 8.37
5/28/2022 9:45:00 PM 20.29 68.522 0.104 7.08 4.43 8.36
5/28/2022 10:00:00 PM 20.2 68.36 0.104 7.08 4.35 8.35
5/28/2022 10:15:00 PM 20.13 68.234 0.104 7.06 4.75 8.35
5/28/2022 10:30:00 PM 20.04 68.07201 0.105 7.01 4.82 8.34
5/28/2022 10:45:00 PM 19.97 67.946 0.105 7.05 4.84 8.36
5/28/2022 11:00:00 PM 19.9 67.82 0.105 7.05 4.67 8.38
5/28/2022 11:15:00 PM 19.83 67.694 0.105 7.05 5.46 8.37
5/28/2022 11:30:00 PM 19.76 67.568 0.105 7.05 5.33 8.4
5/28/2022 11:45:00 PM 19.68 67.424 0.105 6.98 5.69 8.41
5/29/2022 12:00:00 AM 19.62 67.316 0.105 7.04 5.93 8.42
5/29/2022 12:15:00 AM 19.55 67.19 0.105 7.04 5.15 8.45
5/29/2022 12:30:00 AM 19.49 67.082 0.105 7.03 5.56 8.45
5/29/2022 12:45:00 AM 19.44 66.992 0.105 7.02 5.58 8.45
5/29/2022 1:00:00 AM 19.38 66.884 0.105 7.01 6.32 8.48
5/29/2022 1:15:00 AM 19.31 66.758 0.105 7.03 6.41 8.49
5/29/2022 1:30:00 AM 19.26 66.668 0.105 7.02 6.4 8.49
5/29/2022 1:45:00 AM 19.21 66.578 0.105 7.02 6.34 8.51
5/29/2022 2:00:00 AM 19.15 66.47 0.104 7.02 5.69 8.52
5/29/2022 2:15:00 AM 19.1 66.38 0.105 7 5.58 8.5
5/29/2022 2:30:00 AM 19.03 66.254 0.104 6.97 5.47 8.55
5/29/2022 2:45:00 AM 18.96 66.128 0.104 7.01 6.06 8.57
5/29/2022 3:00:00 AM 18.89 66.002 0.104 6.96 5.51 8.6
5/29/2022 3:15:00 AM 18.82 65.876 0.104 7 5.74 8.61
5/29/2022 3:30:00 AM 18.74 65.732 0.103 6.99 5.63 8.62
5/29/2022 3:45:00 AM 18.68 65.624 0.104 6.97 5.81 8.62
5/29/2022 4:00:00 AM 18.62 65.516 0.103 6.97 5.04 8.65
5/29/2022 4:15:00 AM 18.56 65.408 0.103 6.96 5.23 8.66
5/29/2022 4:30:00 AM 18.5 65.3 0.103 6.94 4.8 8.68
5/29/2022 4:45:00 AM 18.43 65.174 0.103 6.96 4.86 8.7
5/29/2022 5:00:00 AM 18.38 65.084 0.103 6.96 4.72 8.72
5/29/2022 5:15:00 AM 18.31 64.958 0.103 6.95 5.27 8.75
5/29/2022 5:30:00 AM 18.25 64.85 0.103 6.95 4.56 8.76
5/29/2022 5:45:00 AM 18.19 64.742 0.103 6.94 4.76 8.77
5/29/2022 6:00:00 AM 18.14 64.652 0.103 6.91 4.24 8.76
5/29/2022 6:15:00 AM 18.08 64.544 0.103 6.94 4.17 8.8
5/29/2022 6:30:00 AM 18.03 64.454 0.103 6.95 4.55 8.82
5/29/2022 6:45:00 AM 17.98 64.364 0.103 6.95 4.08 8.84
5/29/2022 7:00:00 AM 17.94 64.292 0.103 6.95 4.61 8.89
5/29/2022 7:15:00 AM 17.9 64.22 0.103 6.96 4.23 8.94
5/29/2022 7:30:00 AM 17.86 64.148 0.103 6.97 4.06 8.99
5/29/2022 7:45:00 AM 17.83 64.094 0.103 6.98 4.16 9.04
5/29/2022 8:00:00 AM 17.81 64.058 0.103 6.99 4.02 9.11
5/29/2022 8:15:00 AM 17.8 64.04 0.103 7.01 3.53 9.19
5/29/2022 8:30:00 AM 17.78 64.004 0.102 7.03 3.58 9.24
5/29/2022 8:45:00 AM 17.79 64.022 0.102 7.04 3.83 9.31
5/29/2022 9:00:00 AM 17.81 64.058 0.102 7.06 3.65 9.38
5/29/2022 9:15:00 AM 17.81 64.058 0.102 7.09 3.47 9.46
5/29/2022 9:30:00 AM 17.87 64.166 0.102 7.11 3.86 9.51
5/29/2022 9:45:00 AM 17.94 64.292 0.102 7.14 3.64 9.55
5/29/2022 10:00:00 AM 18.03 64.454 0.102 7.17 3.39 9.61
5/29/2022 10:15:00 AM 18.13 64.634 0.102 7.19 3.34 9.67
5/29/2022 10:30:00 AM 18.26 64.868 0.102 7.21 3.43 9.71
5/29/2022 10:45:00 AM 18.39 65.102 0.102 7.24 3.39 9.75
5/29/2022 11:00:00 AM 18.49 65.282 0.102 7.26 3.23 9.79
5/29/2022 11:15:00 AM 18.63 65.534 0.102 7.28 3.34 9.81
5/29/2022 11:30:00 AM 18.76 65.768 0.102 7.3 3.42 9.85
5/29/2022 11:45:00 AM 18.97 66.146 0.102 7.33 2.91 9.87
5/29/2022 12:00:00 PM 19.18 66.524 0.102 7.36 3.16 9.87
5/29/2022 12:15:00 PM 19.36 66.848 0.102 7.37 3.03 9.86
5/29/2022 12:30:00 PM 19.58 67.244 0.102 7.4 3.13 9.87
5/29/2022 12:45:00 PM 19.75 67.55 0.102 7.41 2.87 9.85
5/29/2022 1:00:00 PM 20.05 68.09 0.102 7.44 3.38 9.84
5/29/2022 1:15:00 PM 20.29 68.522 0.102 7.4 2.88 9.79
5/29/2022 1:30:00 PM 20.52 68.936 0.102 7.47 2.8 9.77
5/29/2022 1:45:00 PM 20.77 69.386 0.102 7.48 2.91 9.72
5/29/2022 2:00:00 PM 20.95 69.71 0.102 7.5 2.9 9.68
5/29/2022 2:15:00 PM 21.14 70.052 0.102 7.49 2.69 9.63
5/29/2022 2:30:00 PM 21.34 70.412 0.102 7.5 2.78 9.59
5/29/2022 2:45:00 PM 21.55 70.79 0.102 7.49 3.24 9.53
5/29/2022 3:00:00 PM 21.72 71.096 0.102 7.48 2.74 9.48
5/29/2022 3:15:00 PM 21.87 71.366 0.102 7.49 2.84 9.45
5/29/2022 3:30:00 PM 22.01 71.618 0.102 7.49 3.16 9.38
5/29/2022 3:45:00 PM 22.12 71.816 0.102 7.48 3.23 9.32
5/29/2022 4:00:00 PM 22.22 71.996 0.102 7.47 2.8 9.27
5/29/2022 4:15:00 PM 22.27 72.086 0.102 7.43 3.09 9.2
5/29/2022 4:30:00 PM 22.33 72.194 0.102 7.43 3.13 9.16
5/29/2022 4:45:00 PM 22.34 72.212 0.102 7.42 3.14 9.1
5/29/2022 5:00:00 PM 22.35 72.23 0.103 7.4 2.63 9.05
5/29/2022 5:15:00 PM 22.34 72.212 0.102 7.39 2.95 8.98
5/29/2022 5:30:00 PM 22.32 72.176 0.102 7.36 2.76 8.93
5/29/2022 5:45:00 PM 22.33 72.194 0.102 7.35 3.24 8.87
5/29/2022 6:00:00 PM 22.3 72.14 0.102 7.32 2.92 8.8
5/29/2022 6:15:00 PM 22.29 72.122 0.102 7.31 3.27 8.75
5/29/2022 6:30:00 PM 22.27 72.086 0.102 7.27 3.05 8.68
5/29/2022 6:45:00 PM 22.24 72.032 0.102 7.25 3.3 8.6
5/29/2022 7:00:00 PM 22.23 72.014 0.102 7.24 3.35 8.54
5/29/2022 7:15:00 PM 22.2 71.96 0.103 7.21 3.4 8.49
5/29/2022 7:30:00 PM 22.17 71.906 0.103 7.19 3.24 8.43
5/29/2022 7:45:00 PM 22.14 71.852 0.103 7.17 3.12 8.39
5/29/2022 8:00:00 PM 22.09 71.762 0.103 7.16 3.38 8.36
5/29/2022 8:15:00 PM 22.04 71.672 0.103 7.15 3.26 8.3
5/29/2022 8:30:00 PM 21.96 71.528 0.103 7.11 3.11 8.26
5/29/2022 8:45:00 PM 21.89 71.402 0.103 7.11 3.63 8.23
5/29/2022 9:00:00 PM 21.81 71.258 0.103 7.09 3.54 8.2
5/29/2022 9:15:00 PM 21.73 71.114 0.103 7.08 3.27 8.15
5/29/2022 9:30:00 PM 21.64 70.952 0.103 7.06 3.6 8.13
5/29/2022 9:45:00 PM 21.56 70.808 0.103 7.05 3.71 8.13
5/29/2022 10:00:00 PM 21.47 70.646 0.103 7.05 3.2 8.13
5/29/2022 10:15:00 PM 21.38 70.484 0.104 7.04 3.86 8.13
5/29/2022 10:30:00 PM 21.3 70.34 0.104 7.03 2.83 8.11
5/29/2022 10:45:00 PM 21.2 70.16 0.104 7.03 3.37 8.13
5/29/2022 11:00:00 PM 21.12 70.016 0.104 7.01 3.35 8.12
5/29/2022 11:15:00 PM 21.02 69.836 0.104 7 3.57 8.14
5/29/2022 11:30:00 PM 20.94 69.692 0.104 7.02 3.42 8.17
5/29/2022 11:45:00 PM 20.85 69.53 0.104 7 3.34 8.17
5/30/2022 12:00:00 AM 20.77 69.386 0.104 7 3.56 8.2
5/30/2022 12:15:00 AM 20.68 69.224 0.104 7 3.5 8.21
5/30/2022 12:30:00 AM 20.59 69.062 0.104 7 3.83 8.24
5/30/2022 12:45:00 AM 20.51 68.918 0.104 6.99 3.66 8.23
5/30/2022 1:00:00 AM 20.43 68.774 0.105 6.99 3.78 8.24
5/30/2022 1:15:00 AM 20.34 68.612 0.105 6.99 3.76 8.27
5/30/2022 1:30:00 AM 20.25 68.45 0.105 6.99 3.47 8.3
5/30/2022 1:45:00 AM 20.18 68.324 0.105 6.99 3.39 8.32
5/30/2022 2:00:00 AM 20.11 68.198 0.105 6.98 3.42 8.33
5/30/2022 2:15:00 AM 20.03 68.054 0.105 6.97 3.59 8.35
5/30/2022 2:30:00 AM 19.95 67.91 0.105 6.99 3.67 8.37
5/30/2022 2:45:00 AM 19.88 67.784 0.105 6.98 3.26 8.38
5/30/2022 3:00:00 AM 19.8 67.64 0.105 6.98 3.39 8.41
5/30/2022 3:15:00 AM 19.73 67.514 0.105 6.97 3.6 8.4
5/30/2022 3:30:00 AM 19.66 67.388 0.105 6.97 3.78 8.44
5/30/2022 3:45:00 AM 19.59 67.262 0.105 6.97 3.21 8.45
5/30/2022 4:00:00 AM 19.53 67.154 0.105 6.97 3.26 8.47
5/30/2022 4:15:00 AM 19.45 67.01 0.105 6.96 3.82 8.49
5/30/2022 4:30:00 AM 19.37 66.866 0.106 6.95 3.27 8.5
5/30/2022 4:45:00 AM 19.3 66.74 0.106 6.95 3.78 8.52
5/30/2022 5:00:00 AM 19.25 66.65 0.105 6.95 3.41 8.53
5/30/2022 5:15:00 AM 19.19 66.542 0.106 6.95 3.82 8.53
5/30/2022 5:30:00 AM 19.11 66.398 0.106 6.94 3.2 8.56
5/30/2022 5:45:00 AM 19.04 66.272 0.106 6.94 3.31 8.58
5/30/2022 6:00:00 AM 18.97 66.146 0.106 6.93 3.05 8.62
5/30/2022 6:15:00 AM 18.91 66.038 0.106 6.93 3.35 8.62
5/30/2022 6:30:00 AM 18.85 65.93 0.106 6.93 3.2 8.68
5/30/2022 6:45:00 AM 18.8 65.84 0.105 6.94 3.51 8.71
5/30/2022 7:00:00 AM 18.75 65.75 0.105 6.94 3.57 8.74
5/30/2022 7:15:00 AM 18.71 65.67799 0.105 6.94 3.46 8.78
5/30/2022 7:30:00 AM 18.67 65.606 0.105 6.95 3.13 8.82
5/30/2022 7:45:00 AM 18.65 65.57 0.105 6.96 3.11 8.85
5/30/2022 8:00:00 AM 18.62 65.516 0.105 6.96 3.59 8.92
5/30/2022 8:15:00 AM 18.61 65.498 0.105 6.97 3.69 8.96
5/30/2022 8:30:00 AM 18.61 65.498 0.105 6.99 4.02 9.03
5/30/2022 8:45:00 AM 18.62 65.516 0.105 6.99 3.11 9.08
5/30/2022 9:00:00 AM 18.65 65.57 0.105 7.02 2.89 9.14
5/30/2022 9:15:00 AM 18.68 65.624 0.105 7.03 3.11 9.19
5/30/2022 9:30:00 AM 18.73 65.714 0.105 7.05 3.12 9.22
5/30/2022 9:45:00 AM 18.8 65.84 0.105 7.08 3.07 9.29
5/30/2022 10:00:00 AM 18.89 66.002 0.105 7.09 3.16 9.35
5/30/2022 10:15:00 AM 18.99 66.182 0.105 7.12 3.15 9.38
5/30/2022 10:30:00 AM 19.14 66.452 0.104 7.15 3.18 9.45
5/30/2022 10:45:00 AM 19.28 66.704 0.104 7.17 2.7 9.45
5/30/2022 11:00:00 AM 19.43 66.974 0.104 7.19 2.94 9.51
5/30/2022 11:15:00 AM 19.63 67.334 0.104 7.22 3.05 9.53
5/30/2022 11:30:00 AM 19.81 67.658 0.104 7.24 2.75 9.52
5/30/2022 11:45:00 AM 20.02 68.036 0.104 7.27 2.74 9.55
5/30/2022 12:00:00 PM 20.24 68.432 0.104 7.27 3.11 9.54
5/30/2022 12:15:00 PM 20.49 68.882 0.104 7.31 3.12 9.51
5/30/2022 12:30:00 PM 20.74 69.332 0.104 7.32 2.61 9.52
5/30/2022 12:45:00 PM 21.02 69.836 0.104 7.35 3.06 9.5
5/30/2022 1:00:00 PM 21.26 70.268 0.104 7.32 2.76 9.49
5/30/2022 1:15:00 PM 21.56 70.808 0.104 7.38 2.83 9.45
5/30/2022 1:30:00 PM 21.8 71.24 0.104 7.39 2.94 9.42
5/30/2022 1:45:00 PM 22.08 71.744 0.104 7.41 2.91 9.39
5/30/2022 2:00:00 PM 22.33 72.194 0.104 7.41 2.68 9.34
5/30/2022 2:15:00 PM 22.58 72.644 0.104 7.42 2.64 9.31
5/30/2022 2:30:00 PM 22.84 73.112 0.104 7.44 2.93 9.26
5/30/2022 2:45:00 PM 23.07 73.526 0.104 7.44 2.55 9.23
5/30/2022 3:00:00 PM 23.26 73.868 0.104 7.44 2.85 9.18
5/30/2022 3:15:00 PM 23.42 74.156 0.104 7.43 2.94 9.1
5/30/2022 3:30:00 PM 23.56 74.408 0.104 7.43 2.96 9.08
5/30/2022 3:45:00 PM 23.68 74.624 0.104 7.42 3.75 9
5/30/2022 4:00:00 PM 23.78 74.804 0.104 7.41 3.88 8.93
5/30/2022 4:15:00 PM 23.86 74.948 0.104 7.39 2.78 8.85
5/30/2022 4:30:00 PM 23.9 75.02 0.104 7.38 3.14 8.8
5/30/2022 4:45:00 PM 23.94 75.092 0.105 7.36 2.86 8.74
5/30/2022 5:00:00 PM 23.95 75.11 0.104 7.34 2.89 8.69
5/30/2022 5:15:00 PM 23.96 75.128 0.104 7.34 3.51 8.62
5/30/2022 5:30:00 PM 23.95 75.11 0.105 7.31 2.91 8.57
5/30/2022 5:45:00 PM 23.94 75.092 0.104 7.29 2.89 8.5
5/30/2022 6:00:00 PM 23.92 75.056 0.105 7.28 2.67 8.43
5/30/2022 6:15:00 PM 23.9 75.02 0.105 7.25 3.26 8.37
5/30/2022 6:30:00 PM 23.88 74.984 0.105 7.23 3.03 8.29
5/30/2022 6:45:00 PM 23.86 74.948 0.105 7.21 3.2 8.23
5/30/2022 7:00:00 PM 23.84 74.912 0.105 7.19 3.3 8.16
5/30/2022 7:15:00 PM 23.82 74.876 0.105 7.17 3.06 8.08
5/30/2022 7:30:00 PM 23.79 74.82201 0.105 7.15 2.76 8.03
5/30/2022 7:45:00 PM 23.75 74.75 0.105 7.13 3.27 8.02
5/30/2022 8:00:00 PM 23.7 74.66 0.105 7.11 3.15 7.99
5/30/2022 8:15:00 PM 23.64 74.552 0.105 7.1 3.42 7.95
5/30/2022 8:30:00 PM 23.58 74.444 0.105 7.08 3.42 7.88
5/30/2022 8:45:00 PM 23.5 74.3 0.105 7.07 3.07 7.88
5/30/2022 9:00:00 PM 23.41 74.138 0.105 7.06 3.69 7.84
5/30/2022 9:15:00 PM 23.34 74.012 0.105 7.03 3.29 7.8
5/30/2022 9:30:00 PM 23.25 73.85 0.105 7.03 3.64 7.79
5/30/2022 9:45:00 PM 23.16 73.688 0.105 7.03 3.47 7.79
5/30/2022 10:00:00 PM 23.09 73.562 0.105 7 2.97 7.78
5/30/2022 10:15:00 PM 23 73.4 0.105 7.01 3.33 7.78
5/30/2022 10:30:00 PM 22.9 73.22 0.105 7 3.13 7.8
5/30/2022 10:45:00 PM 22.81 73.058 0.105 6.99 3.42 7.8
5/30/2022 11:00:00 PM 22.73 72.914 0.106 6.99 3.41 7.78
5/30/2022 11:15:00 PM 22.65 72.77 0.106 6.99 3.33 7.8
5/30/2022 11:30:00 PM 22.58 72.644 0.106 6.98 3.25 7.82
5/30/2022 11:45:00 PM 22.5 72.5 0.106 6.98 3.37 7.84
5/31/2022 12:00:00 AM 22.42 72.356 0.106 6.97 3.3 7.85
5/31/2022 12:15:00 AM 22.34 72.212 0.106 6.97 3.17 7.87
5/31/2022 12:30:00 AM 22.27 72.086 0.106 6.97 3.44 7.88
5/31/2022 12:45:00 AM 22.19 71.942 0.106 6.98 3.36 7.89
5/31/2022 1:00:00 AM 22.11 71.798 0.106 6.97 3.53 7.88
5/31/2022 1:15:00 AM 22.03 71.654 0.106 6.97 3.78 7.92
5/31/2022 1:30:00 AM 21.95 71.51 0.106 6.97 3.12 7.94
5/31/2022 1:45:00 AM 21.88 71.384 0.106 6.97 3.31 7.95
5/31/2022 2:00:00 AM 21.79 71.222 0.106 6.97 4.19 7.96
5/31/2022 2:15:00 AM 21.72 71.096 0.107 6.97 3.26 7.98
5/31/2022 2:30:00 AM 21.64 70.952 0.107 6.97 3.39 7.98
5/31/2022 2:45:00 AM 21.56 70.808 0.107 6.97 3.45 8
5/31/2022 3:00:00 AM 21.48 70.664 0.107 6.96 3.78 8.04
5/31/2022 3:15:00 AM 21.4 70.52 0.107 6.96 3.63 8.05
5/31/2022 3:30:00 AM 21.32 70.376 0.107 6.96 3.53 8.06
5/31/2022 3:45:00 AM 21.24 70.232 0.107 6.96 3.46 8.08
5/31/2022 4:00:00 AM 21.17 70.106 0.107 6.96 3.63 8.1
5/31/2022 4:15:00 AM 21.09 69.962 0.107 6.95 3.56 8.11
5/31/2022 4:30:00 AM 21.02 69.836 0.107 6.94 3.81 8.13
5/31/2022 4:45:00 AM 20.94 69.692 0.107 6.95 3.69 8.15
5/31/2022 5:00:00 AM 20.88 69.584 0.107 6.95 3.3 8.16
5/31/2022 5:15:00 AM 20.8 69.44 0.107 6.95 3.54 8.19
5/31/2022 5:30:00 AM 20.72 69.296 0.107 6.94 4.02 8.22
5/31/2022 5:45:00 AM 20.66 69.188 0.107 6.93 3.48 8.22
5/31/2022 6:00:00 AM 20.59 69.062 0.108 6.93 3.66 8.24
5/31/2022 6:15:00 AM 20.52 68.936 0.108 6.93 3.6 8.26
5/31/2022 6:30:00 AM 20.47 68.846 0.108 6.93 3.22 8.29
5/31/2022 6:45:00 AM 20.42 68.756 0.108 6.93 3.31 8.34
5/31/2022 7:00:00 AM 20.37 68.666 0.108 6.94 3.65 8.38
5/31/2022 7:15:00 AM 20.33 68.594 0.108 6.94 3.93 8.42
5/31/2022 7:30:00 AM 20.3 68.54 0.108 6.94 3.78 8.46
5/31/2022 7:45:00 AM 20.26 68.468 0.108 6.95 3.51 8.51
5/31/2022 8:00:00 AM 20.24 68.432 0.108 6.96 3.7 8.56
5/31/2022 8:15:00 AM 20.24 68.432 0.107 6.97 3.79 8.58
5/31/2022 8:30:00 AM 20.23 68.414 0.107 6.98 3.27 8.65
5/31/2022 8:45:00 AM 20.24 68.432 0.107 6.99 3.65 8.68
5/31/2022 9:00:00 AM 20.27 68.486 0.107 7 3.48 8.73
5/31/2022 9:15:00 AM 20.31 68.558 0.107 7 3.7 8.75
5/31/2022 9:30:00 AM 20.37 68.666 0.107 7.03 3.61 8.79
5/31/2022 9:45:00 AM 20.43 68.774 0.107 7.05 3.35 8.83
5/31/2022 10:00:00 AM 20.52 68.936 0.107 7.07 3.59 8.91
5/31/2022 10:15:00 AM 20.63 69.134 0.107 7.09 3.49 8.96
5/31/2022 10:30:00 AM 20.77 69.386 0.107 7.1 3.59 9.01
5/31/2022 10:45:00 AM 20.92 69.656 0.107 7.13 3.48 8.98
5/31/2022 11:00:00 AM 21.08 69.944 0.107 7.13 3.07 9.08
5/31/2022 11:15:00 AM 21.25 70.25 0.107 7.19 3.16 9.11
5/31/2022 11:30:00 AM 21.46 70.628 0.107 7.2 3.12 9.12
5/31/2022 11:45:00 AM 21.61 70.898 0.107 7.23 3.06 9.12
5/31/2022 12:00:00 PM 21.78 71.204 0.107 7.22 3.05 9.11
5/31/2022 12:15:00 PM 21.97 71.546 0.107 7.26 2.89 9.1
5/31/2022 12:30:00 PM 22.16 71.888 0.107 7.27 2.89 9.07
5/31/2022 12:45:00 PM 22.38 72.284 0.107 7.24 2.74 9.08
5/31/2022 1:00:00 PM 22.57 72.626 0.107 7.29 3.04 9.05
5/31/2022 1:15:00 PM 22.73 72.914 0.107 7.3 3.4 8.97
5/31/2022 1:30:00 PM 22.77 72.986 0.107 7.29 2.81 8.86
5/31/2022 1:45:00 PM 22.98 73.364 0.107 7.28 3.22 8.84
5/31/2022 2:00:00 PM 23.28 73.904 0.106 7.28 2.94 8.86
5/31/2022 2:15:00 PM 23.57 74.426 0.106 7.29 2.84 8.88
5/31/2022 2:30:00 PM 23.71 74.67799 0.106 7.33 3.16 8.82
5/31/2022 2:45:00 PM 23.77 74.786 0.106 7.32 2.88 8.76
5/31/2022 3:00:00 PM 23.93 75.074 0.106 7.33 2.95 8.75
5/31/2022 3:15:00 PM 23.99 75.182 0.106 7.34 2.83 8.73
5/31/2022 3:30:00 PM 24.01 75.218 0.106 7.33 2.95 8.68
5/31/2022 3:45:00 PM 24.12 75.416 0.106 7.32 3.06 8.67
5/31/2022 4:00:00 PM 24.23 75.614 0.106 7.33 2.83 8.66
5/31/2022 4:15:00 PM 24.32 75.776 0.106 7.33 3.13 8.62
5/31/2022 4:30:00 PM 24.32 75.776 0.106 7.33 3.26 8.58
5/31/2022 4:45:00 PM 24.38 75.884 0.106 7.3 3.2 8.54
5/31/2022 5:00:00 PM 24.42 75.956 0.106 7.31 3.36 8.5
5/31/2022 5:15:00 PM 24.47 76.046 0.106 7.3 3.07 8.46
5/31/2022 5:30:00 PM 24.48 76.064 0.106 7.29 3.78 8.4
5/31/2022 5:45:00 PM 24.48 76.064 0.106 7.27 3.23 8.35
5/31/2022 6:00:00 PM 24.49 76.082 0.106 7.26 3.25 8.29
5/31/2022 6:15:00 PM 24.48 76.064 0.106 7.19 3.12 8.22
5/31/2022 6:30:00 PM 24.46 76.028 0.106 7.22 3.33 8.17
5/31/2022 6:45:00 PM 24.43 75.974 0.106 7.2 3.38 8.11
5/31/2022 7:00:00 PM 24.4 75.92 0.106 7.19 2.92 8.05
5/31/2022 7:15:00 PM 24.39 75.902 0.106 7.17 3.35 8
5/31/2022 7:30:00 PM 24.36 75.848 0.106 7.15 3.3 7.93
5/31/2022 7:45:00 PM 24.33 75.794 0.106 7.08 3.12 7.9
5/31/2022 8:00:00 PM 24.28 75.704 0.106 7.12 3.21 7.85
5/31/2022 8:15:00 PM 24.22 75.596 0.106 7.11 3.18 7.81
5/31/2022 8:30:00 PM 24.15 75.47 0.106 7.09 3.22 7.77
5/31/2022 8:45:00 PM 24.06 75.308 0.106 7.07 3.92 7.73
5/31/2022 9:00:00 PM 23.98 75.164 0.106 7.06 3.54 7.71
5/31/2022 9:15:00 PM 23.88 74.984 0.106 7.05 3.47 7.7
5/31/2022 9:30:00 PM 23.79 74.82201 0.106 7.04 3.42 7.68
5/31/2022 9:45:00 PM 23.7 74.66 0.106 7.03 3.59 7.68
5/31/2022 10:00:00 PM 23.6 74.48 0.106 7.02 3.98 7.67
5/31/2022 10:15:00 PM 23.5 74.3 0.107 7.01 3.22 7.69
5/31/2022 10:30:00 PM 23.41 74.138 0.107 7 4.95 7.65
5/31/2022 10:45:00 PM 23.31 73.958 0.107 6.93 3.61 7.65
5/31/2022 11:00:00 PM 23.21 73.778 0.107 6.98 3.5 7.68
5/31/2022 11:15:00 PM 23.11 73.598 0.107 6.99 3.3 7.7
5/31/2022 11:30:00 PM 23.03 73.454 0.107 6.98 3.24 7.71
5/31/2022 11:45:00 PM 22.95 73.31 0.107 6.98 3.52 7.72
6/1/2022 12:00:00 AM 22.85 73.13 0.107 6.98 3.85 7.74
6/1/2022 12:15:00 AM 22.77 72.986 0.107 6.98 3.85 7.75
6/1/2022 12:30:00 AM 22.69 72.842 0.107 6.98 3.37 7.76
6/1/2022 12:45:00 AM 22.6 72.68 0.107 6.98 3.64 7.79
6/1/2022 1:00:00 AM 22.51 72.518 0.107 6.97 3.85 7.78
6/1/2022 1:15:00 AM 22.42 72.356 0.107 6.97 3.74 7.83
6/1/2022 1:30:00 AM 22.36 72.248 0.108 6.97 3.24 7.82
6/1/2022 1:45:00 AM 22.27 72.086 0.108 6.97 3.46 7.85
6/1/2022 2:00:00 AM 22.19 71.942 0.108 6.96 3.43 7.86
6/1/2022 2:15:00 AM 22.11 71.798 0.108 6.97 3.93 7.88
6/1/2022 2:30:00 AM 22.03 71.654 0.108 6.96 4.15 7.9
6/1/2022 2:45:00 AM 21.95 71.51 0.108 6.95 3.44 7.92
6/1/2022 3:00:00 AM 21.87 71.366 0.108 6.96 3.99 7.94
6/1/2022 3:15:00 AM 21.8 71.24 0.108 6.95 4.05 7.96
6/1/2022 3:30:00 AM 21.73 71.114 0.108 6.94 3.55 7.95
6/1/2022 3:45:00 AM 21.65 70.97 0.108 6.94 3.5 7.98
6/1/2022 4:00:00 AM 21.59 70.862 0.108 6.94 3.49 7.97
6/1/2022 4:15:00 AM 21.52 70.736 0.108 6.93 3.9 8
6/1/2022 4:30:00 AM 21.45 70.61 0.108 6.92 4.06 8
6/1/2022 4:45:00 AM 21.39 70.502 0.108 6.92 4.1 8.02
6/1/2022 5:00:00 AM 21.32 70.376 0.108 6.92 4.05 8.05
6/1/2022 5:15:00 AM 21.26 70.268 0.109 6.92 4.19 8.06
6/1/2022 5:30:00 AM 21.2 70.16 0.109 6.91 3.49 8.05
6/1/2022 5:45:00 AM 21.13 70.034 0.109 6.91 3.99 8.09
6/1/2022 6:00:00 AM 21.08 69.944 0.109 6.9 4.33 8.1
6/1/2022 6:15:00 AM 21.02 69.836 0.109 6.9 3.93 8.11
6/1/2022 6:30:00 AM 20.96 69.728 0.109 6.9 3.93 8.14
6/1/2022 6:45:00 AM 20.92 69.656 0.109 6.91 3.99 8.18
6/1/2022 7:00:00 AM 20.87 69.566 0.109 6.88 4.01 8.22
6/1/2022 7:15:00 AM 20.84 69.512 0.109 6.92 3.58 8.26
6/1/2022 7:30:00 AM 20.82 69.476 0.109 6.92 3.72 8.28
6/1/2022 7:45:00 AM 20.81 69.458 0.109 6.93 3.9 8.35
6/1/2022 8:00:00 AM 20.81 69.458 0.109 6.94 3.73 8.39
6/1/2022 8:15:00 AM 20.8 69.44 0.109 6.95 3.78 8.42
6/1/2022 8:30:00 AM 20.81 69.458 0.109 6.93 3.72 8.47
6/1/2022 8:45:00 AM 20.84 69.512 0.109 6.98 3.72 8.5
6/1/2022 9:00:00 AM 20.87 69.566 0.109 6.99 3.42 8.53
6/1/2022 9:15:00 AM 20.92 69.656 0.109 7.01 3.48 8.59
6/1/2022 9:30:00 AM 20.98 69.764 0.109 7.02 3.46 8.62
6/1/2022 9:45:00 AM 21.07 69.926 0.109 7.04 3.48 8.68
6/1/2022 10:00:00 AM 21.17 70.106 0.109 7.07 3.31 8.73
6/1/2022 10:15:00 AM 21.29 70.32201 0.109 7.1 3.34 8.79
6/1/2022 10:30:00 AM 21.43 70.574 0.109 7.12 3.37 8.81
6/1/2022 10:45:00 AM 21.57 70.826 0.109 7.14 3.52 8.87
6/1/2022 11:00:00 AM 21.7 71.06 0.109 7.18 3.28 8.88
6/1/2022 11:15:00 AM 21.82 71.276 0.109 7.19 3.45 8.93
6/1/2022 11:30:00 AM 21.94 71.492 0.109 7.21 3.12 8.93
6/1/2022 11:45:00 AM 22.05 71.69 0.109 7.23 3.51 8.9
6/1/2022 12:00:00 PM 22.28 72.104 0.109 7.24 3.3 8.93
6/1/2022 12:15:00 PM 22.45 72.41 0.109 7.26 2.93 8.91
6/1/2022 12:30:00 PM 22.63 72.734 0.108 7.27 3.04 8.9
6/1/2022 12:45:00 PM 22.83 73.094 0.108 7.29 3.27 8.9
6/1/2022 1:00:00 PM 23.08 73.544 0.108 7.31 3.13 8.9
6/1/2022 1:15:00 PM 23.29 73.922 0.108 7.32 3.36 8.87
6/1/2022 1:30:00 PM 23.42 74.156 0.108 7.32 3.25 8.81
6/1/2022 1:45:00 PM 23.65 74.57 0.108 7.34 3.51 8.82
6/1/2022 2:00:00 PM 23.93 75.074 0.108 7.36 2.92 8.81
6/1/2022 2:15:00 PM 24.14 75.452 0.108 7.37 3.06 8.81
6/1/2022 2:30:00 PM 24.31 75.758 0.108 7.37 3.08 8.75
6/1/2022 2:45:00 PM 24.49 76.082 0.108 7.38 3.36 8.74
6/1/2022 3:00:00 PM 24.64 76.352 0.108 7.38 3.21 8.71
6/1/2022 3:15:00 PM 24.76 76.568 0.108 7.35 3.51 8.66
6/1/2022 3:30:00 PM 24.87 76.766 0.108 7.37 3.29 8.62
6/1/2022 3:45:00 PM 25 77 0.108 7.39 3.29 8.59
6/1/2022 4:00:00 PM 25.11 77.198 0.108 7.38 2.97 8.54
6/1/2022 4:15:00 PM 25.17 77.306 0.108 7.38 3.21 8.51
6/1/2022 4:30:00 PM 25.2 77.36 0.108 7.37 3.22 8.46
6/1/2022 4:45:00 PM 25.24 77.432 0.107 7.35 3.51 8.42
6/1/2022 5:00:00 PM 25.23 77.414 0.107 7.34 3.41 8.35
6/1/2022 5:15:00 PM 25.25 77.45 0.107 7.32 3.28 8.31
6/1/2022 5:30:00 PM 25.25 77.45 0.107 7.3 3.29 8.24
6/1/2022 5:45:00 PM 25.22 77.396 0.107 7.28 3.38 8.14
6/1/2022 6:00:00 PM 25.21 77.378 0.108 7.26 3.34 8.08
6/1/2022 6:15:00 PM 25.19 77.342 0.107 7.24 3.48 8.03
6/1/2022 6:30:00 PM 25.16 77.288 0.108 7.22 3.28 7.93
6/1/2022 6:45:00 PM 25.13 77.234 0.108 7.19 3.58 7.84
6/1/2022 7:00:00 PM 25.07 77.126 0.107 7.17 3.44 7.78
6/1/2022 7:15:00 PM 25.01 77.018 0.107 7.15 3.29 7.73
6/1/2022 7:30:00 PM 24.95 76.91 0.107 7.13 3.5 7.66
6/1/2022 7:45:00 PM 24.88 76.784 0.107 7.11 4.26 7.61
6/1/2022 8:00:00 PM 24.8 76.64 0.107 7.02 4.94 7.56
6/1/2022 8:15:00 PM 24.71 76.478 0.107 7.08 3.81 7.54
6/1/2022 8:30:00 PM 24.61 76.298 0.107 7.06 4.13 7.51
6/1/2022 8:45:00 PM 24.52 76.136 0.107 7.06 3.99 7.48
6/1/2022 9:00:00 PM 24.43 75.974 0.107 7.04 3.78 7.45
6/1/2022 9:15:00 PM 24.32 75.776 0.107 7.03 3.92 7.45
6/1/2022 9:30:00 PM 24.22 75.596 0.107 7.02 3.87 7.45
6/1/2022 9:45:00 PM 24.14 75.452 0.107 7.02 3.63 7.44
6/1/2022 10:00:00 PM 24.04 75.272 0.107 7.01 4.11 7.46
6/1/2022 10:15:00 PM 23.96 75.128 0.108 7 3.95 7.43
6/1/2022 10:30:00 PM 23.86 74.948 0.107 7 3.79 7.42
6/1/2022 10:45:00 PM 23.75 74.75 0.107 6.99 4.65 7.49
6/1/2022 11:00:00 PM 23.66 74.588 0.107 6.99 4.21 7.47
6/1/2022 11:15:00 PM 23.57 74.426 0.107 6.98 4.95 7.49
6/1/2022 11:30:00 PM 23.49 74.282 0.107 6.98 4.28 7.48
6/1/2022 11:45:00 PM 23.42 74.156 0.107 6.98 4.06 7.51
6/2/2022 12:00:00 AM 23.36 74.048 0.108 6.97 4.25 7.51
6/2/2022 12:15:00 AM 23.28 73.904 0.108 6.99 4.73 7.52
6/2/2022 12:30:00 AM 23.21 73.778 0.108 6.98 4.95 7.54
6/2/2022 12:45:00 AM 23.13 73.634 0.108 6.99 4.14 7.58
6/2/2022 1:00:00 AM 23.05 73.49 0.108 6.98 4.34 7.6
6/2/2022 1:15:00 AM 22.97 73.346 0.108 6.98 4.66 7.61
6/2/2022 1:30:00 AM 22.9 73.22 0.109 6.99 5.15 7.62
6/2/2022 1:45:00 AM 22.83 73.094 0.109 6.99 5.27 7.62
6/2/2022 2:00:00 AM 22.75 72.95 0.109 6.98 5.8 7.62
6/2/2022 2:15:00 AM 22.68 72.824 0.109 6.98 5.84 7.65
6/2/2022 2:30:00 AM 22.62 72.716 0.109 6.98 6.77 7.65
6/2/2022 2:45:00 AM 22.54 72.57201 0.109 6.99 7.31 7.7
6/2/2022 3:00:00 AM 22.47 72.446 0.11 6.98 5.99 7.69
6/2/2022 3:15:00 AM 22.4 72.32 0.11 6.98 5.99 7.71
6/2/2022 3:30:00 AM 22.34 72.212 0.11 6.97 5.84 7.73
6/2/2022 3:45:00 AM 22.27 72.086 0.11 6.94 5.68 7.72
6/2/2022 4:00:00 AM 22.21 71.978 0.11 6.92 6.16 7.75
6/2/2022 4:15:00 AM 22.15 71.87 0.109 6.97 5.6 7.77
6/2/2022 4:30:00 AM 22.08 71.744 0.109 6.97 5.84 7.82
6/2/2022 4:45:00 AM 22.02 71.636 0.109 6.97 5.86 7.85
6/2/2022 5:00:00 AM 21.97 71.546 0.109 6.97 5.08 7.88
6/2/2022 5:15:00 AM 21.91 71.438 0.109 6.96 4.82 7.9
6/2/2022 5:30:00 AM 21.85 71.33 0.109 6.96 7.08 7.94
6/2/2022 5:45:00 AM 21.81 71.258 0.108 6.96 5.88 7.95
6/2/2022 6:00:00 AM 21.75 71.15 0.109 6.95 5.65 7.97
6/2/2022 6:15:00 AM 21.71 71.078 0.108 6.95 5.51 7.95
6/2/2022 6:30:00 AM 21.67 71.006 0.109 6.95 6.05 7.98
6/2/2022 6:45:00 AM 21.64 70.952 0.109 6.96 5.31 8.01
6/2/2022 7:00:00 AM 21.61 70.898 0.109 6.96 5.46 8.03
6/2/2022 7:15:00 AM 21.58 70.844 0.109 6.94 6.1 8.04
6/2/2022 7:30:00 AM 21.57 70.826 0.109 6.98 6.1 8.1
6/2/2022 7:45:00 AM 21.56 70.808 0.11 6.99 5.8 8.16
6/2/2022 8:00:00 AM 21.54 70.772 0.109 7 5.68 8.18
6/2/2022 8:15:00 AM 21.53 70.754 0.109 7.01 5.59 8.22
6/2/2022 8:30:00 AM 21.52 70.736 0.109 7.01 5.48 8.23
6/2/2022 8:45:00 AM 21.52 70.736 0.109 7.01 5.33 8.27
6/2/2022 9:00:00 AM 21.51 70.718 0.109 7.04 5.41 8.31
6/2/2022 9:15:00 AM 21.5 70.7 0.109 7.04 4.78 8.31
6/2/2022 9:30:00 AM 21.5 70.7 0.109 7.05 4.54 8.33
6/2/2022 9:45:00 AM 21.49 70.682 0.109 7.06 4.81 8.33
6/2/2022 10:00:00 AM 21.49 70.682 0.109 7.05 4.86 8.33
6/2/2022 10:15:00 AM 21.49 70.682 0.109 7.06 4.95 8.36
6/2/2022 10:30:00 AM 21.51 70.718 0.109 7.07 4.59 8.36
6/2/2022 10:45:00 AM 21.53 70.754 0.109 7.08 5.01 8.42
6/2/2022 11:00:00 AM 21.55 70.79 0.108 7.1 4.69 8.45
6/2/2022 11:15:00 AM 21.56 70.808 0.108 7.1 4.68 8.47
6/2/2022 11:30:00 AM 21.57 70.826 0.108 7.05 4.77 8.43
6/2/2022 11:45:00 AM 21.59 70.862 0.108 7.12 4.18 8.48
6/2/2022 12:00:00 PM 21.61 70.898 0.108 7.11 4.94 8.51
6/2/2022 12:15:00 PM 21.67 71.006 0.108 7.14 4.66 8.56
6/2/2022 12:30:00 PM 21.69 71.042 0.108 7.15 4.77 8.61
6/2/2022 12:45:00 PM 21.72 71.096 0.108 7.16 3.95 8.61
6/2/2022 1:00:00 PM 21.76 71.168 0.108 7.17 4.35 8.65
6/2/2022 1:15:00 PM 21.8 71.24 0.108 7.18 4.28 8.65
6/2/2022 1:30:00 PM 21.85 71.33 0.108 7.19 4.05 8.7
6/2/2022 1:45:00 PM 21.9 71.42 0.108 7.2 4.15 8.7
6/2/2022 2:00:00 PM 21.98 71.564 0.108 7.21 4.36 8.71
6/2/2022 2:15:00 PM 22.07 71.726 0.108 7.23 4.49 8.75
6/2/2022 2:30:00 PM 22.12 71.816 0.108 7.24 4.26 8.74
6/2/2022 2:45:00 PM 22.14 71.852 0.108 7.24 4.08 8.73
6/2/2022 3:00:00 PM 22.23 72.014 0.108 7.25 4.62 8.75
6/2/2022 3:15:00 PM 22.32 72.176 0.108 7.26 4.13 8.77
6/2/2022 3:30:00 PM 22.37 72.266 0.108 7.27 4.12 8.75
6/2/2022 3:45:00 PM 22.39 72.302 0.108 7.26 4.14 8.66
6/2/2022 4:00:00 PM 22.39 72.302 0.108 7.24 4.32 8.58
6/2/2022 4:15:00 PM 22.41 72.338 0.109 7.22 4.11 8.52
6/2/2022 4:30:00 PM 22.5 72.5 0.109 7.23 4.6 8.54
6/2/2022 4:45:00 PM 22.58 72.644 0.109 7.25 4.54 8.58
6/2/2022 5:00:00 PM 22.61 72.698 0.109 7.24 4.8 8.53
6/2/2022 5:15:00 PM 22.63 72.734 0.109 7.24 4.3 8.49
6/2/2022 5:30:00 PM 22.65 72.77 0.109 7.24 4.2 8.46
6/2/2022 5:45:00 PM 22.66 72.788 0.109 7.23 4.16 8.44
6/2/2022 6:00:00 PM 22.65 72.77 0.109 7.22 4.51 8.42
6/2/2022 6:15:00 PM 22.63 72.734 0.109 7.22 4.05 8.38
6/2/2022 6:30:00 PM 22.61 72.698 0.109 7.2 4.52 8.31
6/2/2022 6:45:00 PM 22.6 72.68 0.109 7.18 4.46 8.29
6/2/2022 7:00:00 PM 22.58 72.644 0.109 7.18 4.61 8.26
6/2/2022 7:15:00 PM 22.55 72.59 0.109 7.16 4.15 8.2
6/2/2022 7:30:00 PM 22.53 72.554 0.109 7.14 4.32 8.17
6/2/2022 7:45:00 PM 22.51 72.518 0.109 7.14 4.53 8.14
6/2/2022 8:00:00 PM 22.5 72.5 0.109 7.12 4.15 8.09
6/2/2022 8:15:00 PM 22.47 72.446 0.109 7.11 4.63 8.04
6/2/2022 8:30:00 PM 22.43 72.374 0.109 7.1 4.77 8.01
6/2/2022 8:45:00 PM 22.38 72.284 0.109 7.09 4.43 8
6/2/2022 9:00:00 PM 22.33 72.194 0.109 7.08 4.81 7.96
6/2/2022 9:15:00 PM 22.27 72.086 0.109 7.07 4.46 7.94
6/2/2022 9:30:00 PM 22.22 71.996 0.109 7.07 4.83 7.94
6/2/2022 9:45:00 PM 22.17 71.906 0.109 7.06 5.28 7.93
6/2/2022 10:00:00 PM 22.13 71.834 0.109 7.06 4.74 7.91
6/2/2022 10:15:00 PM 22.07 71.726 0.109 7.05 5.11 7.92
6/2/2022 10:30:00 PM 22.02 71.636 0.109 7.04 4.79 7.91
6/2/2022 10:45:00 PM 21.97 71.546 0.109 7.04 4.79 7.92
6/2/2022 11:00:00 PM 21.91 71.438 0.109 7.05 4.77 7.94
6/2/2022 11:15:00 PM 21.86 71.348 0.109 7.04 4.89 7.92
6/2/2022 11:30:00 PM 21.8 71.24 0.11 7.04 4.61 7.95
6/2/2022 11:45:00 PM 21.74 71.132 0.11 7.04 4.63 7.96
6/3/2022 12:00:00 AM 21.69 71.042 0.11 7.03 4.74 7.94
6/3/2022 12:15:00 AM 21.62 70.916 0.11 7.03 4.84 7.98
6/3/2022 12:30:00 AM 21.57 70.826 0.11 7.02 4.81 7.98
6/3/2022 12:45:00 AM 21.51 70.718 0.11 7.02 5.92 7.99
6/3/2022 1:00:00 AM 21.46 70.628 0.11 7.02 5.42 7.98
6/3/2022 1:15:00 AM 21.4 70.52 0.11 7.01 4.85 8
6/3/2022 1:30:00 AM 21.34 70.412 0.11 7.01 5.14 8.03
6/3/2022 1:45:00 AM 20.96 69.728 0.111 7.01 4.98 8.14
6/3/2022 2:00:00 AM 20.85 69.53 0.111 7 4.06 8.18
6/3/2022 2:15:00 AM 20.93 69.674 0.11 7 4.81 8.14
6/3/2022 2:30:00 AM 20.92 69.656 0.11 7 4.27 8.13
6/3/2022 2:45:00 AM 20.88 69.584 0.11 6.99 5.15 8.13
6/3/2022 3:00:00 AM 20.85 69.53 0.11 6.99 4.78 8.14
6/3/2022 3:15:00 AM 20.82 69.476 0.11 6.97 4.49 8.12
6/3/2022 3:30:00 AM 20.76 69.368 0.11 6.99 5 8.09
6/3/2022 3:45:00 AM 20.72 69.296 0.111 6.99 4.98 8.18
6/3/2022 4:00:00 AM 20.68 69.224 0.111 6.98 4.28 8.17
6/3/2022 4:15:00 AM 20.62 69.116 0.111 6.98 4.8 8.2
6/3/2022 4:30:00 AM 20.57 69.026 0.111 6.99 4.71 8.21
6/3/2022 4:45:00 AM 20.51 68.918 0.111 6.98 4.69 8.2
6/3/2022 5:00:00 AM 20.43 68.774 0.111 6.98 5.44 8.22
6/3/2022 5:15:00 AM 20.36 68.648 0.111 6.97 4.84 8.23
6/3/2022 5:30:00 AM 20.28 68.504 0.111 6.96 4.78 8.23
6/3/2022 5:45:00 AM 20.2 68.36 0.111 6.97 5.18 8.26
6/3/2022 6:00:00 AM 20.12 68.216 0.111 6.96 5.11 8.3
6/3/2022 6:15:00 AM 20.05 68.09 0.111 6.95 4.46 8.31
6/3/2022 6:30:00 AM 19.97 67.946 0.111 6.96 4.38 8.35
6/3/2022 6:45:00 AM 19.9 67.82 0.111 6.96 4.39 8.37
6/3/2022 7:00:00 AM 19.83 67.694 0.111 6.94 4.66 8.39
6/3/2022 7:15:00 AM 19.79 67.622 0.111 6.97 4.42 8.42
6/3/2022 7:30:00 AM 19.73 67.514 0.111 6.99 4.14 8.47
6/3/2022 7:45:00 AM 19.68 67.424 0.111 6.99 4.09 8.51
6/3/2022 8:00:00 AM 19.63 67.334 0.111 7.01 4.1 8.56
6/3/2022 8:15:00 AM 19.59 67.262 0.111 7.02 4.14 8.62
6/3/2022 8:30:00 AM 19.57 67.226 0.111 7.03 4.46 8.64
6/3/2022 8:45:00 AM 19.56 67.208 0.111 7.04 4.3 8.68
6/3/2022 9:00:00 AM 19.56 67.208 0.11 7.06 4.35 8.75
6/3/2022 9:15:00 AM 19.56 67.208 0.11 7.07 4.67 8.78
6/3/2022 9:30:00 AM 19.59 67.262 0.11 7.08 4.2 8.82
6/3/2022 9:45:00 AM 19.63 67.334 0.11 7.1 4.23 8.85
6/3/2022 10:00:00 AM 19.68 67.424 0.11 7.12 4.27 8.9
6/3/2022 10:15:00 AM 19.76 67.568 0.11 7.13 3.78 8.92
6/3/2022 10:30:00 AM 19.85 67.73 0.11 7.12 4.2 8.97
6/3/2022 10:45:00 AM 19.96 67.92799 0.11 7.17 4.02 9.02
6/3/2022 11:00:00 AM 20.06 68.108 0.11 7.18 3.56 9.03
6/3/2022 11:15:00 AM 20.19 68.342 0.11 7.2 3.82 9.04
6/3/2022 11:30:00 AM 20.35 68.63 0.11 7.22 4 9.07
6/3/2022 11:45:00 AM 20.51 68.918 0.11 7.23 3.7 9.07
6/3/2022 12:00:00 PM 20.7 69.26 0.11 7.25 3.83 9.08
6/3/2022 12:15:00 PM 20.9 69.62 0.11 7.27 3.55 9.07
6/3/2022 12:30:00 PM 21.1 69.98 0.11 7.28 4.03 9.07
6/3/2022 12:45:00 PM 21.3 70.34 0.11 7.29 3.49 9.06
6/3/2022 1:00:00 PM 21.46 70.628 0.11 7.3 3.62 8.98
6/3/2022 1:15:00 PM 21.65 70.97 0.11 7.3 3.46 8.95
6/3/2022 1:30:00 PM 21.85 71.33 0.11 7.29 3.51 8.96
6/3/2022 1:45:00 PM 22.12 71.816 0.11 7.32 3.64 8.92
6/3/2022 2:00:00 PM 22.37 72.266 0.11 7.33 3.69 8.91
6/3/2022 2:15:00 PM 22.49 72.482 0.11 7.34 3.95 8.85
6/3/2022 2:30:00 PM 22.71 72.878 0.11 7.35 3.59 8.82
6/3/2022 2:45:00 PM 22.88 73.184 0.11 7.35 3.48 8.78
6/3/2022 3:00:00 PM 23.07 73.526 0.11 7.36 3.71 8.75
6/3/2022 3:15:00 PM 23.21 73.778 0.11 7.35 3.61 8.65
6/3/2022 3:30:00 PM 23.27 73.886 0.11 7.35 3.51 8.65
6/3/2022 3:45:00 PM 23.44 74.192 0.11 7.35 3.77 8.62
6/3/2022 4:00:00 PM 23.45 74.21 0.11 7.34 3.78 8.59
6/3/2022 4:15:00 PM 23.52 74.336 0.11 7.34 3.92 8.6
6/3/2022 4:30:00 PM 23.58 74.444 0.11 7.29 4.02 8.6
6/3/2022 4:45:00 PM 23.6 74.48 0.11 7.34 3.61 8.53
6/3/2022 5:00:00 PM 23.6 74.48 0.11 7.32 3.7 8.49
6/3/2022 5:15:00 PM 23.54 74.372 0.11 7.31 3.77 8.37
6/3/2022 5:30:00 PM 23.53 74.354 0.11 7.29 3.91 8.41
6/3/2022 5:45:00 PM 23.5 74.3 0.11 7.28 3.48 8.38
6/3/2022 6:00:00 PM 23.46 74.228 0.11 7.27 3.72 8.37
6/3/2022 6:15:00 PM 23.38 74.084 0.11 7.26 3.72 8.3
6/3/2022 6:30:00 PM 23.31 73.958 0.11 7.24 3.63 8.25
6/3/2022 6:45:00 PM 23.25 73.85 0.11 7.22 3.94 8.19
6/3/2022 7:00:00 PM 23.19 73.742 0.109 7.21 3.59 8.17
6/3/2022 7:15:00 PM 23.13 73.634 0.109 7.19 3.91 8.12
6/3/2022 7:30:00 PM 23.05 73.49 0.109 7.18 4.01 8.08
6/3/2022 7:45:00 PM 22.98 73.364 0.109 7.17 3.66 8.07
6/3/2022 8:00:00 PM 22.91 73.238 0.109 7.15 3.66 8
6/3/2022 8:15:00 PM 22.83 73.094 0.109 7.14 3.74 8.01
6/3/2022 8:30:00 PM 22.72 72.896 0.109 7.13 3.95 7.98
6/3/2022 8:45:00 PM 22.61 72.698 0.109 7.11 3.94 7.94
6/3/2022 9:00:00 PM 22.51 72.518 0.109 7.11 4.34 7.95
6/3/2022 9:15:00 PM 22.39 72.302 0.109 7.09 4.79 7.94
6/3/2022 9:30:00 PM 22.27 72.086 0.109 7.08 4.18 7.94
6/3/2022 9:45:00 PM 22.14 71.852 0.109 7.07 4.62 7.92
6/3/2022 10:00:00 PM 22 71.6 0.109 7.07 4.56 7.93
6/3/2022 10:15:00 PM 21.86 71.348 0.109 7.06 4.57 7.95
6/3/2022 10:30:00 PM 21.72 71.096 0.109 7.06 4.2 7.95
6/3/2022 10:45:00 PM 21.58 70.844 0.109 7.05 4.43 7.99
6/3/2022 11:00:00 PM 21.44 70.592 0.109 7.05 4.24 8.01
6/3/2022 11:15:00 PM 21.31 70.358 0.109 7.04 4.22 8.01
6/3/2022 11:30:00 PM 21.17 70.106 0.109 7.04 4.33 8.06
6/3/2022 11:45:00 PM 21.04 69.872 0.109 7.03 4.18 8.07
6/4/2022 12:00:00 AM 20.91 69.638 0.109 7.02 4.76 8.09
6/4/2022 12:15:00 AM 20.79 69.422 0.109 7.01 4.18 8.09
6/4/2022 12:30:00 AM 20.65 69.17 0.109 7 4.8 8.13
6/4/2022 12:45:00 AM 20.54 68.972 0.109 6.97 4.47 8.16
6/4/2022 1:00:00 AM 20.43 68.774 0.109 6.98 4.35 8.16
6/4/2022 1:15:00 AM 20.32 68.576 0.109 6.96 4.38 8.2
6/4/2022 1:30:00 AM 20.21 68.378 0.109 6.96 4.65 8.22
6/4/2022 1:45:00 AM 20.11 68.198 0.109 6.92 4.12 8.22
6/4/2022 2:00:00 AM 20.02 68.036 0.109 6.92 4.41 8.28
6/4/2022 2:15:00 AM 19.91 67.838 0.109 6.92 4.09 8.31
6/4/2022 2:30:00 AM 19.81 67.658 0.109 6.91 4.26 8.32
6/4/2022 2:45:00 AM 19.71 67.478 0.109 6.9 4.48 8.35
6/4/2022 3:00:00 AM 19.61 67.298 0.109 6.81 4.6 8.36
6/4/2022 3:15:00 AM 19.5 67.1 0.109 6.89 4.4 8.4
6/4/2022 3:30:00 AM 19.4 66.92 0.11 6.88 4.43 8.42
6/4/2022 3:45:00 AM 19.31 66.758 0.109 6.88 4.24 8.45
6/4/2022 4:00:00 AM 19.22 66.596 0.109 6.88 4.72 8.47
6/4/2022 4:15:00 AM 19.12 66.416 0.109 6.88 4.22 8.48
6/4/2022 4:30:00 AM 19.03 66.254 0.11 6.88 4.19 8.51
6/4/2022 4:45:00 AM 18.93 66.074 0.11 6.88 4.57 8.54
6/4/2022 5:00:00 AM 18.84 65.912 0.11 6.88 3.98 8.54
6/4/2022 5:15:00 AM 18.76 65.768 0.11 6.88 4.58 8.56
6/4/2022 5:30:00 AM 18.7 65.66 0.11 6.88 4.44 8.58
6/4/2022 5:45:00 AM 18.63 65.534 0.109 6.89 4.1 8.61
6/4/2022 6:00:00 AM 18.57 65.426 0.109 6.89 4.2 8.6
6/4/2022 6:15:00 AM 18.5 65.3 0.11 6.9 4.01 8.66
6/4/2022 6:30:00 AM 18.44 65.192 0.11 6.9 4.15 8.69
6/4/2022 6:45:00 AM 18.38 65.084 0.11 6.92 3.99 8.74
6/4/2022 7:00:00 AM 18.34 65.012 0.11 6.86 4.34 8.78
6/4/2022 7:15:00 AM 18.3 64.94 0.109 6.94 4.32 8.83
6/4/2022 7:30:00 AM 18.25 64.85 0.109 6.94 3.94 8.87
6/4/2022 7:45:00 AM 18.22 64.796 0.109 6.97 3.97 8.93
6/4/2022 8:00:00 AM 18.19 64.742 0.109 6.99 4.21 8.99
6/4/2022 8:15:00 AM 18.17 64.706 0.109 7 4.01 9.02
6/4/2022 8:30:00 AM 18.2 64.76 0.109 7.02 3.73 9.06
6/4/2022 8:45:00 AM 18.21 64.778 0.109 7.03 3.94 9.09
6/4/2022 9:00:00 AM 18.22 64.796 0.109 7.05 3.96 9.11
6/4/2022 9:15:00 AM 18.25 64.85 0.109 7.07 4.18 9.15
6/4/2022 9:30:00 AM 18.29 64.922 0.109 7.09 3.7 9.19
6/4/2022 9:45:00 AM 18.34 65.012 0.109 7.11 3.54 9.2
6/4/2022 10:00:00 AM 18.42 65.156 0.109 7.13 3.84 9.26
6/4/2022 10:15:00 AM 18.53 65.354 0.109 7.15 3.55 9.29
6/4/2022 10:30:00 AM 18.65 65.57 0.109 7.17 3.9 9.27
6/4/2022 10:45:00 AM 18.78 65.804 0.109 7.19 3.53 9.32
6/4/2022 11:00:00 AM 18.9 66.02 0.109 7.21 3.47 9.34
6/4/2022 11:15:00 AM 19.06 66.308 0.109 7.23 3.4 9.35
6/4/2022 11:30:00 AM 19.23 66.614 0.109 7.25 3.6 9.38
6/4/2022 11:45:00 AM 19.41 66.938 0.109 7.26 3.48 9.39
6/4/2022 12:00:00 PM 19.59 67.262 0.109 7.26 3.58 9.38
6/4/2022 12:15:00 PM 19.8 67.64 0.109 7.29 3.27 9.36
6/4/2022 12:30:00 PM 20.01 68.018 0.109 7.31 3.35 9.37
6/4/2022 12:45:00 PM 20.24 68.432 0.109 7.32 3.28 9.31
6/4/2022 1:00:00 PM 20.47 68.846 0.109 7.32 3.65 9.32
6/4/2022 1:15:00 PM 20.71 69.278 0.109 7.34 3.36 9.24
6/4/2022 1:30:00 PM 20.95 69.71 0.109 7.34 3.26 9.24
6/4/2022 1:45:00 PM 21.19 70.142 0.109 7.35 3.49 9.22
6/4/2022 2:00:00 PM 21.43 70.574 0.109 7.36 3.44 9.13
6/4/2022 2:15:00 PM 21.66 70.988 0.11 7.36 3.28 9.14
6/4/2022 2:30:00 PM 21.9 71.42 0.11 7.37 3.39 9.07
6/4/2022 2:45:00 PM 22.13 71.834 0.11 7.37 3.34 9.02
6/4/2022 3:00:00 PM 22.35 72.23 0.11 7.37 3.36 8.93
6/4/2022 3:15:00 PM 22.52 72.536 0.11 7.37 3.6 8.89
6/4/2022 3:30:00 PM 22.68 72.824 0.11 7.36 3.46 8.87
6/4/2022 3:45:00 PM 22.8 73.04 0.11 7.36 3.96 8.83
6/4/2022 4:00:00 PM 22.9 73.22 0.11 7.35 3.63 8.78
6/4/2022 4:15:00 PM 22.99 73.382 0.11 7.35 3.53 8.69
6/4/2022 4:30:00 PM 23.02 73.436 0.11 7.34 3.62 8.68
6/4/2022 4:45:00 PM 23.04 73.472 0.11 7.33 3.42 8.61
6/4/2022 5:00:00 PM 23.04 73.472 0.11 7.32 3.75 8.59
6/4/2022 5:15:00 PM 23 73.4 0.11 7.3 3.83 8.54
6/4/2022 5:30:00 PM 22.94 73.292 0.11 7.3 3.57 8.5
6/4/2022 5:45:00 PM 22.89 73.202 0.109 7.29 3.59 8.49
6/4/2022 6:00:00 PM 22.82 73.076 0.11 7.27 3.42 8.43
6/4/2022 6:15:00 PM 22.74 72.932 0.109 7.26 4.06 8.39
6/4/2022 6:30:00 PM 22.68 72.824 0.109 7.24 3.84 8.32
6/4/2022 6:45:00 PM 22.61 72.698 0.109 7.23 3.77 8.29
6/4/2022 7:00:00 PM 22.51 72.518 0.109 7.22 3.81 8.29
6/4/2022 7:15:00 PM 22.44 72.392 0.109 7.2 3.6 8.24
6/4/2022 7:30:00 PM 22.38 72.284 0.109 7.19 4.11 8.2
6/4/2022 7:45:00 PM 22.31 72.158 0.109 7.17 4.24 8.16
6/4/2022 8:00:00 PM 22.23 72.014 0.109 7.16 4.07 8.17
6/4/2022 8:15:00 PM 22.16 71.888 0.109 7.15 3.97 8.16
6/4/2022 8:30:00 PM 22.06 71.708 0.109 7.14 4.29 8.11
6/4/2022 8:45:00 PM 21.94 71.492 0.109 7.13 4.02 8.09
6/4/2022 9:00:00 PM 21.83 71.294 0.109 7.12 3.88 8.08
6/4/2022 9:15:00 PM 21.71 71.078 0.109 7.11 4.12 8.09
6/4/2022 9:30:00 PM 21.59 70.862 0.109 7.1 4.39 8.07
6/4/2022 9:45:00 PM 21.46 70.628 0.109 7.09 4.26 8.08
6/4/2022 10:00:00 PM 21.34 70.412 0.109 7.08 4.24 8.07
6/4/2022 10:15:00 PM 21.21 70.17799 0.109 7.08 4.59 8.09
6/4/2022 10:30:00 PM 21.05 69.89 0.109 7.06 4.45 8.11
6/4/2022 10:45:00 PM 20.92 69.656 0.109 6.97 4.83 8.12
6/4/2022 11:00:00 PM 20.79 69.422 0.109 7.06 4.43 8.12
6/4/2022 11:15:00 PM 20.64 69.152 0.109 7.05 4.36 8.14
6/4/2022 11:30:00 PM 20.5 68.9 0.109 7.05 4.49 8.19
6/4/2022 11:45:00 PM 20.36 68.648 0.109 7.04 4.68 8.2
6/5/2022 12:00:00 AM 20.23 68.414 0.109 7.04 4.39 8.23
6/5/2022 12:15:00 AM 20.1 68.18 0.109 7.04 4.65 8.25
6/5/2022 12:30:00 AM 19.98 67.964 0.109 7 4.44 8.29
6/5/2022 12:45:00 AM 19.86 67.748 0.109 7.02 4.43 8.32
6/5/2022 1:00:00 AM 19.74 67.532 0.109 7.01 4.52 8.32
6/5/2022 1:15:00 AM 19.61 67.298 0.109 6.99 4.52 8.34
6/5/2022 1:30:00 AM 19.5 67.1 0.109 6.98 4.74 8.38
6/5/2022 1:45:00 AM 19.38 66.884 0.109 6.98 4.36 8.4
6/5/2022 2:00:00 AM 19.27 66.686 0.109 6.96 4.47 8.42
6/5/2022 2:15:00 AM 19.16 66.488 0.109 6.95 4.63 8.45
6/5/2022 2:30:00 AM 19.07 66.326 0.109 6.95 4.27 8.47
6/5/2022 2:45:00 AM 18.98 66.164 0.109 6.94 4.24 8.5
6/5/2022 3:00:00 AM 18.88 65.984 0.109 6.93 4.35 8.51
6/5/2022 3:15:00 AM 18.78 65.804 0.109 6.92 4.57 8.53
6/5/2022 3:30:00 AM 18.68 65.624 0.109 6.92 4.71 8.58
6/5/2022 3:45:00 AM 18.57 65.426 0.109 6.91 4.17 8.6
6/5/2022 4:00:00 AM 18.47 65.246 0.109 6.91 4.07 8.62
6/5/2022 4:15:00 AM 18.36 65.048 0.109 6.9 4.16 8.65
6/5/2022 4:30:00 AM 18.25 64.85 0.109 6.89 4.51 8.67
6/5/2022 4:45:00 AM 18.14 64.652 0.109 6.89 4.23 8.71
6/5/2022 5:00:00 AM 18.05 64.49 0.109 6.88 4.32 8.71
6/5/2022 5:15:00 AM 17.95 64.31 0.109 6.89 4.3 8.73
6/5/2022 5:30:00 AM 17.85 64.13 0.109 6.89 4.18 8.77
6/5/2022 5:45:00 AM 17.75 63.95 0.109 6.88 4.28 8.77
6/5/2022 6:00:00 AM 17.65 63.77 0.109 6.89 4.56 8.84
6/5/2022 6:15:00 AM 17.57 63.626 0.109 6.89 4.26 8.89
6/5/2022 6:30:00 AM 17.5 63.5 0.109 6.9 4.2 8.89
6/5/2022 6:45:00 AM 17.43 63.374 0.109 6.91 4.05 8.96
6/5/2022 7:00:00 AM 17.37 63.266 0.109 6.92 4.05 8.97
6/5/2022 7:15:00 AM 17.31 63.158 0.109 6.93 3.95 9.05
6/5/2022 7:30:00 AM 17.25 63.05 0.109 6.94 4.13 9.1
6/5/2022 7:45:00 AM 17.21 62.978 0.109 6.94 3.87 9.16
6/5/2022 8:00:00 AM 17.17 62.906 0.109 6.97 3.91 9.23
6/5/2022 8:15:00 AM 17.12 62.816 0.109 6.98 4.1 9.26
6/5/2022 8:30:00 AM 17.15 62.87 0.109 6.98 4.9 9.33
6/5/2022 8:45:00 AM 17.16 62.888 0.109 7.01 3.81 9.35
6/5/2022 9:00:00 AM 17.16 62.888 0.109 7.03 4.5 9.44
6/5/2022 9:15:00 AM 17.13 62.834 0.109 7.05 3.72 9.49
6/5/2022 9:30:00 AM 17.2 62.96 0.109 7.07 3.83 9.54
6/5/2022 9:45:00 AM 17.21 62.978 0.109 7.1 3.75 9.57
6/5/2022 10:00:00 AM 17.23 63.014 0.109 7.12 4.96 9.62
6/5/2022 10:15:00 AM 17.34 63.212 0.108 7.16 3.64 9.66
6/5/2022 10:30:00 AM 17.45 63.41 0.109 7.11 3.99 9.71
6/5/2022 10:45:00 AM 17.44 63.392 0.108 7.2 3.67 9.72
6/5/2022 11:00:00 AM 17.53 63.554 0.108 7.22 3.56 9.77
6/5/2022 11:15:00 AM 17.63 63.734 0.108 7.25 3.68 9.8
6/5/2022 11:30:00 AM 17.76 63.968 0.108 7.28 3.49 9.84
6/5/2022 11:45:00 AM 17.87 64.166 0.108 7.3 3.56 9.83
6/5/2022 12:00:00 PM 18.07 64.526 0.108 7.31 3.56 9.84
6/5/2022 12:15:00 PM 18.22 64.796 0.108 7.32 3.5 9.86
6/5/2022 12:30:00 PM 18.35 65.03 0.108 7.35 3.52 9.86
6/5/2022 12:45:00 PM 18.49 65.282 0.108 7.37 3.66 9.83
6/5/2022 1:00:00 PM 18.61 65.498 0.108 7.39 3.5 9.84
6/5/2022 1:15:00 PM 18.75 65.75 0.108 7.39 3.68 9.82
6/5/2022 1:30:00 PM 18.97 66.146 0.108 7.4 3.54 9.79
6/5/2022 1:45:00 PM 19.23 66.614 0.108 7.41 3.47 9.76
6/5/2022 2:00:00 PM 19.41 66.938 0.108 7.42 3.56 9.75
6/5/2022 2:15:00 PM 19.54 67.172 0.108 7.42 3.36 9.69
6/5/2022 2:30:00 PM 19.78 67.604 0.108 7.43 3.55 9.67
6/5/2022 2:45:00 PM 19.93 67.874 0.108 7.37 3.7 9.62
6/5/2022 3:00:00 PM 20.11 68.198 0.108 7.45 3.49 9.57
6/5/2022 3:15:00 PM 20.28 68.504 0.108 7.44 3.7 9.54
6/5/2022 3:30:00 PM 20.45 68.81 0.108 7.43 3.34 9.5
6/5/2022 3:45:00 PM 20.61 69.098 0.109 7.43 3.19 9.44
6/5/2022 4:00:00 PM 20.74 69.332 0.108 7.42 3.5 9.35
6/5/2022 4:15:00 PM 20.85 69.53 0.108 7.42 3.29 9.28
6/5/2022 4:30:00 PM 20.97 69.746 0.108 7.4 3.7 9.25
6/5/2022 4:45:00 PM 21.08 69.944 0.109 7.39 3.46 9.16
6/5/2022 5:00:00 PM 21.14 70.052 0.108 7.39 3.79 9.17
6/5/2022 5:15:00 PM 21.17 70.106 0.109 7.38 3.77 9.07
6/5/2022 5:30:00 PM 21.18 70.124 0.109 7.36 3.8 9.02
6/5/2022 5:45:00 PM 21.19 70.142 0.109 7.26 3.56 8.94
6/5/2022 6:00:00 PM 21.2 70.16 0.108 7.32 4.02 8.88
6/5/2022 6:15:00 PM 21.18 70.124 0.109 7.23 3.86 8.8
6/5/2022 6:30:00 PM 21.16 70.088 0.108 7.29 3.7 8.76
6/5/2022 6:45:00 PM 21.15 70.07 0.108 7.27 3.83 8.71
6/5/2022 7:00:00 PM 21.15 70.07 0.108 7.26 3.54 8.67
6/5/2022 7:15:00 PM 21.13 70.034 0.108 7.23 3.98 8.59
6/5/2022 7:30:00 PM 21.12 70.016 0.108 7.22 4.1 8.59
6/5/2022 7:45:00 PM 21.11 69.998 0.108 7.21 4.48 8.54
6/5/2022 8:00:00 PM 21.07 69.926 0.108 7.19 3.86 8.49
6/5/2022 8:15:00 PM 21.03 69.854 0.108 7.18 3.81 8.45
6/5/2022 8:30:00 PM 20.98 69.764 0.108 7.16 3.87 8.34
6/5/2022 8:45:00 PM 20.92 69.656 0.108 7.14 3.92 8.36
6/5/2022 9:00:00 PM 20.86 69.548 0.108 7.13 4.27 8.35
6/5/2022 9:15:00 PM 20.79 69.422 0.108 7.12 4.16 8.32
6/5/2022 9:30:00 PM 20.71 69.278 0.108 7.11 4.37 8.29
6/5/2022 9:45:00 PM 20.62 69.116 0.108 7.11 4.6 8.31
6/5/2022 10:00:00 PM 20.52 68.936 0.108 7.09 4.47 8.3
6/5/2022 10:15:00 PM 20.43 68.774 0.108 7.09 4.73 8.28
6/5/2022 10:30:00 PM 20.31 68.558 0.109 7.08 4.59 8.29
6/5/2022 10:45:00 PM 20.2 68.36 0.109 7.07 4.51 8.28
6/5/2022 11:00:00 PM 20.08 68.144 0.109 7.06 4.34 8.29
6/5/2022 11:15:00 PM 19.96 67.92799 0.109 7.06 4.71 8.31
6/5/2022 11:30:00 PM 19.85 67.73 0.108 7.06 4.19 8.34
6/5/2022 11:45:00 PM 19.74 67.532 0.108 7.05 4.69 8.35
6/6/2022 12:00:00 AM 19.64 67.352 0.108 7.05 4.72 8.36
6/6/2022 12:15:00 AM 19.54 67.172 0.108 7.05 4.51 8.37
6/6/2022 12:30:00 AM 19.43 66.974 0.108 7.04 4.97 8.38
6/6/2022 12:45:00 AM 19.33 66.794 0.108 7.04 4.84 8.43
6/6/2022 1:00:00 AM 19.24 66.632 0.108 7.01 4.65 8.44
6/6/2022 1:15:00 AM 19.14 66.452 0.108 7.04 4.46 8.47
6/6/2022 1:30:00 AM 19.05 66.29 0.108 7.01 4.17 8.48
6/6/2022 1:45:00 AM 18.96 66.128 0.108 7.03 4.24 8.51
6/6/2022 2:00:00 AM 18.86 65.948 0.108 6.97 4.4 8.52
6/6/2022 2:15:00 AM 18.77 65.786 0.108 7.03 4.23 8.56
6/6/2022 2:30:00 AM 18.67 65.606 0.108 6.96 4.08 8.58
6/6/2022 2:45:00 AM 18.57 65.426 0.108 7.01 4.43 8.6
6/6/2022 3:00:00 AM 18.48 65.264 0.108 7.01 4.24 8.6
6/6/2022 3:15:00 AM 18.39 65.102 0.108 7 4.28 8.63
6/6/2022 3:30:00 AM 18.31 64.958 0.108 6.96 4.21 8.64
6/6/2022 3:45:00 AM 18.22 64.796 0.108 6.99 4.22 8.69
6/6/2022 4:00:00 AM 18.13 64.634 0.108 6.98 4.21 8.7
6/6/2022 4:15:00 AM 18.04 64.472 0.108 6.89 4.52 8.72
6/6/2022 4:30:00 AM 17.95 64.31 0.108 6.97 4.39 8.72
6/6/2022 4:45:00 AM 17.86 64.148 0.109 6.95 4.31 8.75
6/6/2022 5:00:00 AM 17.78 64.004 0.109 6.96 4.41 8.79
6/6/2022 5:15:00 AM 17.69 63.842 0.109 6.95 4.68 8.81
6/6/2022 5:30:00 AM 17.6 63.68 0.109 6.94 4.64 8.83
6/6/2022 5:45:00 AM 17.51 63.518 0.109 6.93 4.28 8.84
6/6/2022 6:00:00 AM 17.44 63.392 0.109 6.93 4.28 8.88
6/6/2022 6:15:00 AM 17.37 63.266 0.109 6.88 4.64 8.94
6/6/2022 6:30:00 AM 17.3 63.14 0.109 6.94 4.27 8.96
6/6/2022 6:45:00 AM 17.24 63.032 0.109 6.93 4.33 8.99
6/6/2022 7:00:00 AM 17.18 62.924 0.109 6.94 4.29 9.03
6/6/2022 7:15:00 AM 17.13 62.834 0.109 6.95 4.23 9.09
6/6/2022 7:30:00 AM 17.09 62.762 0.109 6.95 3.97 9.14
6/6/2022 7:45:00 AM 17.03 62.654 0.109 6.89 4.18 9.17
6/6/2022 8:00:00 AM 17.02 62.636 0.109 6.98 4.01 9.25
6/6/2022 8:15:00 AM 17 62.6 0.109 6.99 4.22 9.28
6/6/2022 8:30:00 AM 17.02 62.636 0.109 7 3.76 9.33
6/6/2022 8:45:00 AM 17.03 62.654 0.109 7.02 3.72 9.36
6/6/2022 9:00:00 AM 17.04 62.672 0.109 7.04 3.89 9.43
6/6/2022 9:15:00 AM 17.03 62.654 0.109 7.06 3.81 9.49
6/6/2022 9:30:00 AM 17.04 62.672 0.109 7.08 3.85 9.58
6/6/2022 9:45:00 AM 17.11 62.798 0.109 7.11 3.84 9.63
6/6/2022 10:00:00 AM 17.2 62.96 0.109 7.13 3.8 9.67
6/6/2022 10:15:00 AM 17.36 63.248 0.109 7.1 3.71 9.73
6/6/2022 10:30:00 AM 17.42 63.356 0.109 7.19 3.58 9.78
6/6/2022 10:45:00 AM 17.39 63.302 0.109 7.19 3.7 9.76
6/6/2022 11:00:00 AM 17.62 63.716 0.109 7.22 3.74 9.79
6/6/2022 11:15:00 AM 17.74 63.932 0.109 7.23 3.32 9.81
6/6/2022 11:30:00 AM 17.9 64.22 0.109 7.26 3.43 9.86
6/6/2022 11:45:00 AM 18.04 64.472 0.109 7.26 3.52 9.88
6/6/2022 12:00:00 PM 18.24 64.832 0.109 7.3 3.36 9.85
6/6/2022 12:15:00 PM 18.45 65.21 0.109 7.32 3.66 9.87
6/6/2022 12:30:00 PM 18.69 65.642 0.109 7.28 3.28 9.88
6/6/2022 12:45:00 PM 18.94 66.092 0.109 7.34 3.38 9.85
6/6/2022 1:00:00 PM 19.19 66.542 0.109 7.38 3.37 9.85
6/6/2022 1:15:00 PM 19.43 66.974 0.109 7.32 3.56 9.82
6/6/2022 1:30:00 PM 19.67 67.406 0.109 7.39 3.18 9.78
6/6/2022 1:45:00 PM 19.93 67.874 0.109 7.41 3.44 9.73
6/6/2022 2:00:00 PM 20.15 68.27 0.109 7.42 3.45 9.72
6/6/2022 2:15:00 PM 20.32 68.576 0.109 7.43 3.34 9.68
6/6/2022 2:30:00 PM 20.59 69.062 0.109 7.43 3.27 9.64
6/6/2022 2:45:00 PM 20.77 69.386 0.109 7.46 3.36 9.55
6/6/2022 3:00:00 PM 21.03 69.854 0.109 7.46 3.32 9.53
6/6/2022 3:15:00 PM 21.17 70.106 0.109 7.46 3.52 9.48
6/6/2022 3:30:00 PM 21.32 70.376 0.109 7.46 3.43 9.4
6/6/2022 3:45:00 PM 21.45 70.61 0.109 7.43 3.17 9.35
6/6/2022 4:00:00 PM 21.62 70.916 0.11 7.45 3.35 9.32
6/6/2022 4:15:00 PM 21.72 71.096 0.11 7.45 3.43 9.23
6/6/2022 4:30:00 PM 21.8 71.24 0.11 7.44 3.63 9.18
6/6/2022 4:45:00 PM 21.85 71.33 0.11 7.43 4.15 9.11
6/6/2022 5:00:00 PM 21.86 71.348 0.11 7.41 3.29 9.1
6/6/2022 5:15:00 PM 21.87 71.366 0.11 7.39 3.67 9.06
6/6/2022 5:30:00 PM 21.84 71.312 0.11 7.4 3.5 9.01
6/6/2022 5:45:00 PM 21.8 71.24 0.11 7.38 3.47 8.94
6/6/2022 6:00:00 PM 21.76 71.168 0.11 7.36 3.76 8.88
6/6/2022 6:15:00 PM 21.71 71.078 0.11 7.29 3.64 8.85
6/6/2022 6:30:00 PM 21.67 71.006 0.11 7.32 3.76 8.79
6/6/2022 6:45:00 PM 21.64 70.952 0.11 7.31 3.85 8.75
6/6/2022 7:00:00 PM 21.61 70.898 0.11 7.29 3.88 8.69
6/6/2022 7:15:00 PM 21.57 70.826 0.11 7.27 4.06 8.64
6/6/2022 7:30:00 PM 21.51 70.718 0.11 7.25 3.78 8.57
6/6/2022 7:45:00 PM 21.44 70.592 0.11 7.23 4 8.51
6/6/2022 8:00:00 PM 21.4 70.52 0.11 7.22 4.45 8.46
6/6/2022 8:15:00 PM 21.35 70.43 0.11 7.19 3.99 8.42
6/6/2022 8:30:00 PM 21.31 70.358 0.11 7.18 4.1 8.37
6/6/2022 8:45:00 PM 21.27 70.286 0.109 7.17 4.25 8.33
6/6/2022 9:00:00 PM 21.22 70.196 0.11 7.15 4.04 8.29
6/6/2022 9:15:00 PM 21.18 70.124 0.109 7.14 4.52 8.22
6/6/2022 9:30:00 PM 21.13 70.034 0.109 7.13 4.5 8.23
6/6/2022 9:45:00 PM 21.08 69.944 0.11 7.12 4.53 8.2
6/6/2022 10:00:00 PM 21.02 69.836 0.11 7.1 4.49 8.2
6/6/2022 10:15:00 PM 20.97 69.746 0.11 7.1 4.4 8.16
6/6/2022 10:30:00 PM 20.91 69.638 0.11 7.08 4.28 8.15
6/6/2022 10:45:00 PM 20.86 69.548 0.11 7.07 4.74 8.15
6/6/2022 11:00:00 PM 20.81 69.458 0.11 7.07 4.62 8.14
6/6/2022 11:15:00 PM 20.76 69.368 0.11 7.07 4.6 8.12
6/6/2022 11:30:00 PM 20.7 69.26 0.11 7.06 4.67 8.13
6/6/2022 11:45:00 PM 20.65 69.17 0.11 7.06 4.56 8.13
6/7/2022 12:00:00 AM 20.6 69.08 0.11 7.05 4.43 8.1
6/7/2022 12:15:00 AM 20.55 68.99 0.11 7.05 4.64 8.12
6/7/2022 12:30:00 AM 20.5 68.9 0.11 7.04 4.52 8.14
6/7/2022 12:45:00 AM 20.45 68.81 0.11 7.04 4.78 8.15
6/7/2022 1:00:00 AM 20.39 68.702 0.11 7.03 4.74 8.12
6/7/2022 1:15:00 AM 20.35 68.63 0.11 7.02 4.79 8.14
6/7/2022 1:30:00 AM 20.3 68.54 0.11 7.04 4.42 8.19
6/7/2022 1:45:00 AM 20.25 68.45 0.11 7.03 4.45 8.19
6/7/2022 2:00:00 AM 20.21 68.378 0.11 7.03 5.35 8.21
6/7/2022 2:15:00 AM 20.17 68.306 0.11 7.03 4.87 8.21
6/7/2022 2:30:00 AM 20.13 68.234 0.11 7.03 4.93 8.23
6/7/2022 2:45:00 AM 20.1 68.18 0.11 7.03 5.03 8.22
6/7/2022 3:00:00 AM 20.04 68.07201 0.11 7.03 4.99 8.23
6/7/2022 3:15:00 AM 20 68 0.11 7.03 5.02 8.23
6/7/2022 3:30:00 AM 19.97 67.946 0.11 7.02 4.89 8.24
6/7/2022 3:45:00 AM 19.94 67.892 0.11 7.03 5.14 8.24
6/7/2022 4:00:00 AM 19.89 67.802 0.11 7.03 4.68 8.26
6/7/2022 4:15:00 AM 19.84 67.712 0.11 7.02 5.1 8.27
6/7/2022 4:30:00 AM 19.8 67.64 0.11 7.02 4.65 8.29
6/7/2022 4:45:00 AM 19.77 67.586 0.11 7.02 4.74 8.3
6/7/2022 5:00:00 AM 19.73 67.514 0.111 7.02 4.84 8.32
6/7/2022 5:15:00 AM 19.67 67.406 0.111 7.02 4.96 8.31
6/7/2022 5:30:00 AM 19.61 67.298 0.111 6.95 4.86 8.34
6/7/2022 5:45:00 AM 19.57 67.226 0.111 7.03 4.6 8.36
6/7/2022 6:00:00 AM 19.53 67.154 0.111 7.02 4.71 8.36
6/7/2022 6:15:00 AM 19.5 67.1 0.111 7.02 5.13 8.37
6/7/2022 6:30:00 AM 19.46 67.028 0.111 7.04 4.91 8.41
6/7/2022 6:45:00 AM 19.43 66.974 0.111 7.03 4.57 8.45
6/7/2022 7:00:00 AM 19.4 66.92 0.111 7.04 4.82 8.48
6/7/2022 7:15:00 AM 19.38 66.884 0.111 7.05 4.57 8.53
6/7/2022 7:30:00 AM 19.35 66.83 0.111 7.05 4.62 8.6
6/7/2022 7:45:00 AM 19.33 66.794 0.111 7.07 4.4 8.66
6/7/2022 8:00:00 AM 19.32 66.776 0.111 7.08 4.48 8.73
6/7/2022 8:15:00 AM 19.32 66.776 0.111 7.09 4.4 8.79
6/7/2022 8:30:00 AM 19.32 66.776 0.111 7.1 4.65 8.85
6/7/2022 8:45:00 AM 19.32 66.776 0.111 7.12 4.57 8.91
6/7/2022 9:00:00 AM 19.32 66.776 0.111 7.12 4.04 8.96
6/7/2022 9:15:00 AM 19.32 66.776 0.111 7.14 4.08 9.01
6/7/2022 9:30:00 AM 19.33 66.794 0.111 7.15 4.15 9.05
6/7/2022 9:45:00 AM 19.33 66.794 0.111 7.16 4.22 9.07
6/7/2022 10:00:00 AM 19.34 66.812 0.111 7.17 4.11 9.09
6/7/2022 10:15:00 AM 19.35 66.83 0.111 7.16 4.12 9.07
6/7/2022 10:30:00 AM 19.36 66.848 0.111 7.18 4.72 9.07
6/7/2022 10:45:00 AM 19.37 66.866 0.111 7.18 5.14 9.1
6/7/2022 11:00:00 AM 19.41 66.938 0.111 7.19 3.88 9.14
6/7/2022 11:15:00 AM 19.43 66.974 0.111 7.21 3.82 9.16
6/7/2022 11:30:00 AM 19.43 66.974 0.111 7.21 3.83 9.14
6/7/2022 11:45:00 AM 19.43 66.974 0.111 7.2 3.85 9.11
6/7/2022 12:00:00 PM 19.46 67.028 0.111 7.21 4 9.14
6/7/2022 12:15:00 PM 19.47 67.046 0.111 7.21 3.87 9.14
6/7/2022 12:30:00 PM 19.5 67.1 0.111 7.22 3.74 9.15
6/7/2022 12:45:00 PM 19.51 67.118 0.111 7.22 3.72 9.15
6/7/2022 1:00:00 PM 19.5 67.1 0.111 7.22 3.59 9.08
6/7/2022 1:15:00 PM 19.5 67.1 0.111 7.2 3.75 9.04
6/7/2022 1:30:00 PM 19.53 67.154 0.111 7.2 3.8 9.06
6/7/2022 1:45:00 PM 19.57 67.226 0.111 7.17 3.77 9.1
6/7/2022 2:00:00 PM 19.57 67.226 0.111 7.22 3.76 9.09
6/7/2022 2:15:00 PM 19.58 67.244 0.111 7.21 3.84 9.05
6/7/2022 2:30:00 PM 19.58 67.244 0.11 7.2 4.33 9.01
6/7/2022 2:45:00 PM 19.58 67.244 0.11 7.2 4.57 8.93
6/7/2022 3:00:00 PM 19.56 67.208 0.11 7.17 4.18 8.89
6/7/2022 3:15:00 PM 19.56 67.208 0.11 7.18 3.84 8.87
6/7/2022 3:30:00 PM 19.55 67.19 0.11 7.17 3.82 8.85
6/7/2022 3:45:00 PM 19.54 67.172 0.11 7.15 3.94 8.84
6/7/2022 4:00:00 PM 19.53 67.154 0.11 7.16 4.06 8.81
6/7/2022 4:15:00 PM 19.52 67.136 0.11 7.15 3.86 8.79
6/7/2022 4:30:00 PM 19.52 67.136 0.11 7.15 4.02 8.78
6/7/2022 4:45:00 PM 19.51 67.118 0.11 7.15 4.2 8.78
6/7/2022 5:00:00 PM 19.51 67.118 0.11 7.15 4.02 8.77
6/7/2022 5:15:00 PM 19.5 67.1 0.11 7.14 4.32 8.78
6/7/2022 5:30:00 PM 19.49 67.082 0.11 7.14 4.23 8.76
6/7/2022 5:45:00 PM 19.48 67.064 0.11 7.13 4.61 8.75
6/7/2022 6:00:00 PM 19.48 67.064 0.11 7.12 4.87 8.76
6/7/2022 6:15:00 PM 19.47 67.046 0.11 7.13 5.13 8.75
6/7/2022 6:30:00 PM 19.46 67.028 0.11 7.12 5.91 8.75
6/7/2022 6:45:00 PM 19.44 66.992 0.11 7.12 5.63 8.73
6/7/2022 7:00:00 PM 19.43 66.974 0.111 7.12 5.86 8.74
6/7/2022 7:15:00 PM 19.42 66.956 0.111 7.13 5.58 8.74
6/7/2022 7:30:00 PM 19.4 66.92 0.111 7.12 5.47 8.7
6/7/2022 7:45:00 PM 19.38 66.884 0.111 7.11 5.14 8.71
6/7/2022 8:00:00 PM 19.36 66.848 0.111 7.03 5.58 8.69
6/7/2022 8:15:00 PM 19.35 66.83 0.111 7.1 5.23 8.66
6/7/2022 8:30:00 PM 19.33 66.794 0.111 7.09 5.05 8.65
6/7/2022 8:45:00 PM 19.31 66.758 0.111 7.09 4.94 8.64
6/7/2022 9:00:00 PM 19.3 66.74 0.111 7.08 5.06 8.62
6/7/2022 9:15:00 PM 19.28 66.704 0.111 7.08 5.17 8.61
6/7/2022 9:30:00 PM 19.26 66.668 0.111 7.07 5.43 8.6
6/7/2022 9:45:00 PM 19.25 66.65 0.11 7.07 5.57 8.59
6/7/2022 10:00:00 PM 19.23 66.614 0.11 7.07 5.52 8.56
6/7/2022 10:15:00 PM 19.21 66.578 0.11 7.06 5.32 8.57
6/7/2022 10:30:00 PM 19.19 66.542 0.11 7.05 5.75 8.56
6/7/2022 10:45:00 PM 19.17 66.506 0.11 7.05 6.18 8.55
6/7/2022 11:00:00 PM 19.15 66.47 0.11 7.05 5.77 8.56
6/7/2022 11:15:00 PM 19.13 66.434 0.11 7.04 5.93 8.56
6/7/2022 11:30:00 PM 19.1 66.38 0.11 7.03 5.96 8.54
6/7/2022 11:45:00 PM 19.08 66.344 0.11 7.03 5.45 8.57
6/8/2022 12:00:00 AM 19.06 66.308 0.11 7.03 5.84 8.59
6/8/2022 12:15:00 AM 19.04 66.272 0.11 7.03 5.91 8.59
6/8/2022 12:30:00 AM 19.01 66.218 0.111 7.03 6.19 8.58
6/8/2022 12:45:00 AM 18.99 66.182 0.111 6.95 6.09 8.59
6/8/2022 1:00:00 AM 18.96 66.128 0.111 7.03 6.14 8.6
6/8/2022 1:15:00 AM 18.93 66.074 0.111 7.03 7.15 8.6
6/8/2022 1:30:00 AM 18.9 66.02 0.112 7.02 6.31 8.61
6/8/2022 1:45:00 AM 18.87 65.966 0.112 7.02 5.72 8.62
6/8/2022 2:00:00 AM 18.85 65.93 0.112 7.03 6.12 8.6
6/8/2022 2:15:00 AM 18.82 65.876 0.112 7.03 6.22 8.6
6/8/2022 2:30:00 AM 18.79 65.82201 0.112 7.03 5.73 8.65
6/8/2022 2:45:00 AM 18.76 65.768 0.112 7.03 5.96 8.66
6/8/2022 3:00:00 AM 18.72 65.696 0.112 7.01 5.78 8.66
6/8/2022 3:15:00 AM 18.68 65.624 0.112 7.02 5.99 8.63
6/8/2022 3:30:00 AM 18.64 65.552 0.112 7.01 5.69 8.67
6/8/2022 3:45:00 AM 18.59 65.462 0.112 7.02 5.41 8.7
6/8/2022 4:00:00 AM 18.53 65.354 0.113 7.02 5.45 8.68
6/8/2022 4:15:00 AM 18.48 65.264 0.113 7.02 5.63 8.72
6/8/2022 4:30:00 AM 18.43 65.174 0.113 7.01 5.77 8.75
6/8/2022 4:45:00 AM 18.38 65.084 0.113 7.01 5.76 8.77
6/8/2022 5:00:00 AM 18.32 64.976 0.113 6.92 5.62 8.76
6/8/2022 5:15:00 AM 18.27 64.886 0.113 7.01 5.58 8.79
6/8/2022 5:30:00 AM 18.22 64.796 0.113 7 5.93 8.78
6/8/2022 5:45:00 AM 18.16 64.688 0.113 7 5.58 8.81
6/8/2022 6:00:00 AM 18.1 64.58 0.113 7.01 5.55 8.82
6/8/2022 6:15:00 AM 18.04 64.472 0.113 7.01 5.42 8.86
6/8/2022 6:30:00 AM 17.99 64.382 0.113 7 5.55 8.88
6/8/2022 6:45:00 AM 17.95 64.31 0.113 7.01 5.58 8.89
6/8/2022 7:00:00 AM 17.91 64.238 0.113 7 5.26 8.95
6/8/2022 7:15:00 AM 17.87 64.166 0.113 7.01 5.16 8.99
6/8/2022 7:30:00 AM 17.85 64.13 0.112 7.02 5.17 9.01
6/8/2022 7:45:00 AM 17.83 64.094 0.112 7.02 5.54 9.06
6/8/2022 8:00:00 AM 17.82 64.076 0.112 7.03 5.86 9.08
6/8/2022 8:15:00 AM 17.83 64.094 0.112 7.07 4.47 9.14
6/8/2022 8:30:00 AM 17.84 64.112 0.112 7.07 5.44 9.17
6/8/2022 8:45:00 AM 17.82 64.076 0.112 7.09 5.03 9.2
6/8/2022 9:00:00 AM 17.79 64.022 0.112 7.09 4.81 9.26
6/8/2022 9:15:00 AM 17.77 63.986 0.112 7.11 5.18 9.27
6/8/2022 9:30:00 AM 17.89 64.202 0.112 7.13 4.79 9.33
6/8/2022 9:45:00 AM 17.98 64.364 0.112 7.15 4.53 9.4
6/8/2022 10:00:00 AM 18.05 64.49 0.112 7.18 4.73 9.45
6/8/2022 10:15:00 AM 18.15 64.67 0.112 7.19 4.82 9.49
6/8/2022 10:30:00 AM 18.22 64.796 0.112 7.22 4.47 9.54
6/8/2022 10:45:00 AM 18.22 64.796 0.112 7.22 5.1 9.56
6/8/2022 11:00:00 AM 18.38 65.084 0.112 7.25 4.85 9.62
6/8/2022 11:15:00 AM 18.44 65.192 0.112 7.19 4.43 9.63
6/8/2022 11:30:00 AM 18.66 65.588 0.112 7.29 4.32 9.65
6/8/2022 11:45:00 AM 18.81 65.858 0.112 7.31 4.44 9.7
6/8/2022 12:00:00 PM 19.04 66.272 0.112 7.33 4.28 9.72
6/8/2022 12:15:00 PM 19.24 66.632 0.112 7.35 4.13 9.72
6/8/2022 12:30:00 PM 19.45 67.01 0.112 7.38 4.38 9.74
6/8/2022 12:45:00 PM 19.72 67.496 0.112 7.39 4.05 9.7
6/8/2022 1:00:00 PM 19.86 67.748 0.112 7.4 4.16 9.67
6/8/2022 1:15:00 PM 20.08 68.144 0.112 7.41 4.04 9.65
6/8/2022 1:30:00 PM 20.28 68.504 0.112 7.42 4.07 9.62
6/8/2022 1:45:00 PM 20.54 68.972 0.112 7.45 4.07 9.61
6/8/2022 2:00:00 PM 20.79 69.422 0.113 7.45 4.34 9.57
6/8/2022 2:15:00 PM 20.96 69.728 0.113 7.45 3.96 9.5
6/8/2022 2:30:00 PM 21.21 70.17799 0.113 7.46 3.96 9.48
6/8/2022 2:45:00 PM 21.46 70.628 0.113 7.47 3.97 9.41
6/8/2022 3:00:00 PM 21.66 70.988 0.113 7.47 3.87 9.39
6/8/2022 3:15:00 PM 21.85 71.33 0.113 7.45 3.95 9.31
6/8/2022 3:30:00 PM 22.01 71.618 0.114 7.41 4.23 9.26
6/8/2022 3:45:00 PM 22.17 71.906 0.114 7.46 4.48 9.19
6/8/2022 4:00:00 PM 22.3 72.14 0.114 7.45 4.09 9.15
6/8/2022 4:15:00 PM 22.4 72.32 0.114 7.44 3.83 9.06
6/8/2022 4:30:00 PM 22.47 72.446 0.114 7.43 4.15 9
6/8/2022 4:45:00 PM 22.51 72.518 0.114 7.41 4.32 8.92
6/8/2022 5:00:00 PM 22.53 72.554 0.115 7.4 4.12 8.84
6/8/2022 5:15:00 PM 22.53 72.554 0.115 7.37 4.22 8.78
6/8/2022 5:30:00 PM 22.53 72.554 0.115 7.37 4.33 8.77
6/8/2022 5:45:00 PM 22.51 72.518 0.115 7.35 4.4 8.7
6/8/2022 6:00:00 PM 22.48 72.464 0.115 7.26 4.14 8.65
6/8/2022 6:15:00 PM 22.44 72.392 0.115 7.31 4.41 8.6
6/8/2022 6:30:00 PM 22.4 72.32 0.115 7.3 4.43 8.56
6/8/2022 6:45:00 PM 22.35 72.23 0.116 7.28 4.61 8.5
6/8/2022 7:00:00 PM 22.31 72.158 0.116 7.26 4.57 8.47
6/8/2022 7:15:00 PM 22.26 72.068 0.116 7.24 4.5 8.41
6/8/2022 7:30:00 PM 22.22 71.996 0.116 7.23 4.57 8.37
6/8/2022 7:45:00 PM 22.16 71.888 0.116 7.21 4.94 8.31
6/8/2022 8:00:00 PM 22.11 71.798 0.116 7.13 4.71 8.27
6/8/2022 8:15:00 PM 22.05 71.69 0.116 7.18 4.52 8.23
6/8/2022 8:30:00 PM 21.99 71.582 0.116 7.17 8380.34 8.18
6/8/2022 8:45:00 PM 21.86 71.348 0.116 7.16 4.8 8.17
6/8/2022 9:00:00 PM 21.87 71.366 0.116 7.14 4.85 8.12
6/8/2022 9:15:00 PM 21.75 71.15 0.116 7.13 5.37 8.12
6/8/2022 9:30:00 PM 21.66 70.988 0.116 7.12 5.59 8.09
6/8/2022 9:45:00 PM 21.58 70.844 0.116 7.11 5.93 8.09
6/8/2022 10:00:00 PM 21.49 70.682 0.116 7.1 5.69 8.06
6/8/2022 10:15:00 PM 21.4 70.52 0.116 7.09 5.18 8.05
6/8/2022 10:30:00 PM 21.31 70.358 0.116 7.08 6.38 8.03
6/8/2022 10:45:00 PM 21.23 70.214 0.116 7.08 5.36 8.06
6/8/2022 11:00:00 PM 21.14 70.052 0.116 7.04 6.01 8.06
6/8/2022 11:15:00 PM 21.04 69.872 0.116 7.07 6.06 8.07
6/8/2022 11:30:00 PM 20.95 69.71 0.116 7.06 5.79 8.05
6/8/2022 11:45:00 PM 20.84 69.512 0.115 7.03 6.15 8.05
6/9/2022 12:00:00 AM 20.75 69.35 0.115 7.05 6.05 8.06
6/9/2022 12:15:00 AM 20.67 69.206 0.115 7.03 5.97 8.08
6/9/2022 12:30:00 AM 20.59 69.062 0.115 7.04 5.84 8.08
6/9/2022 12:45:00 AM 20.51 68.918 0.115 7.04 6 8.07
6/9/2022 1:00:00 AM 20.42 68.756 0.114 7.04 6.76 8.13
6/9/2022 1:15:00 AM 20.36 68.648 0.115 7.04 7.34 8.14
6/9/2022 1:30:00 AM 20.32 68.576 0.116 7.05 7.13 8.12
6/9/2022 1:45:00 AM 20.27 68.486 0.118 7.06 7.96 8.13
6/9/2022 2:00:00 AM 20.23 68.414 0.119 7.07 8.58 8.14
6/9/2022 2:15:00 AM 20.16 68.288 0.119 7.07 9.89 8.15
6/9/2022 2:30:00 AM 20.1 68.18 0.12 6.98 11.15 8.16
6/9/2022 2:45:00 AM 20.02 68.036 0.12 7.07 13.34 8.21
6/9/2022 3:00:00 AM 19.95 67.91 0.121 7.07 15.95 8.22
6/9/2022 3:15:00 AM 19.87 67.766 0.123 7.07 16.65 8.24
6/9/2022 3:30:00 AM 19.78 67.604 0.126 7.09 17.56 8.27
6/9/2022 3:45:00 AM 19.71 67.478 0.128 7.09 23.51 8.24
6/9/2022 4:00:00 AM 19.64 67.352 0.129 7.09 24.96 8.3
6/9/2022 4:15:00 AM 19.59 67.262 0.129 7.08 31.04 8.32
6/9/2022 4:30:00 AM 19.55 67.19 0.13 7.11 22.96 8.35
6/9/2022 4:45:00 AM 19.51 67.118 0.132 7.1 19.52 8.36
6/9/2022 5:00:00 AM 19.47 67.046 0.134 7.11 19.59 8.41
6/9/2022 5:15:00 AM 19.44 66.992 0.134 7.1 16.83 8.42
6/9/2022 5:30:00 AM 19.42 66.956 0.132 7.09 14.72 8.4
6/9/2022 5:45:00 AM 19.39 66.902 0.13 7.08 14.13 8.42
6/9/2022 6:00:00 AM 19.36 66.848 0.128 7.09 14.69 8.48
6/9/2022 6:15:00 AM 19.33 66.794 0.126 7.09 16.16 8.46
6/9/2022 6:30:00 AM 19.29 66.722 0.124 7.09 14.94 8.51
6/9/2022 6:45:00 AM 19.26 66.668 0.123 7.08 15.25 8.51
6/9/2022 7:00:00 AM 19.22 66.596 0.122 7.06 16.55 8.51
6/9/2022 7:15:00 AM 19.19 66.542 0.122 7.08 13.98 8.53
6/9/2022 7:30:00 AM 19.16 66.488 0.122 7.09 14.58 8.56
6/9/2022 7:45:00 AM 19.14 66.452 0.123 7.09 13.69 8.6
6/9/2022 8:00:00 AM 19.12 66.416 0.123 7.1 14.94 8.66
6/9/2022 8:15:00 AM 19.12 66.416 0.123 7.11 15.74 8.65
6/9/2022 8:30:00 AM 19.11 66.398 0.124 7.12 16.49 8.71
6/9/2022 8:45:00 AM 19.09 66.362 0.124 7.14 14.54 8.75
6/9/2022 9:00:00 AM 19.08 66.344 0.125 7.16 15.54 8.78
6/9/2022 9:15:00 AM 19.07 66.326 0.125 7.16 17.36 8.83
6/9/2022 9:30:00 AM 19.08 66.344 0.125 7.17 22.57 8.91
6/9/2022 9:45:00 AM 19.12 66.416 0.125 7.18 15.5 8.98
6/9/2022 10:00:00 AM 19.15 66.47 0.124 7.21 15.66 9.03
6/9/2022 10:15:00 AM 19.14 66.452 0.123 7.22 13.78 9.09
6/9/2022 10:30:00 AM 19.26 66.668 0.123 7.24 12.54 9.14
6/9/2022 10:45:00 AM 19.4 66.92 0.123 7.26 12.2 9.22
6/9/2022 11:00:00 AM 19.47 67.046 0.123 7.29 9.87 9.25
6/9/2022 11:15:00 AM 19.45 67.01 0.123 7.29 11.82 9.24
6/9/2022 11:30:00 AM 19.52 67.136 0.124 7.31 10.06 9.27
6/9/2022 11:45:00 AM 19.61 67.298 0.125 7.32 9.78 9.28
6/9/2022 12:00:00 PM 19.65 67.37 0.126 7.34 10.35 9.27
6/9/2022 12:15:00 PM 19.89 67.802 0.126 7.36 9.89 9.36
6/9/2022 12:30:00 PM 20.05 68.09 0.126 7.38 9.88 9.36
6/9/2022 12:45:00 PM 20.22 68.396 0.126 7.4 9 9.41
6/9/2022 1:00:00 PM 20.26 68.468 0.126 7.41 8.31 9.39
6/9/2022 1:15:00 PM 20.49 68.882 0.125 7.42 9 9.37
6/9/2022 1:30:00 PM 20.67 69.206 0.124 7.42 7.99 9.37
6/9/2022 1:45:00 PM 20.78 69.404 0.124 7.44 7.22 9.38
6/9/2022 2:00:00 PM 20.87 69.566 0.123 7.45 7.59 9.37
6/9/2022 2:15:00 PM 21.01 69.818 0.121 7.45 7 9.37
6/9/2022 2:30:00 PM 21.09 69.962 0.121 7.46 8.23 9.33
6/9/2022 2:45:00 PM 21.12 70.016 0.12 7.45 6.53 9.23
6/9/2022 3:00:00 PM 21.19 70.142 0.12 7.39 6.53 9.18
6/9/2022 3:15:00 PM 21.28 70.304 0.119 7.43 6.2 9.16
6/9/2022 3:30:00 PM 21.28 70.304 0.119 7.43 7.09 9.11
6/9/2022 3:45:00 PM 21.36 70.448 0.118 7.4 6.07 9.08
6/9/2022 4:00:00 PM 21.44 70.592 0.118 7.4 6.27 9.11
6/9/2022 4:15:00 PM 21.51 70.718 0.118 7.43 6.26 9.11
6/9/2022 4:30:00 PM 21.53 70.754 0.118 7.42 6.18 9.09
6/9/2022 4:45:00 PM 21.44 70.592 0.118 7.41 6.41 9.06
6/9/2022 5:00:00 PM 21.41 70.538 0.117 7.39 6.29 9
6/9/2022 5:15:00 PM 21.38 70.484 0.118 7.31 6.45 8.95
6/9/2022 5:30:00 PM 21.31 70.358 0.117 7.36 6.34 8.96
6/9/2022 5:45:00 PM 21.25 70.25 0.118 7.37 5.91 8.97
6/9/2022 6:00:00 PM 21.16 70.088 0.118 7.36 6.81 8.99
6/9/2022 6:15:00 PM 21.1 69.98 0.117 7.36 6.2 8.99
6/9/2022 6:30:00 PM 21.04 69.872 0.118 7.35 6.39 8.96
6/9/2022 6:45:00 PM 20.98 69.764 0.117 7.33 5.77 8.88
6/9/2022 7:00:00 PM 20.91 69.638 0.117 7.3 6.39 8.81
6/9/2022 7:15:00 PM 20.85 69.53 0.117 7.21 5.9 8.77
6/9/2022 7:30:00 PM 20.8 69.44 0.118 7.27 6.19 8.72
6/9/2022 7:45:00 PM 20.75 69.35 0.117 7.24 6.46 8.67
6/9/2022 8:00:00 PM 20.69 69.242 0.118 7.23 6.33 8.64
6/9/2022 8:15:00 PM 20.62 69.116 0.118 7.22 6.87 8.58
6/9/2022 8:30:00 PM 20.54 68.972 0.118 7.2 7.14 8.56
6/9/2022 8:45:00 PM 20.47 68.846 0.118 7.18 6.65 8.5
6/9/2022 9:00:00 PM 20.37 68.666 0.118 7.16 6.82 8.47
6/9/2022 9:15:00 PM 20.28 68.504 0.118 7.16 7.17 8.48
6/9/2022 9:30:00 PM 20.18 68.324 0.118 7.14 6.34 8.44
6/9/2022 9:45:00 PM 20.08 68.144 0.119 7.06 7.39 8.44
6/9/2022 10:00:00 PM 19.98 67.964 0.119 7.13 7.04 8.43
6/9/2022 10:15:00 PM 19.87 67.766 0.119 7.12 6.99 8.43
6/9/2022 10:30:00 PM 19.77 67.586 0.12 7.11 7.07 8.44
6/9/2022 10:45:00 PM 19.66 67.388 0.12 7.1 7 8.43
6/9/2022 11:00:00 PM 19.56 67.208 0.12 7.02 7.29 8.43
6/9/2022 11:15:00 PM 19.45 67.01 0.121 7.09 6.59 8.45
6/9/2022 11:30:00 PM 19.35 66.83 0.121 7.08 6.97 8.47
6/9/2022 11:45:00 PM 19.24 66.632 0.122 7.06 6.8 8.48
6/10/2022 12:00:00 AM 19.14 66.452 0.122 7.05 6.77 8.47
6/10/2022 12:15:00 AM 19.05 66.29 0.122 7.04 6.64 8.5
6/10/2022 12:30:00 AM 18.95 66.11 0.122 7.03 6.82 8.51
6/10/2022 12:45:00 AM 18.86 65.948 0.123 7.01 6.93 8.53
6/10/2022 1:00:00 AM 18.77 65.786 0.123 7.01 6.4 8.56
6/10/2022 1:15:00 AM 18.69 65.642 0.123 7 6.61 8.56
6/10/2022 1:30:00 AM 18.6 65.48 0.123 7 7.38 8.58
6/10/2022 1:45:00 AM 18.51 65.318 0.123 6.99 6.8 8.63
6/10/2022 2:00:00 AM 18.43 65.174 0.124 6.99 6.67 8.62
6/10/2022 2:15:00 AM 18.35 65.03 0.124 6.98 6.93 8.65
6/10/2022 2:30:00 AM 18.27 64.886 0.124 6.99 6.78 8.67
6/10/2022 2:45:00 AM 18.18 64.724 0.124 6.98 7.27 8.69
6/10/2022 3:00:00 AM 18.09 64.562 0.124 6.97 7.32 8.7
6/10/2022 3:15:00 AM 18.02 64.436 0.124 6.97 6.42 8.74
6/10/2022 3:30:00 AM 17.96 64.328 0.124 6.98 6.41 8.75
6/10/2022 3:45:00 AM 17.88 64.184 0.124 6.98 6.52 8.76
6/10/2022 4:00:00 AM 17.8 64.04 0.124 6.98 6.63 8.78
6/10/2022 4:15:00 AM 17.72 63.896 0.124 6.98 6.53 8.81
6/10/2022 4:30:00 AM 17.65 63.77 0.124 6.96 6.38 8.83
6/10/2022 4:45:00 AM 17.57 63.626 0.124 6.91 6.4 8.83
6/10/2022 5:00:00 AM 17.49 63.482 0.124 6.98 6.65 8.87
6/10/2022 5:15:00 AM 17.42 63.356 0.124 6.97 6.47 8.88
6/10/2022 5:30:00 AM 17.34 63.212 0.124 6.97 5.83 8.9
6/10/2022 5:45:00 AM 17.27 63.086 0.124 6.97 6.64 8.91
6/10/2022 6:00:00 AM 17.2 62.96 0.124 6.98 6.34 8.94
6/10/2022 6:15:00 AM 17.13 62.834 0.124 6.95 6.54 8.95
6/10/2022 6:30:00 AM 17.07 62.726 0.124 6.98 6.26 9.01
6/10/2022 6:45:00 AM 17.02 62.636 0.124 6.99 5.97 9.05
6/10/2022 7:00:00 AM 16.98 62.564 0.124 6.99 6.03 9.09
6/10/2022 7:15:00 AM 16.95 62.51 0.124 6.99 5.55 9.14
6/10/2022 7:30:00 AM 16.93 62.474 0.124 7 5.99 9.16
6/10/2022 7:45:00 AM 16.92 62.456 0.124 7.02 5.6 9.22
6/10/2022 8:00:00 AM 16.91 62.438 0.124 7.05 6.23 9.28
6/10/2022 8:15:00 AM 16.92 62.456 0.124 7.06 5.7 9.31
6/10/2022 8:30:00 AM 16.93 62.474 0.124 7.08 5.6 9.35
6/10/2022 8:45:00 AM 16.95 62.51 0.124 7.09 5.5 9.39
6/10/2022 9:00:00 AM 16.98 62.564 0.124 7.12 5.45 9.44
6/10/2022 9:15:00 AM 17.02 62.636 0.124 7.14 5.12 9.47
6/10/2022 9:30:00 AM 17.09 62.762 0.124 7.16 4.98 9.53
6/10/2022 9:45:00 AM 17.16 62.888 0.124 7.19 5.18 9.6
6/10/2022 10:00:00 AM 17.24 63.032 0.124 7.2 5.17 9.62
6/10/2022 10:15:00 AM 17.34 63.212 0.123 7.21 4.95 9.7
6/10/2022 10:30:00 AM 17.45 63.41 0.123 7.26 4.75 9.77
6/10/2022 10:45:00 AM 17.56 63.608 0.123